<?xml version="1.0" encoding="UTF-8" standalone="no" ?>
<gpx xmlns="http://www.topografix.com/GPX/1/1" xmlns:xsi="http://www.w3.org/2001/XMLSchema-instance" xsi:schemaLocation="http://www.topografix.com/GPX/1/1 http://www.topografix.com/GPX/1/1/gpx.xsd" version="1.1" creator="VisuGPX - https://www.visugpx.com">
  <metadata>
    <name>Boucle vers Lucenay </name>
    <desc><![CDATA[
]]></desc>
  </metadata>
  <trk>
    <name><![CDATA[Parcours du 18/04/2023 16h00]]></name>
    <trkseg>
      <trkpt lat="45.83323" lon="4.70915">
        <ele>304.2</ele>
        <time>2023-04-18T11:45:44Z</time>
      </trkpt>
      <trkpt lat="45.83336" lon="4.70864">
        <ele>304.2</ele>
        <time>2023-04-18T11:46:19Z</time>
      </trkpt>
      <trkpt lat="45.83337" lon="4.70855">
        <ele>304.2</ele>
        <time>2023-04-18T11:46:21Z</time>
      </trkpt>
      <trkpt lat="45.83339" lon="4.70846">
        <ele>305.6</ele>
        <time>2023-04-18T11:46:23Z</time>
      </trkpt>
      <trkpt lat="45.83339" lon="4.70836">
        <ele>306.7</ele>
        <time>2023-04-18T11:46:25Z</time>
      </trkpt>
      <trkpt lat="45.83335" lon="4.70821">
        <ele>307.2</ele>
        <time>2023-04-18T11:46:27Z</time>
      </trkpt>
      <trkpt lat="45.83337" lon="4.70768">
        <ele>307.3</ele>
        <time>2023-04-18T11:46:37Z</time>
      </trkpt>
      <trkpt lat="45.83347" lon="4.70753">
        <ele>307.5</ele>
        <time>2023-04-18T11:46:42Z</time>
      </trkpt>
      <trkpt lat="45.83341" lon="4.7075">
        <ele>307.7</ele>
        <time>2023-04-18T11:46:44Z</time>
      </trkpt>
      <trkpt lat="45.83343" lon="4.70742">
        <ele>308.1</ele>
        <time>2023-04-18T11:46:47Z</time>
      </trkpt>
      <trkpt lat="45.83338" lon="4.70714">
        <ele>308.3</ele>
        <time>2023-04-18T11:46:52Z</time>
      </trkpt>
      <trkpt lat="45.83342" lon="4.70683">
        <ele>308</ele>
        <time>2023-04-18T11:46:57Z</time>
      </trkpt>
      <trkpt lat="45.83341" lon="4.70658">
        <ele>308.2</ele>
        <time>2023-04-18T11:47:02Z</time>
      </trkpt>
      <trkpt lat="45.83362" lon="4.70608">
        <ele>308.4</ele>
        <time>2023-04-18T11:47:07Z</time>
      </trkpt>
      <trkpt lat="45.83367" lon="4.70608">
        <ele>307.9</ele>
        <time>2023-04-18T11:47:08Z</time>
      </trkpt>
      <trkpt lat="45.83452" lon="4.70619">
        <ele>304.1</ele>
        <time>2023-04-18T11:47:22Z</time>
      </trkpt>
      <trkpt lat="45.83614" lon="4.70645">
        <ele>293.9</ele>
        <time>2023-04-18T11:47:51Z</time>
      </trkpt>
      <trkpt lat="45.83657" lon="4.70611">
        <ele>292.4</ele>
        <time>2023-04-18T11:47:56Z</time>
      </trkpt>
      <trkpt lat="45.83662" lon="4.70608">
        <ele>292.3</ele>
        <time>2023-04-18T11:47:57Z</time>
      </trkpt>
      <trkpt lat="45.83723" lon="4.70575">
        <ele>292.4</ele>
        <time>2023-04-18T11:48:08Z</time>
      </trkpt>
      <trkpt lat="45.83737" lon="4.70575">
        <ele>292.6</ele>
        <time>2023-04-18T11:48:13Z</time>
      </trkpt>
      <trkpt lat="45.83838" lon="4.70522">
        <ele>293.1</ele>
        <time>2023-04-18T11:48:26Z</time>
      </trkpt>
      <trkpt lat="45.83844" lon="4.70517">
        <ele>293.3</ele>
        <time>2023-04-18T11:48:27Z</time>
      </trkpt>
      <trkpt lat="45.83985" lon="4.70425">
        <ele>291.8</ele>
        <time>2023-04-18T11:48:56Z</time>
      </trkpt>
      <trkpt lat="45.83991" lon="4.70423">
        <ele>290.7</ele>
        <time>2023-04-18T11:48:57Z</time>
      </trkpt>
      <trkpt lat="45.84134" lon="4.70348">
        <ele>286.8</ele>
        <time>2023-04-18T11:49:26Z</time>
      </trkpt>
      <trkpt lat="45.84139" lon="4.70344">
        <ele>287.5</ele>
        <time>2023-04-18T11:49:27Z</time>
      </trkpt>
      <trkpt lat="45.84243" lon="4.70347">
        <ele>290.3</ele>
        <time>2023-04-18T11:49:53Z</time>
      </trkpt>
      <trkpt lat="45.84249" lon="4.7035">
        <ele>289.1</ele>
        <time>2023-04-18T11:49:55Z</time>
      </trkpt>
      <trkpt lat="45.84256" lon="4.70354">
        <ele>289.4</ele>
        <time>2023-04-18T11:49:57Z</time>
      </trkpt>
      <trkpt lat="45.84282" lon="4.70372">
        <ele>289.6</ele>
        <time>2023-04-18T11:50:04Z</time>
      </trkpt>
      <trkpt lat="45.84286" lon="4.70375">
        <ele>289.3</ele>
        <time>2023-04-18T11:50:05Z</time>
      </trkpt>
      <trkpt lat="45.84294" lon="4.70381">
        <ele>289.2</ele>
        <time>2023-04-18T11:50:07Z</time>
      </trkpt>
      <trkpt lat="45.84557" lon="4.7047">
        <ele>283.8</ele>
        <time>2023-04-18T11:51:03Z</time>
      </trkpt>
      <trkpt lat="45.84583" lon="4.70476">
        <ele>283.1</ele>
        <time>2023-04-18T11:51:09Z</time>
      </trkpt>
      <trkpt lat="45.84588" lon="4.70477">
        <ele>283.7</ele>
        <time>2023-04-18T11:51:10Z</time>
      </trkpt>
      <trkpt lat="45.84597" lon="4.70477">
        <ele>283.2</ele>
        <time>2023-04-18T11:51:12Z</time>
      </trkpt>
      <trkpt lat="45.84602" lon="4.70477">
        <ele>282.5</ele>
        <time>2023-04-18T11:51:13Z</time>
      </trkpt>
      <trkpt lat="45.84607" lon="4.70476">
        <ele>282.3</ele>
        <time>2023-04-18T11:51:14Z</time>
      </trkpt>
      <trkpt lat="45.84615" lon="4.70475">
        <ele>281.9</ele>
        <time>2023-04-18T11:51:16Z</time>
      </trkpt>
      <trkpt lat="45.84624" lon="4.70474">
        <ele>281.5</ele>
        <time>2023-04-18T11:51:18Z</time>
      </trkpt>
      <trkpt lat="45.84813" lon="4.70643">
        <ele>273.4</ele>
        <time>2023-04-18T11:52:09Z</time>
      </trkpt>
      <trkpt lat="45.84816" lon="4.70648">
        <ele>273.8</ele>
        <time>2023-04-18T11:52:10Z</time>
      </trkpt>
      <trkpt lat="45.84821" lon="4.70658">
        <ele>272.2</ele>
        <time>2023-04-18T11:52:12Z</time>
      </trkpt>
      <trkpt lat="45.84825" lon="4.70663">
        <ele>270.2</ele>
        <time>2023-04-18T11:52:16Z</time>
      </trkpt>
      <trkpt lat="45.84828" lon="4.7067">
        <ele>270.5</ele>
        <time>2023-04-18T11:52:19Z</time>
      </trkpt>
      <trkpt lat="45.84832" lon="4.70679">
        <ele>270.4</ele>
        <time>2023-04-18T11:52:21Z</time>
      </trkpt>
      <trkpt lat="45.84836" lon="4.70689">
        <ele>270.1</ele>
        <time>2023-04-18T11:52:23Z</time>
      </trkpt>
      <trkpt lat="45.84841" lon="4.70698">
        <ele>269.4</ele>
        <time>2023-04-18T11:52:25Z</time>
      </trkpt>
      <trkpt lat="45.84844" lon="4.70703">
        <ele>269.5</ele>
        <time>2023-04-18T11:52:26Z</time>
      </trkpt>
      <trkpt lat="45.84849" lon="4.70708">
        <ele>268.8</ele>
        <time>2023-04-18T11:52:27Z</time>
      </trkpt>
      <trkpt lat="45.84872" lon="4.70742">
        <ele>269.3</ele>
        <time>2023-04-18T11:52:34Z</time>
      </trkpt>
      <trkpt lat="45.84877" lon="4.70745">
        <ele>268.7</ele>
        <time>2023-04-18T11:52:35Z</time>
      </trkpt>
      <trkpt lat="45.84882" lon="4.70746">
        <ele>268.6</ele>
        <time>2023-04-18T11:52:36Z</time>
      </trkpt>
      <trkpt lat="45.84887" lon="4.70749">
        <ele>268.6</ele>
        <time>2023-04-18T11:52:37Z</time>
      </trkpt>
      <trkpt lat="45.84892" lon="4.70752">
        <ele>268.3</ele>
        <time>2023-04-18T11:52:38Z</time>
      </trkpt>
      <trkpt lat="45.84896" lon="4.70754">
        <ele>268</ele>
        <time>2023-04-18T11:52:39Z</time>
      </trkpt>
      <trkpt lat="45.84901" lon="4.70756">
        <ele>267.1</ele>
        <time>2023-04-18T11:52:40Z</time>
      </trkpt>
      <trkpt lat="45.84906" lon="4.70759">
        <ele>266.8</ele>
        <time>2023-04-18T11:52:41Z</time>
      </trkpt>
      <trkpt lat="45.8491" lon="4.70761">
        <ele>266.8</ele>
        <time>2023-04-18T11:52:42Z</time>
      </trkpt>
      <trkpt lat="45.84915" lon="4.70762">
        <ele>266.9</ele>
        <time>2023-04-18T11:52:43Z</time>
      </trkpt>
      <trkpt lat="45.85343" lon="4.70866">
        <ele>245.2</ele>
        <time>2023-04-18T11:53:39Z</time>
      </trkpt>
      <trkpt lat="45.85325" lon="4.70864">
        <ele>241.1</ele>
        <time>2023-04-18T11:53:40Z</time>
      </trkpt>
      <trkpt lat="45.85447" lon="4.70906">
        <ele>237.6</ele>
        <time>2023-04-18T11:53:59Z</time>
      </trkpt>
      <trkpt lat="45.85481" lon="4.70923">
        <ele>237.9</ele>
        <time>2023-04-18T11:54:04Z</time>
      </trkpt>
      <trkpt lat="45.85511" lon="4.70928">
        <ele>236.8</ele>
        <time>2023-04-18T11:54:09Z</time>
      </trkpt>
      <trkpt lat="45.85548" lon="4.70941">
        <ele>237.9</ele>
        <time>2023-04-18T11:54:14Z</time>
      </trkpt>
      <trkpt lat="45.856" lon="4.70968">
        <ele>227.7</ele>
        <time>2023-04-18T11:54:24Z</time>
      </trkpt>
      <trkpt lat="45.85648" lon="4.71036">
        <ele>221.7</ele>
        <time>2023-04-18T11:54:34Z</time>
      </trkpt>
      <trkpt lat="45.85659" lon="4.71062">
        <ele>218.7</ele>
        <time>2023-04-18T11:54:39Z</time>
      </trkpt>
      <trkpt lat="45.85745" lon="4.71108">
        <ele>218.2</ele>
        <time>2023-04-18T11:54:50Z</time>
      </trkpt>
      <trkpt lat="45.85783" lon="4.71175">
        <ele>215.2</ele>
        <time>2023-04-18T11:55:00Z</time>
      </trkpt>
      <trkpt lat="45.85777" lon="4.71177">
        <ele>205.7</ele>
        <time>2023-04-18T11:55:20Z</time>
      </trkpt>
      <trkpt lat="45.8579" lon="4.71155">
        <ele>200</ele>
        <time>2023-04-18T11:55:25Z</time>
      </trkpt>
      <trkpt lat="45.85805" lon="4.71131">
        <ele>199.9</ele>
        <time>2023-04-18T11:55:30Z</time>
      </trkpt>
      <trkpt lat="45.85827" lon="4.71085">
        <ele>199.8</ele>
        <time>2023-04-18T11:55:35Z</time>
      </trkpt>
      <trkpt lat="45.85842" lon="4.71063">
        <ele>199.6</ele>
        <time>2023-04-18T11:55:40Z</time>
      </trkpt>
      <trkpt lat="45.85915" lon="4.70988">
        <ele>199.7</ele>
        <time>2023-04-18T11:55:50Z</time>
      </trkpt>
      <trkpt lat="45.85949" lon="4.70957">
        <ele>199</ele>
        <time>2023-04-18T11:56:00Z</time>
      </trkpt>
      <trkpt lat="45.85988" lon="4.70968">
        <ele>198.8</ele>
        <time>2023-04-18T11:56:05Z</time>
      </trkpt>
      <trkpt lat="45.85999" lon="4.70976">
        <ele>198.4</ele>
        <time>2023-04-18T11:56:10Z</time>
      </trkpt>
      <trkpt lat="45.86039" lon="4.71003">
        <ele>197.5</ele>
        <time>2023-04-18T11:56:20Z</time>
      </trkpt>
      <trkpt lat="45.86039" lon="4.71014">
        <ele>197</ele>
        <time>2023-04-18T11:56:25Z</time>
      </trkpt>
      <trkpt lat="45.86058" lon="4.71119">
        <ele>196.6</ele>
        <time>2023-04-18T11:56:35Z</time>
      </trkpt>
      <trkpt lat="45.86104" lon="4.71147">
        <ele>196.2</ele>
        <time>2023-04-18T11:56:45Z</time>
      </trkpt>
      <trkpt lat="45.86118" lon="4.71123">
        <ele>196.5</ele>
        <time>2023-04-18T11:56:50Z</time>
      </trkpt>
      <trkpt lat="45.86123" lon="4.71116">
        <ele>198.5</ele>
        <time>2023-04-18T11:56:55Z</time>
      </trkpt>
      <trkpt lat="45.86191" lon="4.71026">
        <ele>202.5</ele>
        <time>2023-04-18T11:57:10Z</time>
      </trkpt>
      <trkpt lat="45.86262" lon="4.71029">
        <ele>205.4</ele>
        <time>2023-04-18T11:57:25Z</time>
      </trkpt>
      <trkpt lat="45.86316" lon="4.71025">
        <ele>206.7</ele>
        <time>2023-04-18T11:57:35Z</time>
      </trkpt>
      <trkpt lat="45.86449" lon="4.70985">
        <ele>196.1</ele>
        <time>2023-04-18T11:58:00Z</time>
      </trkpt>
      <trkpt lat="45.86458" lon="4.70984">
        <ele>196.5</ele>
        <time>2023-04-18T11:58:02Z</time>
      </trkpt>
      <trkpt lat="45.86463" lon="4.70985">
        <ele>196.2</ele>
        <time>2023-04-18T11:58:03Z</time>
      </trkpt>
      <trkpt lat="45.86467" lon="4.70987">
        <ele>195.9</ele>
        <time>2023-04-18T11:58:04Z</time>
      </trkpt>
      <trkpt lat="45.86472" lon="4.70987">
        <ele>195.8</ele>
        <time>2023-04-18T11:58:05Z</time>
      </trkpt>
      <trkpt lat="45.86578" lon="4.71005">
        <ele>200.9</ele>
        <time>2023-04-18T11:58:31Z</time>
      </trkpt>
      <trkpt lat="45.86584" lon="4.71006">
        <ele>202.7</ele>
        <time>2023-04-18T11:58:32Z</time>
      </trkpt>
      <trkpt lat="45.86589" lon="4.71008">
        <ele>204.5</ele>
        <time>2023-04-18T11:58:33Z</time>
      </trkpt>
      <trkpt lat="45.86594" lon="4.7101">
        <ele>211.6</ele>
        <time>2023-04-18T11:58:34Z</time>
      </trkpt>
      <trkpt lat="45.86599" lon="4.71011">
        <ele>212.6</ele>
        <time>2023-04-18T11:58:35Z</time>
      </trkpt>
      <trkpt lat="45.86604" lon="4.71012">
        <ele>213.8</ele>
        <time>2023-04-18T11:58:36Z</time>
      </trkpt>
      <trkpt lat="45.86609" lon="4.71013">
        <ele>213.8</ele>
        <time>2023-04-18T11:58:37Z</time>
      </trkpt>
      <trkpt lat="45.86615" lon="4.71015">
        <ele>216.7</ele>
        <time>2023-04-18T11:58:38Z</time>
      </trkpt>
      <trkpt lat="45.86619" lon="4.71018">
        <ele>219.3</ele>
        <time>2023-04-18T11:58:39Z</time>
      </trkpt>
      <trkpt lat="45.86624" lon="4.71021">
        <ele>218.7</ele>
        <time>2023-04-18T11:58:40Z</time>
      </trkpt>
      <trkpt lat="45.86629" lon="4.71023">
        <ele>222.2</ele>
        <time>2023-04-18T11:58:41Z</time>
      </trkpt>
      <trkpt lat="45.86633" lon="4.71025">
        <ele>219.4</ele>
        <time>2023-04-18T11:58:42Z</time>
      </trkpt>
      <trkpt lat="45.86638" lon="4.71027">
        <ele>220.9</ele>
        <time>2023-04-18T11:58:43Z</time>
      </trkpt>
      <trkpt lat="45.86643" lon="4.7103">
        <ele>219.8</ele>
        <time>2023-04-18T11:58:44Z</time>
      </trkpt>
      <trkpt lat="45.86648" lon="4.71032">
        <ele>218.9</ele>
        <time>2023-04-18T11:58:45Z</time>
      </trkpt>
      <trkpt lat="45.86656" lon="4.71035">
        <ele>213.4</ele>
        <time>2023-04-18T11:58:47Z</time>
      </trkpt>
      <trkpt lat="45.86662" lon="4.71037">
        <ele>212</ele>
        <time>2023-04-18T11:58:48Z</time>
      </trkpt>
      <trkpt lat="45.8667" lon="4.71041">
        <ele>210.8</ele>
        <time>2023-04-18T11:58:50Z</time>
      </trkpt>
      <trkpt lat="45.86675" lon="4.71044">
        <ele>211.2</ele>
        <time>2023-04-18T11:58:51Z</time>
      </trkpt>
      <trkpt lat="45.86679" lon="4.71046">
        <ele>211.2</ele>
        <time>2023-04-18T11:58:52Z</time>
      </trkpt>
      <trkpt lat="45.86684" lon="4.71048">
        <ele>211.2</ele>
        <time>2023-04-18T11:58:53Z</time>
      </trkpt>
      <trkpt lat="45.86688" lon="4.7105">
        <ele>211.3</ele>
        <time>2023-04-18T11:58:54Z</time>
      </trkpt>
      <trkpt lat="45.86693" lon="4.71052">
        <ele>212.8</ele>
        <time>2023-04-18T11:58:55Z</time>
      </trkpt>
      <trkpt lat="45.8672" lon="4.71063">
        <ele>214.2</ele>
        <time>2023-04-18T11:59:01Z</time>
      </trkpt>
      <trkpt lat="45.86729" lon="4.71068">
        <ele>219.7</ele>
        <time>2023-04-18T11:59:03Z</time>
      </trkpt>
      <trkpt lat="45.86733" lon="4.7107">
        <ele>219.7</ele>
        <time>2023-04-18T11:59:04Z</time>
      </trkpt>
      <trkpt lat="45.86742" lon="4.71074">
        <ele>219.4</ele>
        <time>2023-04-18T11:59:06Z</time>
      </trkpt>
      <trkpt lat="45.86746" lon="4.71076">
        <ele>219.1</ele>
        <time>2023-04-18T11:59:07Z</time>
      </trkpt>
      <trkpt lat="45.86751" lon="4.71079">
        <ele>217.8</ele>
        <time>2023-04-18T11:59:08Z</time>
      </trkpt>
      <trkpt lat="45.86757" lon="4.71082">
        <ele>216.3</ele>
        <time>2023-04-18T11:59:09Z</time>
      </trkpt>
      <trkpt lat="45.86762" lon="4.71085">
        <ele>215.8</ele>
        <time>2023-04-18T11:59:10Z</time>
      </trkpt>
      <trkpt lat="45.86767" lon="4.71086">
        <ele>211.7</ele>
        <time>2023-04-18T11:59:11Z</time>
      </trkpt>
      <trkpt lat="45.86771" lon="4.71086">
        <ele>211.6</ele>
        <time>2023-04-18T11:59:12Z</time>
      </trkpt>
      <trkpt lat="45.86776" lon="4.71087">
        <ele>208.5</ele>
        <time>2023-04-18T11:59:13Z</time>
      </trkpt>
      <trkpt lat="45.86781" lon="4.71088">
        <ele>208.2</ele>
        <time>2023-04-18T11:59:14Z</time>
      </trkpt>
      <trkpt lat="45.86786" lon="4.71088">
        <ele>207.4</ele>
        <time>2023-04-18T11:59:15Z</time>
      </trkpt>
      <trkpt lat="45.86823" lon="4.71084">
        <ele>202.4</ele>
        <time>2023-04-18T11:59:45Z</time>
      </trkpt>
      <trkpt lat="45.86829" lon="4.71085">
        <ele>197</ele>
        <time>2023-04-18T11:59:48Z</time>
      </trkpt>
      <trkpt lat="45.86833" lon="4.71084">
        <ele>193.4</ele>
        <time>2023-04-18T11:59:50Z</time>
      </trkpt>
      <trkpt lat="45.86838" lon="4.71084">
        <ele>193.4</ele>
        <time>2023-04-18T11:59:52Z</time>
      </trkpt>
      <trkpt lat="45.86843" lon="4.71085">
        <ele>194</ele>
        <time>2023-04-18T11:59:54Z</time>
      </trkpt>
      <trkpt lat="45.86849" lon="4.71085">
        <ele>194.5</ele>
        <time>2023-04-18T11:59:56Z</time>
      </trkpt>
      <trkpt lat="45.86854" lon="4.71085">
        <ele>194.8</ele>
        <time>2023-04-18T11:59:58Z</time>
      </trkpt>
      <trkpt lat="45.8686" lon="4.71085">
        <ele>194.8</ele>
        <time>2023-04-18T12:00:00Z</time>
      </trkpt>
      <trkpt lat="45.86865" lon="4.71085">
        <ele>196.1</ele>
        <time>2023-04-18T12:00:02Z</time>
      </trkpt>
      <trkpt lat="45.86869" lon="4.71086">
        <ele>196.6</ele>
        <time>2023-04-18T12:00:04Z</time>
      </trkpt>
      <trkpt lat="45.86885" lon="4.7108">
        <ele>195.4</ele>
        <time>2023-04-18T12:00:11Z</time>
      </trkpt>
      <trkpt lat="45.86889" lon="4.71076">
        <ele>195.1</ele>
        <time>2023-04-18T12:00:15Z</time>
      </trkpt>
      <trkpt lat="45.86894" lon="4.71072">
        <ele>194.2</ele>
        <time>2023-04-18T12:00:26Z</time>
      </trkpt>
      <trkpt lat="45.86899" lon="4.7107">
        <ele>194.4</ele>
        <time>2023-04-18T12:00:28Z</time>
      </trkpt>
      <trkpt lat="45.86904" lon="4.7107">
        <ele>195.3</ele>
        <time>2023-04-18T12:00:30Z</time>
      </trkpt>
      <trkpt lat="45.86919" lon="4.71071">
        <ele>195.5</ele>
        <time>2023-04-18T12:00:36Z</time>
      </trkpt>
      <trkpt lat="45.86924" lon="4.7107">
        <ele>195.1</ele>
        <time>2023-04-18T12:00:38Z</time>
      </trkpt>
      <trkpt lat="45.8693" lon="4.71071">
        <ele>194.1</ele>
        <time>2023-04-18T12:00:40Z</time>
      </trkpt>
      <trkpt lat="45.86949" lon="4.71073">
        <ele>193.4</ele>
        <time>2023-04-18T12:00:46Z</time>
      </trkpt>
      <trkpt lat="45.86956" lon="4.71073">
        <ele>193.2</ele>
        <time>2023-04-18T12:00:48Z</time>
      </trkpt>
      <trkpt lat="45.86962" lon="4.71072">
        <ele>193</ele>
        <time>2023-04-18T12:00:50Z</time>
      </trkpt>
      <trkpt lat="45.87061" lon="4.71077">
        <ele>193.4</ele>
        <time>2023-04-18T12:01:21Z</time>
      </trkpt>
      <trkpt lat="45.87184" lon="4.71041">
        <ele>197.6</ele>
        <time>2023-04-18T12:02:07Z</time>
      </trkpt>
      <trkpt lat="45.87068" lon="4.7118">
        <ele>197.6</ele>
        <time>2023-04-18T12:03:07Z</time>
      </trkpt>
      <trkpt lat="45.87065" lon="4.71175">
        <ele>194.7</ele>
        <time>2023-04-18T12:03:09Z</time>
      </trkpt>
      <trkpt lat="45.87061" lon="4.7117">
        <ele>193.4</ele>
        <time>2023-04-18T12:03:11Z</time>
      </trkpt>
      <trkpt lat="45.87041" lon="4.71284">
        <ele>194.3</ele>
        <time>2023-04-18T12:04:47Z</time>
      </trkpt>
      <trkpt lat="45.86884" lon="4.71342">
        <ele>193.5</ele>
        <time>2023-04-18T12:05:43Z</time>
      </trkpt>
      <trkpt lat="45.86877" lon="4.71345">
        <ele>193.5</ele>
        <time>2023-04-18T12:05:45Z</time>
      </trkpt>
      <trkpt lat="45.8687" lon="4.71349">
        <ele>193.2</ele>
        <time>2023-04-18T12:05:47Z</time>
      </trkpt>
      <trkpt lat="45.86862" lon="4.71352">
        <ele>193.4</ele>
        <time>2023-04-18T12:05:49Z</time>
      </trkpt>
      <trkpt lat="45.86855" lon="4.71355">
        <ele>193.2</ele>
        <time>2023-04-18T12:05:51Z</time>
      </trkpt>
      <trkpt lat="45.86847" lon="4.71358">
        <ele>193.8</ele>
        <time>2023-04-18T12:05:53Z</time>
      </trkpt>
      <trkpt lat="45.8684" lon="4.71361">
        <ele>193.9</ele>
        <time>2023-04-18T12:05:55Z</time>
      </trkpt>
      <trkpt lat="45.86833" lon="4.71364">
        <ele>194.1</ele>
        <time>2023-04-18T12:05:57Z</time>
      </trkpt>
      <trkpt lat="45.86826" lon="4.71367">
        <ele>193.8</ele>
        <time>2023-04-18T12:05:59Z</time>
      </trkpt>
      <trkpt lat="45.86818" lon="4.7137">
        <ele>193.9</ele>
        <time>2023-04-18T12:06:01Z</time>
      </trkpt>
      <trkpt lat="45.86812" lon="4.71375">
        <ele>193.7</ele>
        <time>2023-04-18T12:06:11Z</time>
      </trkpt>
      <trkpt lat="45.86816" lon="4.71379">
        <ele>193.7</ele>
        <time>2023-04-18T12:06:13Z</time>
      </trkpt>
      <trkpt lat="45.86825" lon="4.71377">
        <ele>193.7</ele>
        <time>2023-04-18T12:06:15Z</time>
      </trkpt>
      <trkpt lat="45.86829" lon="4.71375">
        <ele>193.7</ele>
        <time>2023-04-18T12:06:16Z</time>
      </trkpt>
      <trkpt lat="45.86834" lon="4.71371">
        <ele>193.8</ele>
        <time>2023-04-18T12:06:17Z</time>
      </trkpt>
      <trkpt lat="45.86839" lon="4.71369">
        <ele>193.9</ele>
        <time>2023-04-18T12:06:18Z</time>
      </trkpt>
      <trkpt lat="45.86843" lon="4.71368">
        <ele>193.9</ele>
        <time>2023-04-18T12:06:19Z</time>
      </trkpt>
      <trkpt lat="45.86848" lon="4.71367">
        <ele>193.9</ele>
        <time>2023-04-18T12:06:20Z</time>
      </trkpt>
      <trkpt lat="45.86853" lon="4.71365">
        <ele>193.8</ele>
        <time>2023-04-18T12:06:21Z</time>
      </trkpt>
      <trkpt lat="45.86858" lon="4.71362">
        <ele>193.8</ele>
        <time>2023-04-18T12:06:22Z</time>
      </trkpt>
      <trkpt lat="45.86863" lon="4.71359">
        <ele>193.9</ele>
        <time>2023-04-18T12:06:23Z</time>
      </trkpt>
      <trkpt lat="45.86894" lon="4.71348">
        <ele>193.9</ele>
        <time>2023-04-18T12:06:29Z</time>
      </trkpt>
      <trkpt lat="45.86899" lon="4.71347">
        <ele>193.9</ele>
        <time>2023-04-18T12:06:30Z</time>
      </trkpt>
      <trkpt lat="45.86904" lon="4.71345">
        <ele>194</ele>
        <time>2023-04-18T12:06:31Z</time>
      </trkpt>
      <trkpt lat="45.8691" lon="4.71344">
        <ele>194</ele>
        <time>2023-04-18T12:06:32Z</time>
      </trkpt>
      <trkpt lat="45.86916" lon="4.71342">
        <ele>194</ele>
        <time>2023-04-18T12:06:33Z</time>
      </trkpt>
      <trkpt lat="45.86922" lon="4.71341">
        <ele>194.1</ele>
        <time>2023-04-18T12:06:34Z</time>
      </trkpt>
      <trkpt lat="45.86928" lon="4.7134">
        <ele>193.8</ele>
        <time>2023-04-18T12:06:35Z</time>
      </trkpt>
      <trkpt lat="45.86933" lon="4.71338">
        <ele>193.8</ele>
        <time>2023-04-18T12:06:36Z</time>
      </trkpt>
      <trkpt lat="45.8694" lon="4.71336">
        <ele>193.9</ele>
        <time>2023-04-18T12:06:37Z</time>
      </trkpt>
      <trkpt lat="45.86946" lon="4.71333">
        <ele>194.2</ele>
        <time>2023-04-18T12:06:38Z</time>
      </trkpt>
      <trkpt lat="45.86952" lon="4.71331">
        <ele>194.6</ele>
        <time>2023-04-18T12:06:39Z</time>
      </trkpt>
      <trkpt lat="45.86957" lon="4.71329">
        <ele>194.8</ele>
        <time>2023-04-18T12:06:40Z</time>
      </trkpt>
      <trkpt lat="45.86962" lon="4.71327">
        <ele>195</ele>
        <time>2023-04-18T12:06:41Z</time>
      </trkpt>
      <trkpt lat="45.86968" lon="4.71323">
        <ele>194.7</ele>
        <time>2023-04-18T12:06:42Z</time>
      </trkpt>
      <trkpt lat="45.86973" lon="4.71322">
        <ele>194.3</ele>
        <time>2023-04-18T12:06:43Z</time>
      </trkpt>
      <trkpt lat="45.8698" lon="4.7132">
        <ele>194.5</ele>
        <time>2023-04-18T12:06:45Z</time>
      </trkpt>
      <trkpt lat="45.86984" lon="4.71322">
        <ele>195.5</ele>
        <time>2023-04-18T12:06:48Z</time>
      </trkpt>
      <trkpt lat="45.86989" lon="4.71326">
        <ele>194.7</ele>
        <time>2023-04-18T12:06:51Z</time>
      </trkpt>
      <trkpt lat="45.86994" lon="4.71329">
        <ele>195</ele>
        <time>2023-04-18T12:06:53Z</time>
      </trkpt>
      <trkpt lat="45.86999" lon="4.7133">
        <ele>195.5</ele>
        <time>2023-04-18T12:06:55Z</time>
      </trkpt>
      <trkpt lat="45.87007" lon="4.71329">
        <ele>195.4</ele>
        <time>2023-04-18T12:06:57Z</time>
      </trkpt>
      <trkpt lat="45.87015" lon="4.71328">
        <ele>195.5</ele>
        <time>2023-04-18T12:06:59Z</time>
      </trkpt>
      <trkpt lat="45.8702" lon="4.71328">
        <ele>195.2</ele>
        <time>2023-04-18T12:07:00Z</time>
      </trkpt>
      <trkpt lat="45.87028" lon="4.71327">
        <ele>194.9</ele>
        <time>2023-04-18T12:07:02Z</time>
      </trkpt>
      <trkpt lat="45.87048" lon="4.71328">
        <ele>192.9</ele>
        <time>2023-04-18T12:07:28Z</time>
      </trkpt>
      <trkpt lat="45.86987" lon="4.71317">
        <ele>192.7</ele>
        <time>2023-04-18T12:07:48Z</time>
      </trkpt>
      <trkpt lat="45.87036" lon="4.713">
        <ele>194.7</ele>
        <time>2023-04-18T12:07:58Z</time>
      </trkpt>
      <trkpt lat="45.87241" lon="4.713">
        <ele>201</ele>
        <time>2023-04-18T12:08:39Z</time>
      </trkpt>
      <trkpt lat="45.87244" lon="4.71279">
        <ele>201.8</ele>
        <time>2023-04-18T12:08:44Z</time>
      </trkpt>
      <trkpt lat="45.87384" lon="4.71169">
        <ele>205.5</ele>
        <time>2023-04-18T12:09:09Z</time>
      </trkpt>
      <trkpt lat="45.87375" lon="4.71185">
        <ele>205</ele>
        <time>2023-04-18T12:09:14Z</time>
      </trkpt>
      <trkpt lat="45.87336" lon="4.71349">
        <ele>203.8</ele>
        <time>2023-04-18T12:09:29Z</time>
      </trkpt>
      <trkpt lat="45.87336" lon="4.71366">
        <ele>203.6</ele>
        <time>2023-04-18T12:09:34Z</time>
      </trkpt>
      <trkpt lat="45.87339" lon="4.71372">
        <ele>203.3</ele>
        <time>2023-04-18T12:09:39Z</time>
      </trkpt>
      <trkpt lat="45.87349" lon="4.71376">
        <ele>202.9</ele>
        <time>2023-04-18T12:09:44Z</time>
      </trkpt>
      <trkpt lat="45.87355" lon="4.71373">
        <ele>202.6</ele>
        <time>2023-04-18T12:09:49Z</time>
      </trkpt>
      <trkpt lat="45.87434" lon="4.71888">
        <ele>187.8</ele>
        <time>2023-04-18T12:10:44Z</time>
      </trkpt>
      <trkpt lat="45.87433" lon="4.719">
        <ele>185.2</ele>
        <time>2023-04-18T12:10:49Z</time>
      </trkpt>
      <trkpt lat="45.8745" lon="4.72024">
        <ele>185.3</ele>
        <time>2023-04-18T12:10:59Z</time>
      </trkpt>
      <trkpt lat="45.87452" lon="4.72045">
        <ele>185.7</ele>
        <time>2023-04-18T12:11:04Z</time>
      </trkpt>
      <trkpt lat="45.87475" lon="4.72245">
        <ele>186</ele>
        <time>2023-04-18T12:11:29Z</time>
      </trkpt>
      <trkpt lat="45.87753" lon="4.72621">
        <ele>182.8</ele>
        <time>2023-04-18T12:12:45Z</time>
      </trkpt>
      <trkpt lat="45.87758" lon="4.72621">
        <ele>182.7</ele>
        <time>2023-04-18T12:12:46Z</time>
      </trkpt>
      <trkpt lat="45.87764" lon="4.72622">
        <ele>182.8</ele>
        <time>2023-04-18T12:12:47Z</time>
      </trkpt>
      <trkpt lat="45.87771" lon="4.72624">
        <ele>183</ele>
        <time>2023-04-18T12:12:49Z</time>
      </trkpt>
      <trkpt lat="45.87777" lon="4.72626">
        <ele>183.3</ele>
        <time>2023-04-18T12:12:50Z</time>
      </trkpt>
      <trkpt lat="45.87782" lon="4.72629">
        <ele>183.2</ele>
        <time>2023-04-18T12:12:51Z</time>
      </trkpt>
      <trkpt lat="45.87791" lon="4.72632">
        <ele>183</ele>
        <time>2023-04-18T12:12:53Z</time>
      </trkpt>
      <trkpt lat="45.87796" lon="4.72632">
        <ele>183.1</ele>
        <time>2023-04-18T12:12:54Z</time>
      </trkpt>
      <trkpt lat="45.87801" lon="4.72635">
        <ele>182.7</ele>
        <time>2023-04-18T12:12:55Z</time>
      </trkpt>
      <trkpt lat="45.87811" lon="4.72639">
        <ele>182.2</ele>
        <time>2023-04-18T12:12:57Z</time>
      </trkpt>
      <trkpt lat="45.87816" lon="4.72641">
        <ele>181.8</ele>
        <time>2023-04-18T12:12:58Z</time>
      </trkpt>
      <trkpt lat="45.87823" lon="4.72644">
        <ele>181.6</ele>
        <time>2023-04-18T12:13:00Z</time>
      </trkpt>
      <trkpt lat="45.87828" lon="4.72647">
        <ele>181.4</ele>
        <time>2023-04-18T12:13:01Z</time>
      </trkpt>
      <trkpt lat="45.87836" lon="4.7265">
        <ele>181.2</ele>
        <time>2023-04-18T12:13:03Z</time>
      </trkpt>
      <trkpt lat="45.87841" lon="4.72652">
        <ele>181.2</ele>
        <time>2023-04-18T12:13:04Z</time>
      </trkpt>
      <trkpt lat="45.87848" lon="4.72656">
        <ele>181.2</ele>
        <time>2023-04-18T12:13:06Z</time>
      </trkpt>
      <trkpt lat="45.87855" lon="4.72658">
        <ele>181.4</ele>
        <time>2023-04-18T12:13:08Z</time>
      </trkpt>
      <trkpt lat="45.87863" lon="4.7266">
        <ele>181.6</ele>
        <time>2023-04-18T12:13:10Z</time>
      </trkpt>
      <trkpt lat="45.87872" lon="4.72663">
        <ele>181.8</ele>
        <time>2023-04-18T12:13:12Z</time>
      </trkpt>
      <trkpt lat="45.8788" lon="4.72667">
        <ele>181.9</ele>
        <time>2023-04-18T12:13:14Z</time>
      </trkpt>
      <trkpt lat="45.87884" lon="4.7267">
        <ele>181.8</ele>
        <time>2023-04-18T12:13:15Z</time>
      </trkpt>
      <trkpt lat="45.87888" lon="4.72673">
        <ele>181.7</ele>
        <time>2023-04-18T12:13:16Z</time>
      </trkpt>
      <trkpt lat="45.87895" lon="4.72683">
        <ele>181.4</ele>
        <time>2023-04-18T12:13:18Z</time>
      </trkpt>
      <trkpt lat="45.87899" lon="4.72687">
        <ele>181.2</ele>
        <time>2023-04-18T12:13:19Z</time>
      </trkpt>
      <trkpt lat="45.87902" lon="4.72693">
        <ele>181.1</ele>
        <time>2023-04-18T12:13:20Z</time>
      </trkpt>
      <trkpt lat="45.87908" lon="4.72705">
        <ele>180.9</ele>
        <time>2023-04-18T12:13:22Z</time>
      </trkpt>
      <trkpt lat="45.87912" lon="4.72711">
        <ele>180.8</ele>
        <time>2023-04-18T12:13:23Z</time>
      </trkpt>
      <trkpt lat="45.87914" lon="4.72716">
        <ele>180.7</ele>
        <time>2023-04-18T12:13:24Z</time>
      </trkpt>
      <trkpt lat="45.87916" lon="4.72723">
        <ele>180.6</ele>
        <time>2023-04-18T12:13:25Z</time>
      </trkpt>
      <trkpt lat="45.87919" lon="4.72729">
        <ele>180.7</ele>
        <time>2023-04-18T12:13:26Z</time>
      </trkpt>
      <trkpt lat="45.87924" lon="4.7274">
        <ele>180.5</ele>
        <time>2023-04-18T12:13:28Z</time>
      </trkpt>
      <trkpt lat="45.87927" lon="4.72747">
        <ele>180.4</ele>
        <time>2023-04-18T12:13:29Z</time>
      </trkpt>
      <trkpt lat="45.88" lon="4.72814">
        <ele>179.8</ele>
        <time>2023-04-18T12:13:45Z</time>
      </trkpt>
      <trkpt lat="45.88004" lon="4.72816">
        <ele>179.8</ele>
        <time>2023-04-18T12:13:46Z</time>
      </trkpt>
      <trkpt lat="45.88009" lon="4.7282">
        <ele>179.8</ele>
        <time>2023-04-18T12:13:47Z</time>
      </trkpt>
      <trkpt lat="45.88013" lon="4.72824">
        <ele>179.7</ele>
        <time>2023-04-18T12:13:48Z</time>
      </trkpt>
      <trkpt lat="45.88018" lon="4.72827">
        <ele>179.7</ele>
        <time>2023-04-18T12:13:49Z</time>
      </trkpt>
      <trkpt lat="45.88023" lon="4.7283">
        <ele>179.8</ele>
        <time>2023-04-18T12:13:50Z</time>
      </trkpt>
      <trkpt lat="45.88031" lon="4.72834">
        <ele>180</ele>
        <time>2023-04-18T12:13:52Z</time>
      </trkpt>
      <trkpt lat="45.88036" lon="4.72836">
        <ele>180</ele>
        <time>2023-04-18T12:13:53Z</time>
      </trkpt>
      <trkpt lat="45.88041" lon="4.72838">
        <ele>180</ele>
        <time>2023-04-18T12:13:54Z</time>
      </trkpt>
      <trkpt lat="45.88047" lon="4.7284">
        <ele>179.9</ele>
        <time>2023-04-18T12:13:55Z</time>
      </trkpt>
      <trkpt lat="45.88052" lon="4.72841">
        <ele>179.9</ele>
        <time>2023-04-18T12:13:56Z</time>
      </trkpt>
      <trkpt lat="45.88058" lon="4.72843">
        <ele>179.9</ele>
        <time>2023-04-18T12:13:57Z</time>
      </trkpt>
      <trkpt lat="45.88062" lon="4.72844">
        <ele>179.9</ele>
        <time>2023-04-18T12:13:58Z</time>
      </trkpt>
      <trkpt lat="45.88068" lon="4.72846">
        <ele>180</ele>
        <time>2023-04-18T12:13:59Z</time>
      </trkpt>
      <trkpt lat="45.88072" lon="4.72848">
        <ele>180</ele>
        <time>2023-04-18T12:14:00Z</time>
      </trkpt>
      <trkpt lat="45.88079" lon="4.72854">
        <ele>179.6</ele>
        <time>2023-04-18T12:14:01Z</time>
      </trkpt>
      <trkpt lat="45.88084" lon="4.72856">
        <ele>179.5</ele>
        <time>2023-04-18T12:14:02Z</time>
      </trkpt>
      <trkpt lat="45.88088" lon="4.72857">
        <ele>179.6</ele>
        <time>2023-04-18T12:14:03Z</time>
      </trkpt>
      <trkpt lat="45.88094" lon="4.72859">
        <ele>179.6</ele>
        <time>2023-04-18T12:14:04Z</time>
      </trkpt>
      <trkpt lat="45.88098" lon="4.7286">
        <ele>179.9</ele>
        <time>2023-04-18T12:14:05Z</time>
      </trkpt>
      <trkpt lat="45.88107" lon="4.72863">
        <ele>180</ele>
        <time>2023-04-18T12:14:07Z</time>
      </trkpt>
      <trkpt lat="45.88116" lon="4.72865">
        <ele>180</ele>
        <time>2023-04-18T12:14:09Z</time>
      </trkpt>
      <trkpt lat="45.88123" lon="4.72869">
        <ele>180.1</ele>
        <time>2023-04-18T12:14:11Z</time>
      </trkpt>
      <trkpt lat="45.88131" lon="4.7287">
        <ele>180.3</ele>
        <time>2023-04-18T12:14:13Z</time>
      </trkpt>
      <trkpt lat="45.8814" lon="4.72874">
        <ele>180.4</ele>
        <time>2023-04-18T12:14:15Z</time>
      </trkpt>
      <trkpt lat="45.88145" lon="4.72878">
        <ele>180.3</ele>
        <time>2023-04-18T12:14:16Z</time>
      </trkpt>
      <trkpt lat="45.8815" lon="4.72878">
        <ele>180.3</ele>
        <time>2023-04-18T12:14:17Z</time>
      </trkpt>
      <trkpt lat="45.88155" lon="4.72879">
        <ele>180.2</ele>
        <time>2023-04-18T12:14:18Z</time>
      </trkpt>
      <trkpt lat="45.88159" lon="4.72879">
        <ele>180.2</ele>
        <time>2023-04-18T12:14:19Z</time>
      </trkpt>
      <trkpt lat="45.88164" lon="4.7288">
        <ele>180.1</ele>
        <time>2023-04-18T12:14:20Z</time>
      </trkpt>
      <trkpt lat="45.8817" lon="4.72881">
        <ele>179.5</ele>
        <time>2023-04-18T12:14:21Z</time>
      </trkpt>
      <trkpt lat="45.88174" lon="4.72882">
        <ele>179.5</ele>
        <time>2023-04-18T12:14:22Z</time>
      </trkpt>
      <trkpt lat="45.88179" lon="4.72884">
        <ele>179.5</ele>
        <time>2023-04-18T12:14:23Z</time>
      </trkpt>
      <trkpt lat="45.88188" lon="4.72886">
        <ele>179.4</ele>
        <time>2023-04-18T12:14:25Z</time>
      </trkpt>
      <trkpt lat="45.88193" lon="4.72887">
        <ele>179.4</ele>
        <time>2023-04-18T12:14:26Z</time>
      </trkpt>
      <trkpt lat="45.88197" lon="4.72889">
        <ele>179.4</ele>
        <time>2023-04-18T12:14:27Z</time>
      </trkpt>
      <trkpt lat="45.88206" lon="4.7289">
        <ele>179.3</ele>
        <time>2023-04-18T12:14:29Z</time>
      </trkpt>
      <trkpt lat="45.88211" lon="4.72891">
        <ele>179.1</ele>
        <time>2023-04-18T12:14:30Z</time>
      </trkpt>
      <trkpt lat="45.88216" lon="4.72892">
        <ele>179.1</ele>
        <time>2023-04-18T12:14:31Z</time>
      </trkpt>
      <trkpt lat="45.88221" lon="4.72892">
        <ele>179</ele>
        <time>2023-04-18T12:14:32Z</time>
      </trkpt>
      <trkpt lat="45.88229" lon="4.72893">
        <ele>178.9</ele>
        <time>2023-04-18T12:14:34Z</time>
      </trkpt>
      <trkpt lat="45.88239" lon="4.72894">
        <ele>179</ele>
        <time>2023-04-18T12:14:36Z</time>
      </trkpt>
      <trkpt lat="45.88244" lon="4.72894">
        <ele>179.1</ele>
        <time>2023-04-18T12:14:37Z</time>
      </trkpt>
      <trkpt lat="45.88252" lon="4.72894">
        <ele>179.3</ele>
        <time>2023-04-18T12:14:39Z</time>
      </trkpt>
      <trkpt lat="45.88257" lon="4.72895">
        <ele>179.5</ele>
        <time>2023-04-18T12:14:40Z</time>
      </trkpt>
      <trkpt lat="45.88262" lon="4.72896">
        <ele>179.5</ele>
        <time>2023-04-18T12:14:41Z</time>
      </trkpt>
      <trkpt lat="45.88267" lon="4.72897">
        <ele>179.7</ele>
        <time>2023-04-18T12:14:42Z</time>
      </trkpt>
      <trkpt lat="45.88275" lon="4.72896">
        <ele>180.2</ele>
        <time>2023-04-18T12:14:44Z</time>
      </trkpt>
      <trkpt lat="45.88279" lon="4.72894">
        <ele>180.5</ele>
        <time>2023-04-18T12:14:45Z</time>
      </trkpt>
      <trkpt lat="45.88284" lon="4.72884">
        <ele>180.6</ele>
        <time>2023-04-18T12:14:47Z</time>
      </trkpt>
      <trkpt lat="45.88285" lon="4.72877">
        <ele>180.7</ele>
        <time>2023-04-18T12:14:48Z</time>
      </trkpt>
      <trkpt lat="45.88286" lon="4.72864">
        <ele>180.6</ele>
        <time>2023-04-18T12:14:50Z</time>
      </trkpt>
      <trkpt lat="45.88288" lon="4.72858">
        <ele>180.7</ele>
        <time>2023-04-18T12:14:51Z</time>
      </trkpt>
      <trkpt lat="45.88291" lon="4.72852">
        <ele>180.7</ele>
        <time>2023-04-18T12:14:52Z</time>
      </trkpt>
      <trkpt lat="45.88298" lon="4.72848">
        <ele>180.1</ele>
        <time>2023-04-18T12:14:54Z</time>
      </trkpt>
      <trkpt lat="45.88306" lon="4.72847">
        <ele>179.6</ele>
        <time>2023-04-18T12:14:56Z</time>
      </trkpt>
      <trkpt lat="45.88313" lon="4.72849">
        <ele>179.2</ele>
        <time>2023-04-18T12:14:58Z</time>
      </trkpt>
      <trkpt lat="45.88317" lon="4.72852">
        <ele>179</ele>
        <time>2023-04-18T12:14:59Z</time>
      </trkpt>
      <trkpt lat="45.88324" lon="4.72856">
        <ele>179</ele>
        <time>2023-04-18T12:15:01Z</time>
      </trkpt>
      <trkpt lat="45.88329" lon="4.72858">
        <ele>179</ele>
        <time>2023-04-18T12:15:02Z</time>
      </trkpt>
      <trkpt lat="45.88333" lon="4.7286">
        <ele>178.9</ele>
        <time>2023-04-18T12:15:03Z</time>
      </trkpt>
      <trkpt lat="45.88338" lon="4.72861">
        <ele>178.9</ele>
        <time>2023-04-18T12:15:04Z</time>
      </trkpt>
      <trkpt lat="45.88346" lon="4.72866">
        <ele>178.8</ele>
        <time>2023-04-18T12:15:06Z</time>
      </trkpt>
      <trkpt lat="45.88351" lon="4.72869">
        <ele>178.9</ele>
        <time>2023-04-18T12:15:07Z</time>
      </trkpt>
      <trkpt lat="45.88355" lon="4.72873">
        <ele>178.7</ele>
        <time>2023-04-18T12:15:08Z</time>
      </trkpt>
      <trkpt lat="45.8836" lon="4.72873">
        <ele>178.7</ele>
        <time>2023-04-18T12:15:09Z</time>
      </trkpt>
      <trkpt lat="45.88365" lon="4.72875">
        <ele>178.6</ele>
        <time>2023-04-18T12:15:10Z</time>
      </trkpt>
      <trkpt lat="45.8837" lon="4.72875">
        <ele>178.8</ele>
        <time>2023-04-18T12:15:11Z</time>
      </trkpt>
      <trkpt lat="45.88374" lon="4.72875">
        <ele>178.8</ele>
        <time>2023-04-18T12:15:12Z</time>
      </trkpt>
      <trkpt lat="45.88384" lon="4.72875">
        <ele>178.9</ele>
        <time>2023-04-18T12:15:14Z</time>
      </trkpt>
      <trkpt lat="45.88389" lon="4.72875">
        <ele>179.1</ele>
        <time>2023-04-18T12:15:15Z</time>
      </trkpt>
      <trkpt lat="45.88398" lon="4.72873">
        <ele>179.4</ele>
        <time>2023-04-18T12:15:17Z</time>
      </trkpt>
      <trkpt lat="45.88402" lon="4.72872">
        <ele>179.4</ele>
        <time>2023-04-18T12:15:18Z</time>
      </trkpt>
      <trkpt lat="45.88406" lon="4.72871">
        <ele>179.5</ele>
        <time>2023-04-18T12:15:19Z</time>
      </trkpt>
      <trkpt lat="45.88411" lon="4.7287">
        <ele>179.6</ele>
        <time>2023-04-18T12:15:20Z</time>
      </trkpt>
      <trkpt lat="45.88416" lon="4.72869">
        <ele>179.7</ele>
        <time>2023-04-18T12:15:21Z</time>
      </trkpt>
      <trkpt lat="45.88422" lon="4.72869">
        <ele>179.6</ele>
        <time>2023-04-18T12:15:22Z</time>
      </trkpt>
      <trkpt lat="45.88427" lon="4.72869">
        <ele>179.7</ele>
        <time>2023-04-18T12:15:23Z</time>
      </trkpt>
      <trkpt lat="45.88431" lon="4.72868">
        <ele>179.7</ele>
        <time>2023-04-18T12:15:24Z</time>
      </trkpt>
      <trkpt lat="45.88436" lon="4.72868">
        <ele>179.7</ele>
        <time>2023-04-18T12:15:25Z</time>
      </trkpt>
      <trkpt lat="45.88489" lon="4.72863">
        <ele>179.9</ele>
        <time>2023-04-18T12:15:36Z</time>
      </trkpt>
      <trkpt lat="45.88498" lon="4.72866">
        <ele>180</ele>
        <time>2023-04-18T12:15:38Z</time>
      </trkpt>
      <trkpt lat="45.88504" lon="4.72866">
        <ele>180.1</ele>
        <time>2023-04-18T12:15:39Z</time>
      </trkpt>
      <trkpt lat="45.88509" lon="4.72867">
        <ele>180.7</ele>
        <time>2023-04-18T12:15:40Z</time>
      </trkpt>
      <trkpt lat="45.88514" lon="4.72871">
        <ele>180.8</ele>
        <time>2023-04-18T12:15:41Z</time>
      </trkpt>
      <trkpt lat="45.88519" lon="4.72871">
        <ele>180.9</ele>
        <time>2023-04-18T12:15:42Z</time>
      </trkpt>
      <trkpt lat="45.88524" lon="4.72871">
        <ele>180.9</ele>
        <time>2023-04-18T12:15:43Z</time>
      </trkpt>
      <trkpt lat="45.88529" lon="4.72873">
        <ele>180.7</ele>
        <time>2023-04-18T12:15:44Z</time>
      </trkpt>
      <trkpt lat="45.88559" lon="4.72877">
        <ele>180.9</ele>
        <time>2023-04-18T12:15:51Z</time>
      </trkpt>
      <trkpt lat="45.88565" lon="4.72879">
        <ele>181.2</ele>
        <time>2023-04-18T12:15:53Z</time>
      </trkpt>
      <trkpt lat="45.8857" lon="4.72882">
        <ele>181</ele>
        <time>2023-04-18T12:16:54Z</time>
      </trkpt>
      <trkpt lat="45.88573" lon="4.72887">
        <ele>180.8</ele>
        <time>2023-04-18T12:19:33Z</time>
      </trkpt>
      <trkpt lat="45.88578" lon="4.72894">
        <ele>180.6</ele>
        <time>2023-04-18T12:19:49Z</time>
      </trkpt>
      <trkpt lat="45.88582" lon="4.72897">
        <ele>180.5</ele>
        <time>2023-04-18T12:19:51Z</time>
      </trkpt>
      <trkpt lat="45.88588" lon="4.72901">
        <ele>180.5</ele>
        <time>2023-04-18T12:19:53Z</time>
      </trkpt>
      <trkpt lat="45.88594" lon="4.72904">
        <ele>180.6</ele>
        <time>2023-04-18T12:19:55Z</time>
      </trkpt>
      <trkpt lat="45.88601" lon="4.72909">
        <ele>180.8</ele>
        <time>2023-04-18T12:19:57Z</time>
      </trkpt>
      <trkpt lat="45.88608" lon="4.72915">
        <ele>181.2</ele>
        <time>2023-04-18T12:19:59Z</time>
      </trkpt>
      <trkpt lat="45.88615" lon="4.72919">
        <ele>181.3</ele>
        <time>2023-04-18T12:20:01Z</time>
      </trkpt>
      <trkpt lat="45.88623" lon="4.72922">
        <ele>181.2</ele>
        <time>2023-04-18T12:20:03Z</time>
      </trkpt>
      <trkpt lat="45.88631" lon="4.72923">
        <ele>181.1</ele>
        <time>2023-04-18T12:20:05Z</time>
      </trkpt>
      <trkpt lat="45.88636" lon="4.72921">
        <ele>181</ele>
        <time>2023-04-18T12:20:06Z</time>
      </trkpt>
      <trkpt lat="45.88682" lon="4.72897">
        <ele>180.7</ele>
        <time>2023-04-18T12:20:18Z</time>
      </trkpt>
      <trkpt lat="45.88689" lon="4.72896">
        <ele>181</ele>
        <time>2023-04-18T12:20:20Z</time>
      </trkpt>
      <trkpt lat="45.88697" lon="4.72895">
        <ele>181.1</ele>
        <time>2023-04-18T12:20:22Z</time>
      </trkpt>
      <trkpt lat="45.88723" lon="4.729">
        <ele>182.1</ele>
        <time>2023-04-18T12:20:28Z</time>
      </trkpt>
      <trkpt lat="45.88728" lon="4.72902">
        <ele>182</ele>
        <time>2023-04-18T12:20:29Z</time>
      </trkpt>
      <trkpt lat="45.88737" lon="4.72905">
        <ele>181.7</ele>
        <time>2023-04-18T12:20:31Z</time>
      </trkpt>
      <trkpt lat="45.88741" lon="4.72906">
        <ele>181.6</ele>
        <time>2023-04-18T12:20:32Z</time>
      </trkpt>
      <trkpt lat="45.88761" lon="4.7282">
        <ele>180.9</ele>
        <time>2023-04-18T12:20:53Z</time>
      </trkpt>
      <trkpt lat="45.88763" lon="4.7281">
        <ele>180.5</ele>
        <time>2023-04-18T12:20:55Z</time>
      </trkpt>
      <trkpt lat="45.88763" lon="4.72799">
        <ele>180.5</ele>
        <time>2023-04-18T12:20:57Z</time>
      </trkpt>
      <trkpt lat="45.88803" lon="4.72283">
        <ele>179.2</ele>
        <time>2023-04-18T12:22:23Z</time>
      </trkpt>
      <trkpt lat="45.88834" lon="4.72108">
        <ele>179</ele>
        <time>2023-04-18T12:22:48Z</time>
      </trkpt>
      <trkpt lat="45.88836" lon="4.72101">
        <ele>179</ele>
        <time>2023-04-18T12:22:49Z</time>
      </trkpt>
      <trkpt lat="45.88838" lon="4.72094">
        <ele>179</ele>
        <time>2023-04-18T12:22:50Z</time>
      </trkpt>
      <trkpt lat="45.88838" lon="4.72087">
        <ele>178.9</ele>
        <time>2023-04-18T12:22:51Z</time>
      </trkpt>
      <trkpt lat="45.8884" lon="4.7208">
        <ele>178.7</ele>
        <time>2023-04-18T12:22:52Z</time>
      </trkpt>
      <trkpt lat="45.88846" lon="4.7204">
        <ele>178.6</ele>
        <time>2023-04-18T12:22:58Z</time>
      </trkpt>
      <trkpt lat="45.88849" lon="4.72028">
        <ele>178.4</ele>
        <time>2023-04-18T12:23:00Z</time>
      </trkpt>
      <trkpt lat="45.88849" lon="4.72021">
        <ele>178.4</ele>
        <time>2023-04-18T12:23:01Z</time>
      </trkpt>
      <trkpt lat="45.8885" lon="4.72014">
        <ele>178.5</ele>
        <time>2023-04-18T12:23:02Z</time>
      </trkpt>
      <trkpt lat="45.88852" lon="4.72007">
        <ele>178.5</ele>
        <time>2023-04-18T12:23:03Z</time>
      </trkpt>
      <trkpt lat="45.88852" lon="4.72">
        <ele>178.6</ele>
        <time>2023-04-18T12:23:04Z</time>
      </trkpt>
      <trkpt lat="45.88854" lon="4.71994">
        <ele>178.5</ele>
        <time>2023-04-18T12:23:05Z</time>
      </trkpt>
      <trkpt lat="45.88856" lon="4.71988">
        <ele>178.6</ele>
        <time>2023-04-18T12:23:06Z</time>
      </trkpt>
      <trkpt lat="45.88857" lon="4.71982">
        <ele>178.6</ele>
        <time>2023-04-18T12:23:07Z</time>
      </trkpt>
      <trkpt lat="45.88859" lon="4.71976">
        <ele>178.8</ele>
        <time>2023-04-18T12:23:08Z</time>
      </trkpt>
      <trkpt lat="45.88873" lon="4.71938">
        <ele>178.9</ele>
        <time>2023-04-18T12:23:14Z</time>
      </trkpt>
      <trkpt lat="45.88874" lon="4.71931">
        <ele>179.1</ele>
        <time>2023-04-18T12:23:15Z</time>
      </trkpt>
      <trkpt lat="45.88877" lon="4.71924">
        <ele>179.2</ele>
        <time>2023-04-18T12:23:16Z</time>
      </trkpt>
      <trkpt lat="45.88882" lon="4.71914">
        <ele>179</ele>
        <time>2023-04-18T12:23:18Z</time>
      </trkpt>
      <trkpt lat="45.88884" lon="4.71908">
        <ele>179.1</ele>
        <time>2023-04-18T12:23:19Z</time>
      </trkpt>
      <trkpt lat="45.88886" lon="4.71902">
        <ele>179.6</ele>
        <time>2023-04-18T12:23:20Z</time>
      </trkpt>
      <trkpt lat="45.88888" lon="4.71896">
        <ele>179.7</ele>
        <time>2023-04-18T12:23:21Z</time>
      </trkpt>
      <trkpt lat="45.88889" lon="4.71889">
        <ele>180.4</ele>
        <time>2023-04-18T12:23:22Z</time>
      </trkpt>
      <trkpt lat="45.88893" lon="4.71878">
        <ele>181.8</ele>
        <time>2023-04-18T12:23:24Z</time>
      </trkpt>
      <trkpt lat="45.88895" lon="4.71872">
        <ele>182.1</ele>
        <time>2023-04-18T12:23:25Z</time>
      </trkpt>
      <trkpt lat="45.88897" lon="4.71866">
        <ele>182.4</ele>
        <time>2023-04-18T12:23:26Z</time>
      </trkpt>
      <trkpt lat="45.88899" lon="4.7186">
        <ele>182.4</ele>
        <time>2023-04-18T12:23:27Z</time>
      </trkpt>
      <trkpt lat="45.88901" lon="4.71854">
        <ele>182.5</ele>
        <time>2023-04-18T12:23:28Z</time>
      </trkpt>
      <trkpt lat="45.88993" lon="4.71605">
        <ele>179.7</ele>
        <time>2023-04-18T12:24:14Z</time>
      </trkpt>
      <trkpt lat="45.88995" lon="4.71595">
        <ele>180.3</ele>
        <time>2023-04-18T12:24:16Z</time>
      </trkpt>
      <trkpt lat="45.88996" lon="4.71585">
        <ele>181.3</ele>
        <time>2023-04-18T12:24:18Z</time>
      </trkpt>
      <trkpt lat="45.88998" lon="4.71575">
        <ele>181.8</ele>
        <time>2023-04-18T12:24:20Z</time>
      </trkpt>
      <trkpt lat="45.89" lon="4.71566">
        <ele>182.1</ele>
        <time>2023-04-18T12:24:22Z</time>
      </trkpt>
      <trkpt lat="45.89009" lon="4.71508">
        <ele>182.3</ele>
        <time>2023-04-18T12:24:34Z</time>
      </trkpt>
      <trkpt lat="45.89011" lon="4.71499">
        <ele>182.6</ele>
        <time>2023-04-18T12:24:36Z</time>
      </trkpt>
      <trkpt lat="45.89012" lon="4.7149">
        <ele>183.5</ele>
        <time>2023-04-18T12:24:38Z</time>
      </trkpt>
      <trkpt lat="45.89014" lon="4.7148">
        <ele>184</ele>
        <time>2023-04-18T12:24:40Z</time>
      </trkpt>
      <trkpt lat="45.89015" lon="4.71469">
        <ele>184.2</ele>
        <time>2023-04-18T12:24:42Z</time>
      </trkpt>
      <trkpt lat="45.89016" lon="4.71432">
        <ele>184.5</ele>
        <time>2023-04-18T12:24:49Z</time>
      </trkpt>
      <trkpt lat="45.89016" lon="4.71422">
        <ele>184.4</ele>
        <time>2023-04-18T12:24:51Z</time>
      </trkpt>
      <trkpt lat="45.89018" lon="4.71413">
        <ele>184.8</ele>
        <time>2023-04-18T12:24:53Z</time>
      </trkpt>
      <trkpt lat="45.89023" lon="4.71412">
        <ele>184.9</ele>
        <time>2023-04-18T12:24:56Z</time>
      </trkpt>
      <trkpt lat="45.89024" lon="4.71419">
        <ele>185.7</ele>
        <time>2023-04-18T12:26:35Z</time>
      </trkpt>
      <trkpt lat="45.89026" lon="4.71411">
        <ele>185.7</ele>
        <time>2023-04-18T12:27:02Z</time>
      </trkpt>
      <trkpt lat="45.89021" lon="4.71405">
        <ele>185.8</ele>
        <time>2023-04-18T12:27:05Z</time>
      </trkpt>
      <trkpt lat="45.89017" lon="4.71402">
        <ele>186.3</ele>
        <time>2023-04-18T12:27:07Z</time>
      </trkpt>
      <trkpt lat="45.89015" lon="4.71393">
        <ele>186.7</ele>
        <time>2023-04-18T12:27:09Z</time>
      </trkpt>
      <trkpt lat="45.89015" lon="4.71383">
        <ele>187.4</ele>
        <time>2023-04-18T12:27:11Z</time>
      </trkpt>
      <trkpt lat="45.89016" lon="4.71373">
        <ele>187.6</ele>
        <time>2023-04-18T12:27:13Z</time>
      </trkpt>
      <trkpt lat="45.89018" lon="4.71332">
        <ele>187.4</ele>
        <time>2023-04-18T12:27:20Z</time>
      </trkpt>
      <trkpt lat="45.89018" lon="4.71321">
        <ele>187.7</ele>
        <time>2023-04-18T12:27:22Z</time>
      </trkpt>
      <trkpt lat="45.89019" lon="4.71309">
        <ele>187.7</ele>
        <time>2023-04-18T12:27:24Z</time>
      </trkpt>
      <trkpt lat="45.8902" lon="4.71274">
        <ele>188.5</ele>
        <time>2023-04-18T12:27:30Z</time>
      </trkpt>
      <trkpt lat="45.89021" lon="4.71263">
        <ele>189</ele>
        <time>2023-04-18T12:27:32Z</time>
      </trkpt>
      <trkpt lat="45.89021" lon="4.71252">
        <ele>189</ele>
        <time>2023-04-18T12:27:34Z</time>
      </trkpt>
      <trkpt lat="45.89506" lon="4.71584">
        <ele>191.7</ele>
        <time>2023-04-18T12:30:15Z</time>
      </trkpt>
      <trkpt lat="45.8953" lon="4.71585">
        <ele>191.1</ele>
        <time>2023-04-18T12:30:21Z</time>
      </trkpt>
      <trkpt lat="45.89538" lon="4.71583">
        <ele>191.6</ele>
        <time>2023-04-18T12:30:23Z</time>
      </trkpt>
      <trkpt lat="45.89546" lon="4.71582">
        <ele>190.6</ele>
        <time>2023-04-18T12:30:25Z</time>
      </trkpt>
      <trkpt lat="45.89555" lon="4.7158">
        <ele>190.7</ele>
        <time>2023-04-18T12:30:27Z</time>
      </trkpt>
      <trkpt lat="45.89563" lon="4.71578">
        <ele>190.7</ele>
        <time>2023-04-18T12:30:29Z</time>
      </trkpt>
      <trkpt lat="45.89571" lon="4.71577">
        <ele>190.7</ele>
        <time>2023-04-18T12:30:31Z</time>
      </trkpt>
      <trkpt lat="45.8958" lon="4.71577">
        <ele>190.8</ele>
        <time>2023-04-18T12:30:33Z</time>
      </trkpt>
      <trkpt lat="45.89588" lon="4.71576">
        <ele>190.9</ele>
        <time>2023-04-18T12:30:35Z</time>
      </trkpt>
      <trkpt lat="45.89597" lon="4.71574">
        <ele>191.2</ele>
        <time>2023-04-18T12:30:37Z</time>
      </trkpt>
      <trkpt lat="45.89606" lon="4.71573">
        <ele>190.7</ele>
        <time>2023-04-18T12:30:39Z</time>
      </trkpt>
      <trkpt lat="45.89647" lon="4.71558">
        <ele>189.4</ele>
        <time>2023-04-18T12:30:51Z</time>
      </trkpt>
      <trkpt lat="45.89652" lon="4.71553">
        <ele>187</ele>
        <time>2023-04-18T12:30:53Z</time>
      </trkpt>
      <trkpt lat="45.89657" lon="4.71549">
        <ele>187</ele>
        <time>2023-04-18T12:30:55Z</time>
      </trkpt>
      <trkpt lat="45.89711" lon="4.71545">
        <ele>187</ele>
        <time>2023-04-18T12:31:11Z</time>
      </trkpt>
      <trkpt lat="45.89718" lon="4.71542">
        <ele>186.7</ele>
        <time>2023-04-18T12:31:13Z</time>
      </trkpt>
      <trkpt lat="45.89721" lon="4.71532">
        <ele>186.4</ele>
        <time>2023-04-18T12:31:15Z</time>
      </trkpt>
      <trkpt lat="45.8972" lon="4.71521">
        <ele>186.2</ele>
        <time>2023-04-18T12:31:17Z</time>
      </trkpt>
      <trkpt lat="45.89719" lon="4.71511">
        <ele>186.1</ele>
        <time>2023-04-18T12:31:19Z</time>
      </trkpt>
      <trkpt lat="45.89717" lon="4.715">
        <ele>186.2</ele>
        <time>2023-04-18T12:31:21Z</time>
      </trkpt>
      <trkpt lat="45.89717" lon="4.71489">
        <ele>187.5</ele>
        <time>2023-04-18T12:31:23Z</time>
      </trkpt>
      <trkpt lat="45.89716" lon="4.71479">
        <ele>188</ele>
        <time>2023-04-18T12:31:25Z</time>
      </trkpt>
      <trkpt lat="45.89714" lon="4.71468">
        <ele>188.1</ele>
        <time>2023-04-18T12:31:27Z</time>
      </trkpt>
      <trkpt lat="45.89713" lon="4.71459">
        <ele>188.3</ele>
        <time>2023-04-18T12:31:29Z</time>
      </trkpt>
      <trkpt lat="45.89712" lon="4.7145">
        <ele>188.6</ele>
        <time>2023-04-18T12:31:31Z</time>
      </trkpt>
      <trkpt lat="45.89712" lon="4.71441">
        <ele>189.1</ele>
        <time>2023-04-18T12:31:33Z</time>
      </trkpt>
      <trkpt lat="45.89711" lon="4.71434">
        <ele>189.3</ele>
        <time>2023-04-18T12:31:35Z</time>
      </trkpt>
      <trkpt lat="45.8971" lon="4.71427">
        <ele>189.5</ele>
        <time>2023-04-18T12:31:37Z</time>
      </trkpt>
      <trkpt lat="45.89709" lon="4.71421">
        <ele>189.8</ele>
        <time>2023-04-18T12:31:40Z</time>
      </trkpt>
      <trkpt lat="45.89709" lon="4.7143">
        <ele>189.9</ele>
        <time>2023-04-18T12:32:06Z</time>
      </trkpt>
      <trkpt lat="45.89711" lon="4.71438">
        <ele>189.8</ele>
        <time>2023-04-18T12:32:08Z</time>
      </trkpt>
      <trkpt lat="45.89713" lon="4.71448">
        <ele>189.7</ele>
        <time>2023-04-18T12:32:10Z</time>
      </trkpt>
      <trkpt lat="45.89714" lon="4.71459">
        <ele>189.4</ele>
        <time>2023-04-18T12:32:12Z</time>
      </trkpt>
      <trkpt lat="45.89714" lon="4.71471">
        <ele>188.7</ele>
        <time>2023-04-18T12:32:14Z</time>
      </trkpt>
      <trkpt lat="45.89716" lon="4.71483">
        <ele>188.4</ele>
        <time>2023-04-18T12:32:16Z</time>
      </trkpt>
      <trkpt lat="45.89716" lon="4.71492">
        <ele>188.7</ele>
        <time>2023-04-18T12:32:17Z</time>
      </trkpt>
      <trkpt lat="45.89717" lon="4.71505">
        <ele>188.7</ele>
        <time>2023-04-18T12:32:19Z</time>
      </trkpt>
      <trkpt lat="45.89717" lon="4.71511">
        <ele>188.5</ele>
        <time>2023-04-18T12:32:20Z</time>
      </trkpt>
      <trkpt lat="45.89718" lon="4.71518">
        <ele>188.5</ele>
        <time>2023-04-18T12:32:21Z</time>
      </trkpt>
      <trkpt lat="45.89718" lon="4.71525">
        <ele>188.3</ele>
        <time>2023-04-18T12:32:22Z</time>
      </trkpt>
      <trkpt lat="45.8972" lon="4.71531">
        <ele>188.1</ele>
        <time>2023-04-18T12:32:23Z</time>
      </trkpt>
      <trkpt lat="45.89724" lon="4.7154">
        <ele>187.8</ele>
        <time>2023-04-18T12:32:25Z</time>
      </trkpt>
      <trkpt lat="45.89728" lon="4.71542">
        <ele>187.6</ele>
        <time>2023-04-18T12:32:26Z</time>
      </trkpt>
      <trkpt lat="45.89733" lon="4.71543">
        <ele>187.6</ele>
        <time>2023-04-18T12:32:27Z</time>
      </trkpt>
      <trkpt lat="45.89738" lon="4.71543">
        <ele>187.2</ele>
        <time>2023-04-18T12:32:28Z</time>
      </trkpt>
      <trkpt lat="45.89743" lon="4.71542">
        <ele>186.9</ele>
        <time>2023-04-18T12:32:29Z</time>
      </trkpt>
      <trkpt lat="45.89748" lon="4.71543">
        <ele>186.2</ele>
        <time>2023-04-18T12:32:30Z</time>
      </trkpt>
      <trkpt lat="45.89753" lon="4.71542">
        <ele>186</ele>
        <time>2023-04-18T12:32:31Z</time>
      </trkpt>
      <trkpt lat="45.89758" lon="4.71542">
        <ele>186.2</ele>
        <time>2023-04-18T12:32:32Z</time>
      </trkpt>
      <trkpt lat="45.89763" lon="4.71542">
        <ele>185.9</ele>
        <time>2023-04-18T12:32:33Z</time>
      </trkpt>
      <trkpt lat="45.89769" lon="4.71541">
        <ele>185.6</ele>
        <time>2023-04-18T12:32:34Z</time>
      </trkpt>
      <trkpt lat="45.89775" lon="4.71541">
        <ele>185.2</ele>
        <time>2023-04-18T12:32:35Z</time>
      </trkpt>
      <trkpt lat="45.8978" lon="4.71541">
        <ele>185.1</ele>
        <time>2023-04-18T12:32:36Z</time>
      </trkpt>
      <trkpt lat="45.89786" lon="4.7154">
        <ele>185</ele>
        <time>2023-04-18T12:32:37Z</time>
      </trkpt>
      <trkpt lat="45.89792" lon="4.7154">
        <ele>185.3</ele>
        <time>2023-04-18T12:32:38Z</time>
      </trkpt>
      <trkpt lat="45.89798" lon="4.71541">
        <ele>185.6</ele>
        <time>2023-04-18T12:32:39Z</time>
      </trkpt>
      <trkpt lat="45.89804" lon="4.71543">
        <ele>185.6</ele>
        <time>2023-04-18T12:32:40Z</time>
      </trkpt>
      <trkpt lat="45.8981" lon="4.71544">
        <ele>185.6</ele>
        <time>2023-04-18T12:32:41Z</time>
      </trkpt>
      <trkpt lat="45.89817" lon="4.71546">
        <ele>185.4</ele>
        <time>2023-04-18T12:32:42Z</time>
      </trkpt>
      <trkpt lat="45.89823" lon="4.71547">
        <ele>185.4</ele>
        <time>2023-04-18T12:32:43Z</time>
      </trkpt>
      <trkpt lat="45.89831" lon="4.71548">
        <ele>185.8</ele>
        <time>2023-04-18T12:32:44Z</time>
      </trkpt>
      <trkpt lat="45.89838" lon="4.71548">
        <ele>186.1</ele>
        <time>2023-04-18T12:32:45Z</time>
      </trkpt>
      <trkpt lat="45.89845" lon="4.71548">
        <ele>186.2</ele>
        <time>2023-04-18T12:32:46Z</time>
      </trkpt>
      <trkpt lat="45.89853" lon="4.71548">
        <ele>186.2</ele>
        <time>2023-04-18T12:32:47Z</time>
      </trkpt>
      <trkpt lat="45.8986" lon="4.71547">
        <ele>186.3</ele>
        <time>2023-04-18T12:32:48Z</time>
      </trkpt>
      <trkpt lat="45.89868" lon="4.71545">
        <ele>186.4</ele>
        <time>2023-04-18T12:32:49Z</time>
      </trkpt>
      <trkpt lat="45.89875" lon="4.71546">
        <ele>186.3</ele>
        <time>2023-04-18T12:32:50Z</time>
      </trkpt>
      <trkpt lat="45.89884" lon="4.71546">
        <ele>186.3</ele>
        <time>2023-04-18T12:32:51Z</time>
      </trkpt>
      <trkpt lat="45.89889" lon="4.71546">
        <ele>186.5</ele>
        <time>2023-04-18T12:32:52Z</time>
      </trkpt>
      <trkpt lat="45.89894" lon="4.71546">
        <ele>186.8</ele>
        <time>2023-04-18T12:32:53Z</time>
      </trkpt>
      <trkpt lat="45.89899" lon="4.71545">
        <ele>186.8</ele>
        <time>2023-04-18T12:32:54Z</time>
      </trkpt>
      <trkpt lat="45.89904" lon="4.71543">
        <ele>187</ele>
        <time>2023-04-18T12:32:55Z</time>
      </trkpt>
      <trkpt lat="45.89943" lon="4.71539">
        <ele>187.7</ele>
        <time>2023-04-18T12:33:01Z</time>
      </trkpt>
      <trkpt lat="45.89949" lon="4.71538">
        <ele>188</ele>
        <time>2023-04-18T12:33:02Z</time>
      </trkpt>
      <trkpt lat="45.89955" lon="4.71539">
        <ele>188.1</ele>
        <time>2023-04-18T12:33:03Z</time>
      </trkpt>
      <trkpt lat="45.89965" lon="4.71538">
        <ele>187.6</ele>
        <time>2023-04-18T12:33:05Z</time>
      </trkpt>
      <trkpt lat="45.89995" lon="4.71536">
        <ele>187.2</ele>
        <time>2023-04-18T12:33:11Z</time>
      </trkpt>
      <trkpt lat="45.90001" lon="4.71536">
        <ele>186.9</ele>
        <time>2023-04-18T12:33:12Z</time>
      </trkpt>
      <trkpt lat="45.90006" lon="4.71536">
        <ele>186.9</ele>
        <time>2023-04-18T12:33:13Z</time>
      </trkpt>
      <trkpt lat="45.90011" lon="4.71536">
        <ele>187</ele>
        <time>2023-04-18T12:33:14Z</time>
      </trkpt>
      <trkpt lat="45.90017" lon="4.71535">
        <ele>187.2</ele>
        <time>2023-04-18T12:33:15Z</time>
      </trkpt>
      <trkpt lat="45.90021" lon="4.71535">
        <ele>187.2</ele>
        <time>2023-04-18T12:33:16Z</time>
      </trkpt>
      <trkpt lat="45.90027" lon="4.71535">
        <ele>187.5</ele>
        <time>2023-04-18T12:33:17Z</time>
      </trkpt>
      <trkpt lat="45.90031" lon="4.71535">
        <ele>187.9</ele>
        <time>2023-04-18T12:33:18Z</time>
      </trkpt>
      <trkpt lat="45.90037" lon="4.71535">
        <ele>189.6</ele>
        <time>2023-04-18T12:33:19Z</time>
      </trkpt>
      <trkpt lat="45.90042" lon="4.71535">
        <ele>189.8</ele>
        <time>2023-04-18T12:33:20Z</time>
      </trkpt>
      <trkpt lat="45.90094" lon="4.71533">
        <ele>190.2</ele>
        <time>2023-04-18T12:33:31Z</time>
      </trkpt>
      <trkpt lat="45.90117" lon="4.71535">
        <ele>191.4</ele>
        <time>2023-04-18T12:33:36Z</time>
      </trkpt>
      <trkpt lat="45.90143" lon="4.71539">
        <ele>192.9</ele>
        <time>2023-04-18T12:33:41Z</time>
      </trkpt>
      <trkpt lat="45.90119" lon="4.71535">
        <ele>194.2</ele>
        <time>2023-04-18T12:33:42Z</time>
      </trkpt>
      <trkpt lat="45.90462" lon="4.71508">
        <ele>191.4</ele>
        <time>2023-04-18T12:34:37Z</time>
      </trkpt>
      <trkpt lat="45.90468" lon="4.71511">
        <ele>188.9</ele>
        <time>2023-04-18T12:34:38Z</time>
      </trkpt>
      <trkpt lat="45.90474" lon="4.71514">
        <ele>188</ele>
        <time>2023-04-18T12:34:39Z</time>
      </trkpt>
      <trkpt lat="45.9048" lon="4.71518">
        <ele>187.2</ele>
        <time>2023-04-18T12:34:40Z</time>
      </trkpt>
      <trkpt lat="45.90485" lon="4.71521">
        <ele>187.1</ele>
        <time>2023-04-18T12:34:41Z</time>
      </trkpt>
      <trkpt lat="45.9049" lon="4.71524">
        <ele>186.5</ele>
        <time>2023-04-18T12:34:42Z</time>
      </trkpt>
      <trkpt lat="45.90494" lon="4.71528">
        <ele>186.7</ele>
        <time>2023-04-18T12:34:43Z</time>
      </trkpt>
      <trkpt lat="45.90497" lon="4.71533">
        <ele>186.5</ele>
        <time>2023-04-18T12:34:44Z</time>
      </trkpt>
      <trkpt lat="45.90501" lon="4.71537">
        <ele>186.5</ele>
        <time>2023-04-18T12:34:45Z</time>
      </trkpt>
      <trkpt lat="45.90507" lon="4.71539">
        <ele>186.8</ele>
        <time>2023-04-18T12:34:46Z</time>
      </trkpt>
      <trkpt lat="45.90512" lon="4.71541">
        <ele>187</ele>
        <time>2023-04-18T12:34:47Z</time>
      </trkpt>
      <trkpt lat="45.90517" lon="4.71542">
        <ele>187</ele>
        <time>2023-04-18T12:34:48Z</time>
      </trkpt>
      <trkpt lat="45.90523" lon="4.71543">
        <ele>187.1</ele>
        <time>2023-04-18T12:34:49Z</time>
      </trkpt>
      <trkpt lat="45.90531" lon="4.71545">
        <ele>187.1</ele>
        <time>2023-04-18T12:34:50Z</time>
      </trkpt>
      <trkpt lat="45.90537" lon="4.71546">
        <ele>187.1</ele>
        <time>2023-04-18T12:34:51Z</time>
      </trkpt>
      <trkpt lat="45.90579" lon="4.71546">
        <ele>186.9</ele>
        <time>2023-04-18T12:34:57Z</time>
      </trkpt>
      <trkpt lat="45.90586" lon="4.71545">
        <ele>186.4</ele>
        <time>2023-04-18T12:34:58Z</time>
      </trkpt>
      <trkpt lat="45.90595" lon="4.71545">
        <ele>186</ele>
        <time>2023-04-18T12:34:59Z</time>
      </trkpt>
      <trkpt lat="45.90603" lon="4.71544">
        <ele>185.5</ele>
        <time>2023-04-18T12:35:00Z</time>
      </trkpt>
      <trkpt lat="45.90612" lon="4.71544">
        <ele>184.8</ele>
        <time>2023-04-18T12:35:01Z</time>
      </trkpt>
      <trkpt lat="45.90622" lon="4.71543">
        <ele>184.2</ele>
        <time>2023-04-18T12:35:02Z</time>
      </trkpt>
      <trkpt lat="45.9063" lon="4.71544">
        <ele>182</ele>
        <time>2023-04-18T12:35:03Z</time>
      </trkpt>
      <trkpt lat="45.90639" lon="4.71542">
        <ele>181.9</ele>
        <time>2023-04-18T12:35:04Z</time>
      </trkpt>
      <trkpt lat="45.90648" lon="4.71542">
        <ele>181.9</ele>
        <time>2023-04-18T12:35:05Z</time>
      </trkpt>
      <trkpt lat="45.90656" lon="4.7154">
        <ele>181.5</ele>
        <time>2023-04-18T12:35:06Z</time>
      </trkpt>
      <trkpt lat="45.90665" lon="4.71538">
        <ele>181.2</ele>
        <time>2023-04-18T12:35:07Z</time>
      </trkpt>
      <trkpt lat="45.90673" lon="4.71536">
        <ele>181.1</ele>
        <time>2023-04-18T12:35:08Z</time>
      </trkpt>
      <trkpt lat="45.90682" lon="4.71536">
        <ele>181.1</ele>
        <time>2023-04-18T12:35:09Z</time>
      </trkpt>
      <trkpt lat="45.90691" lon="4.71534">
        <ele>180.9</ele>
        <time>2023-04-18T12:35:10Z</time>
      </trkpt>
      <trkpt lat="45.90699" lon="4.71531">
        <ele>180.8</ele>
        <time>2023-04-18T12:35:11Z</time>
      </trkpt>
      <trkpt lat="45.90706" lon="4.71528">
        <ele>180.7</ele>
        <time>2023-04-18T12:35:12Z</time>
      </trkpt>
      <trkpt lat="45.90714" lon="4.71528">
        <ele>180.4</ele>
        <time>2023-04-18T12:35:13Z</time>
      </trkpt>
      <trkpt lat="45.9072" lon="4.71525">
        <ele>180.3</ele>
        <time>2023-04-18T12:35:14Z</time>
      </trkpt>
      <trkpt lat="45.90727" lon="4.71522">
        <ele>180.2</ele>
        <time>2023-04-18T12:35:15Z</time>
      </trkpt>
      <trkpt lat="45.90732" lon="4.71519">
        <ele>180.2</ele>
        <time>2023-04-18T12:35:16Z</time>
      </trkpt>
      <trkpt lat="45.90738" lon="4.71517">
        <ele>180.2</ele>
        <time>2023-04-18T12:35:17Z</time>
      </trkpt>
      <trkpt lat="45.90744" lon="4.71513">
        <ele>179.9</ele>
        <time>2023-04-18T12:35:18Z</time>
      </trkpt>
      <trkpt lat="45.90749" lon="4.7151">
        <ele>179.8</ele>
        <time>2023-04-18T12:35:19Z</time>
      </trkpt>
      <trkpt lat="45.90754" lon="4.71507">
        <ele>179.9</ele>
        <time>2023-04-18T12:35:20Z</time>
      </trkpt>
      <trkpt lat="45.9076" lon="4.71503">
        <ele>180</ele>
        <time>2023-04-18T12:35:21Z</time>
      </trkpt>
      <trkpt lat="45.90766" lon="4.71498">
        <ele>179.9</ele>
        <time>2023-04-18T12:35:22Z</time>
      </trkpt>
      <trkpt lat="45.90773" lon="4.7149">
        <ele>179.8</ele>
        <time>2023-04-18T12:35:23Z</time>
      </trkpt>
      <trkpt lat="45.90778" lon="4.71486">
        <ele>179.7</ele>
        <time>2023-04-18T12:35:24Z</time>
      </trkpt>
      <trkpt lat="45.90784" lon="4.71481">
        <ele>179.6</ele>
        <time>2023-04-18T12:35:25Z</time>
      </trkpt>
      <trkpt lat="45.90793" lon="4.71475">
        <ele>179.4</ele>
        <time>2023-04-18T12:35:27Z</time>
      </trkpt>
      <trkpt lat="45.90799" lon="4.71473">
        <ele>179.3</ele>
        <time>2023-04-18T12:35:28Z</time>
      </trkpt>
      <trkpt lat="45.90804" lon="4.7147">
        <ele>179.3</ele>
        <time>2023-04-18T12:35:29Z</time>
      </trkpt>
      <trkpt lat="45.90811" lon="4.71469">
        <ele>179.2</ele>
        <time>2023-04-18T12:35:30Z</time>
      </trkpt>
      <trkpt lat="45.90817" lon="4.71468">
        <ele>179</ele>
        <time>2023-04-18T12:35:31Z</time>
      </trkpt>
      <trkpt lat="45.90823" lon="4.71466">
        <ele>179</ele>
        <time>2023-04-18T12:35:32Z</time>
      </trkpt>
      <trkpt lat="45.90829" lon="4.71466">
        <ele>179.1</ele>
        <time>2023-04-18T12:35:33Z</time>
      </trkpt>
      <trkpt lat="45.90834" lon="4.71465">
        <ele>179</ele>
        <time>2023-04-18T12:35:34Z</time>
      </trkpt>
      <trkpt lat="45.9084" lon="4.71464">
        <ele>178.8</ele>
        <time>2023-04-18T12:35:35Z</time>
      </trkpt>
      <trkpt lat="45.90846" lon="4.71465">
        <ele>178.4</ele>
        <time>2023-04-18T12:35:36Z</time>
      </trkpt>
      <trkpt lat="45.90852" lon="4.71462">
        <ele>178.2</ele>
        <time>2023-04-18T12:35:37Z</time>
      </trkpt>
      <trkpt lat="45.90858" lon="4.7146">
        <ele>177.9</ele>
        <time>2023-04-18T12:35:38Z</time>
      </trkpt>
      <trkpt lat="45.90864" lon="4.71459">
        <ele>177.6</ele>
        <time>2023-04-18T12:35:39Z</time>
      </trkpt>
      <trkpt lat="45.9087" lon="4.71458">
        <ele>177.5</ele>
        <time>2023-04-18T12:35:40Z</time>
      </trkpt>
      <trkpt lat="45.90875" lon="4.71455">
        <ele>177.5</ele>
        <time>2023-04-18T12:35:41Z</time>
      </trkpt>
      <trkpt lat="45.90881" lon="4.71454">
        <ele>177.5</ele>
        <time>2023-04-18T12:35:42Z</time>
      </trkpt>
      <trkpt lat="45.90887" lon="4.71453">
        <ele>177.5</ele>
        <time>2023-04-18T12:35:43Z</time>
      </trkpt>
      <trkpt lat="45.90892" lon="4.7145">
        <ele>177.8</ele>
        <time>2023-04-18T12:35:44Z</time>
      </trkpt>
      <trkpt lat="45.909" lon="4.71447">
        <ele>177.6</ele>
        <time>2023-04-18T12:35:46Z</time>
      </trkpt>
      <trkpt lat="45.90906" lon="4.71446">
        <ele>177.5</ele>
        <time>2023-04-18T12:35:48Z</time>
      </trkpt>
      <trkpt lat="45.90911" lon="4.71446">
        <ele>177.4</ele>
        <time>2023-04-18T12:35:50Z</time>
      </trkpt>
      <trkpt lat="45.90916" lon="4.71441">
        <ele>176.9</ele>
        <time>2023-04-18T12:35:52Z</time>
      </trkpt>
      <trkpt lat="45.90911" lon="4.71442">
        <ele>177.1</ele>
        <time>2023-04-18T12:35:56Z</time>
      </trkpt>
      <trkpt lat="45.90906" lon="4.71444">
        <ele>177.3</ele>
        <time>2023-04-18T12:35:58Z</time>
      </trkpt>
      <trkpt lat="45.90901" lon="4.71446">
        <ele>176.8</ele>
        <time>2023-04-18T12:36:00Z</time>
      </trkpt>
      <trkpt lat="45.90895" lon="4.71448">
        <ele>176.6</ele>
        <time>2023-04-18T12:36:02Z</time>
      </trkpt>
      <trkpt lat="45.90889" lon="4.71446">
        <ele>176.4</ele>
        <time>2023-04-18T12:36:04Z</time>
      </trkpt>
      <trkpt lat="45.90884" lon="4.71438">
        <ele>176.4</ele>
        <time>2023-04-18T12:36:06Z</time>
      </trkpt>
      <trkpt lat="45.90882" lon="4.71428">
        <ele>176.5</ele>
        <time>2023-04-18T12:36:08Z</time>
      </trkpt>
      <trkpt lat="45.90881" lon="4.71421">
        <ele>177.2</ele>
        <time>2023-04-18T12:36:09Z</time>
      </trkpt>
      <trkpt lat="45.90882" lon="4.71412">
        <ele>177.1</ele>
        <time>2023-04-18T12:36:10Z</time>
      </trkpt>
      <trkpt lat="45.9088" lon="4.71401">
        <ele>178.6</ele>
        <time>2023-04-18T12:36:12Z</time>
      </trkpt>
      <trkpt lat="45.90878" lon="4.7139">
        <ele>178.7</ele>
        <time>2023-04-18T12:36:14Z</time>
      </trkpt>
      <trkpt lat="45.90878" lon="4.71378">
        <ele>178.6</ele>
        <time>2023-04-18T12:36:16Z</time>
      </trkpt>
      <trkpt lat="45.90881" lon="4.71344">
        <ele>178.8</ele>
        <time>2023-04-18T12:36:22Z</time>
      </trkpt>
      <trkpt lat="45.90886" lon="4.71334">
        <ele>179</ele>
        <time>2023-04-18T12:36:24Z</time>
      </trkpt>
      <trkpt lat="45.90891" lon="4.71325">
        <ele>179.2</ele>
        <time>2023-04-18T12:36:26Z</time>
      </trkpt>
      <trkpt lat="45.90913" lon="4.71279">
        <ele>179.3</ele>
        <time>2023-04-18T12:36:37Z</time>
      </trkpt>
      <trkpt lat="45.90928" lon="4.71258">
        <ele>179.9</ele>
        <time>2023-04-18T12:36:43Z</time>
      </trkpt>
      <trkpt lat="45.90934" lon="4.71253">
        <ele>180.4</ele>
        <time>2023-04-18T12:36:45Z</time>
      </trkpt>
      <trkpt lat="45.90954" lon="4.71234">
        <ele>180.8</ele>
        <time>2023-04-18T12:36:52Z</time>
      </trkpt>
      <trkpt lat="45.90974" lon="4.71097">
        <ele>181.3</ele>
        <time>2023-04-18T12:37:18Z</time>
      </trkpt>
      <trkpt lat="45.90976" lon="4.71086">
        <ele>180.7</ele>
        <time>2023-04-18T12:37:20Z</time>
      </trkpt>
      <trkpt lat="45.90977" lon="4.71075">
        <ele>180.2</ele>
        <time>2023-04-18T12:37:22Z</time>
      </trkpt>
      <trkpt lat="45.90981" lon="4.71044">
        <ele>180.1</ele>
        <time>2023-04-18T12:37:28Z</time>
      </trkpt>
      <trkpt lat="45.90984" lon="4.71034">
        <ele>180.4</ele>
        <time>2023-04-18T12:37:30Z</time>
      </trkpt>
      <trkpt lat="45.90985" lon="4.71023">
        <ele>180.9</ele>
        <time>2023-04-18T12:37:32Z</time>
      </trkpt>
      <trkpt lat="45.90987" lon="4.71013">
        <ele>182</ele>
        <time>2023-04-18T12:37:34Z</time>
      </trkpt>
      <trkpt lat="45.90989" lon="4.71003">
        <ele>182.3</ele>
        <time>2023-04-18T12:37:36Z</time>
      </trkpt>
      <trkpt lat="45.91162" lon="4.70718">
        <ele>184.4</ele>
        <time>2023-04-18T12:38:53Z</time>
      </trkpt>
      <trkpt lat="45.91168" lon="4.70715">
        <ele>184.6</ele>
        <time>2023-04-18T12:38:55Z</time>
      </trkpt>
      <trkpt lat="45.91175" lon="4.70713">
        <ele>185.1</ele>
        <time>2023-04-18T12:38:57Z</time>
      </trkpt>
      <trkpt lat="45.91224" lon="4.70689">
        <ele>186</ele>
        <time>2023-04-18T12:39:13Z</time>
      </trkpt>
      <trkpt lat="45.91231" lon="4.70679">
        <ele>186.3</ele>
        <time>2023-04-18T12:39:18Z</time>
      </trkpt>
      <trkpt lat="45.9122" lon="4.70617">
        <ele>187.6</ele>
        <time>2023-04-18T12:39:33Z</time>
      </trkpt>
      <trkpt lat="45.91219" lon="4.70604">
        <ele>189.4</ele>
        <time>2023-04-18T12:39:38Z</time>
      </trkpt>
      <trkpt lat="45.91176" lon="4.70555">
        <ele>190.3</ele>
        <time>2023-04-18T12:39:58Z</time>
      </trkpt>
      <trkpt lat="45.9114" lon="4.70551">
        <ele>191.2</ele>
        <time>2023-04-18T12:40:08Z</time>
      </trkpt>
      <trkpt lat="45.91133" lon="4.70538">
        <ele>191.4</ele>
        <time>2023-04-18T12:40:13Z</time>
      </trkpt>
      <trkpt lat="45.91124" lon="4.70554">
        <ele>191.8</ele>
        <time>2023-04-18T12:40:14Z</time>
      </trkpt>
      <trkpt lat="45.91118" lon="4.70556">
        <ele>191.5</ele>
        <time>2023-04-18T12:40:19Z</time>
      </trkpt>
      <trkpt lat="45.91089" lon="4.70531">
        <ele>191.7</ele>
        <time>2023-04-18T12:40:28Z</time>
      </trkpt>
      <trkpt lat="45.91069" lon="4.70527">
        <ele>192.1</ele>
        <time>2023-04-18T12:40:33Z</time>
      </trkpt>
      <trkpt lat="45.91059" lon="4.70532">
        <ele>192.4</ele>
        <time>2023-04-18T12:40:39Z</time>
      </trkpt>
      <trkpt lat="45.90832" lon="4.70659">
        <ele>192.3</ele>
        <time>2023-04-18T12:41:59Z</time>
      </trkpt>
      <trkpt lat="45.90736" lon="4.70567">
        <ele>194.2</ele>
        <time>2023-04-18T12:42:49Z</time>
      </trkpt>
      <trkpt lat="45.90733" lon="4.70537">
        <ele>194.4</ele>
        <time>2023-04-18T12:42:55Z</time>
      </trkpt>
      <trkpt lat="45.90732" lon="4.70528">
        <ele>194.5</ele>
        <time>2023-04-18T12:42:57Z</time>
      </trkpt>
      <trkpt lat="45.9073" lon="4.70518">
        <ele>194.5</ele>
        <time>2023-04-18T12:42:59Z</time>
      </trkpt>
      <trkpt lat="45.90728" lon="4.70508">
        <ele>194</ele>
        <time>2023-04-18T12:43:01Z</time>
      </trkpt>
      <trkpt lat="45.90727" lon="4.70497">
        <ele>194.1</ele>
        <time>2023-04-18T12:43:03Z</time>
      </trkpt>
      <trkpt lat="45.90691" lon="4.70043">
        <ele>204.8</ele>
        <time>2023-04-18T12:44:45Z</time>
      </trkpt>
      <trkpt lat="45.90694" lon="4.7003">
        <ele>205.4</ele>
        <time>2023-04-18T12:44:50Z</time>
      </trkpt>
      <trkpt lat="45.90689" lon="4.70022">
        <ele>206.3</ele>
        <time>2023-04-18T12:44:55Z</time>
      </trkpt>
      <trkpt lat="45.90691" lon="4.70013">
        <ele>209.2</ele>
        <time>2023-04-18T12:45:00Z</time>
      </trkpt>
      <trkpt lat="45.90631" lon="4.6982">
        <ele>218.6</ele>
        <time>2023-04-18T12:45:50Z</time>
      </trkpt>
      <trkpt lat="45.90629" lon="4.69829">
        <ele>219.9</ele>
        <time>2023-04-18T12:45:55Z</time>
      </trkpt>
      <trkpt lat="45.90601" lon="4.69832">
        <ele>220.6</ele>
        <time>2023-04-18T12:46:00Z</time>
      </trkpt>
      <trkpt lat="45.90461" lon="4.69723">
        <ele>229.1</ele>
        <time>2023-04-18T12:46:51Z</time>
      </trkpt>
      <trkpt lat="45.90464" lon="4.69714">
        <ele>225.5</ele>
        <time>2023-04-18T12:46:53Z</time>
      </trkpt>
      <trkpt lat="45.90468" lon="4.69705">
        <ele>225.9</ele>
        <time>2023-04-18T12:46:55Z</time>
      </trkpt>
      <trkpt lat="45.90472" lon="4.69696">
        <ele>229.1</ele>
        <time>2023-04-18T12:46:57Z</time>
      </trkpt>
      <trkpt lat="45.90476" lon="4.69688">
        <ele>228.8</ele>
        <time>2023-04-18T12:46:59Z</time>
      </trkpt>
      <trkpt lat="45.90478" lon="4.69678">
        <ele>230.6</ele>
        <time>2023-04-18T12:47:01Z</time>
      </trkpt>
      <trkpt lat="45.90478" lon="4.69669">
        <ele>230.5</ele>
        <time>2023-04-18T12:47:03Z</time>
      </trkpt>
      <trkpt lat="45.90477" lon="4.69659">
        <ele>229.4</ele>
        <time>2023-04-18T12:47:05Z</time>
      </trkpt>
      <trkpt lat="45.90476" lon="4.6965">
        <ele>231.1</ele>
        <time>2023-04-18T12:47:07Z</time>
      </trkpt>
      <trkpt lat="45.90474" lon="4.6964">
        <ele>231.3</ele>
        <time>2023-04-18T12:47:09Z</time>
      </trkpt>
      <trkpt lat="45.90473" lon="4.69631">
        <ele>231.5</ele>
        <time>2023-04-18T12:47:11Z</time>
      </trkpt>
      <trkpt lat="45.90471" lon="4.69621">
        <ele>231.9</ele>
        <time>2023-04-18T12:47:13Z</time>
      </trkpt>
      <trkpt lat="45.90469" lon="4.69612">
        <ele>232</ele>
        <time>2023-04-18T12:47:15Z</time>
      </trkpt>
      <trkpt lat="45.90466" lon="4.69583">
        <ele>232.1</ele>
        <time>2023-04-18T12:47:21Z</time>
      </trkpt>
      <trkpt lat="45.90464" lon="4.69574">
        <ele>232.6</ele>
        <time>2023-04-18T12:47:23Z</time>
      </trkpt>
      <trkpt lat="45.90462" lon="4.69564">
        <ele>233</ele>
        <time>2023-04-18T12:47:25Z</time>
      </trkpt>
      <trkpt lat="45.90461" lon="4.69556">
        <ele>235.5</ele>
        <time>2023-04-18T12:47:27Z</time>
      </trkpt>
      <trkpt lat="45.90459" lon="4.69547">
        <ele>233.7</ele>
        <time>2023-04-18T12:47:29Z</time>
      </trkpt>
      <trkpt lat="45.90454" lon="4.69519">
        <ele>236.2</ele>
        <time>2023-04-18T12:47:36Z</time>
      </trkpt>
      <trkpt lat="45.90447" lon="4.69516">
        <ele>240.1</ele>
        <time>2023-04-18T12:47:38Z</time>
      </trkpt>
      <trkpt lat="45.9044" lon="4.69514">
        <ele>247.6</ele>
        <time>2023-04-18T12:47:40Z</time>
      </trkpt>
      <trkpt lat="45.90434" lon="4.69511">
        <ele>251.9</ele>
        <time>2023-04-18T12:47:42Z</time>
      </trkpt>
      <trkpt lat="45.90428" lon="4.69508">
        <ele>252</ele>
        <time>2023-04-18T12:47:44Z</time>
      </trkpt>
      <trkpt lat="45.90422" lon="4.69506">
        <ele>252.1</ele>
        <time>2023-04-18T12:47:46Z</time>
      </trkpt>
      <trkpt lat="45.90415" lon="4.69504">
        <ele>252.2</ele>
        <time>2023-04-18T12:47:48Z</time>
      </trkpt>
      <trkpt lat="45.90409" lon="4.69502">
        <ele>252.1</ele>
        <time>2023-04-18T12:47:50Z</time>
      </trkpt>
      <trkpt lat="45.90402" lon="4.695">
        <ele>251.8</ele>
        <time>2023-04-18T12:47:52Z</time>
      </trkpt>
      <trkpt lat="45.90395" lon="4.69498">
        <ele>251.2</ele>
        <time>2023-04-18T12:47:54Z</time>
      </trkpt>
      <trkpt lat="45.90362" lon="4.69476">
        <ele>250</ele>
        <time>2023-04-18T12:48:06Z</time>
      </trkpt>
      <trkpt lat="45.90234" lon="4.69334">
        <ele>247.8</ele>
        <time>2023-04-18T12:49:01Z</time>
      </trkpt>
      <trkpt lat="45.90218" lon="4.69312">
        <ele>264.3</ele>
        <time>2023-04-18T12:50:40Z</time>
      </trkpt>
      <trkpt lat="45.90077" lon="4.69305">
        <ele>241.8</ele>
        <time>2023-04-18T12:53:53Z</time>
      </trkpt>
      <trkpt lat="45.90068" lon="4.69304">
        <ele>253</ele>
        <time>2023-04-18T12:53:55Z</time>
      </trkpt>
      <trkpt lat="45.90064" lon="4.69303">
        <ele>252.7</ele>
        <time>2023-04-18T12:53:56Z</time>
      </trkpt>
      <trkpt lat="45.90059" lon="4.69301">
        <ele>251.3</ele>
        <time>2023-04-18T12:53:57Z</time>
      </trkpt>
      <trkpt lat="45.89965" lon="4.6898">
        <ele>247.3</ele>
        <time>2023-04-18T12:56:18Z</time>
      </trkpt>
      <trkpt lat="45.89969" lon="4.68942">
        <ele>247.7</ele>
        <time>2023-04-18T12:56:28Z</time>
      </trkpt>
      <trkpt lat="45.89674" lon="4.68649">
        <ele>253.2</ele>
        <time>2023-04-18T12:59:36Z</time>
      </trkpt>
      <trkpt lat="45.89655" lon="4.68656">
        <ele>239.8</ele>
        <time>2023-04-18T12:59:44Z</time>
      </trkpt>
      <trkpt lat="45.89649" lon="4.68659">
        <ele>238.3</ele>
        <time>2023-04-18T12:59:46Z</time>
      </trkpt>
      <trkpt lat="45.89644" lon="4.68661">
        <ele>237.8</ele>
        <time>2023-04-18T12:59:48Z</time>
      </trkpt>
      <trkpt lat="45.89622" lon="4.68687">
        <ele>241.7</ele>
        <time>2023-04-18T12:59:59Z</time>
      </trkpt>
      <trkpt lat="45.89619" lon="4.68695">
        <ele>239.7</ele>
        <time>2023-04-18T13:00:01Z</time>
      </trkpt>
      <trkpt lat="45.89616" lon="4.68704">
        <ele>243.5</ele>
        <time>2023-04-18T13:00:03Z</time>
      </trkpt>
      <trkpt lat="45.89613" lon="4.68712">
        <ele>244.2</ele>
        <time>2023-04-18T13:00:05Z</time>
      </trkpt>
      <trkpt lat="45.8961" lon="4.68721">
        <ele>244.3</ele>
        <time>2023-04-18T13:00:07Z</time>
      </trkpt>
      <trkpt lat="45.89608" lon="4.68729">
        <ele>244.3</ele>
        <time>2023-04-18T13:00:09Z</time>
      </trkpt>
      <trkpt lat="45.89607" lon="4.68737">
        <ele>244.4</ele>
        <time>2023-04-18T13:00:11Z</time>
      </trkpt>
      <trkpt lat="45.89605" lon="4.68745">
        <ele>244.9</ele>
        <time>2023-04-18T13:00:13Z</time>
      </trkpt>
      <trkpt lat="45.89603" lon="4.68753">
        <ele>244.1</ele>
        <time>2023-04-18T13:00:15Z</time>
      </trkpt>
      <trkpt lat="45.89601" lon="4.68762">
        <ele>242.2</ele>
        <time>2023-04-18T13:00:17Z</time>
      </trkpt>
      <trkpt lat="45.89599" lon="4.68771">
        <ele>242.8</ele>
        <time>2023-04-18T13:00:19Z</time>
      </trkpt>
      <trkpt lat="45.89599" lon="4.68781">
        <ele>242.9</ele>
        <time>2023-04-18T13:00:21Z</time>
      </trkpt>
      <trkpt lat="45.89598" lon="4.6879">
        <ele>244.8</ele>
        <time>2023-04-18T13:00:23Z</time>
      </trkpt>
      <trkpt lat="45.89597" lon="4.68798">
        <ele>249.6</ele>
        <time>2023-04-18T13:00:25Z</time>
      </trkpt>
      <trkpt lat="45.89596" lon="4.68805">
        <ele>249.6</ele>
        <time>2023-04-18T13:00:27Z</time>
      </trkpt>
      <trkpt lat="45.89595" lon="4.68812">
        <ele>249.5</ele>
        <time>2023-04-18T13:00:29Z</time>
      </trkpt>
      <trkpt lat="45.89591" lon="4.68818">
        <ele>246.7</ele>
        <time>2023-04-18T13:02:01Z</time>
      </trkpt>
      <trkpt lat="45.89585" lon="4.68818">
        <ele>248.5</ele>
        <time>2023-04-18T13:02:04Z</time>
      </trkpt>
      <trkpt lat="45.89579" lon="4.6882">
        <ele>251.4</ele>
        <time>2023-04-18T13:02:07Z</time>
      </trkpt>
      <trkpt lat="45.89574" lon="4.68822">
        <ele>251.4</ele>
        <time>2023-04-18T13:02:09Z</time>
      </trkpt>
      <trkpt lat="45.89569" lon="4.68824">
        <ele>249.1</ele>
        <time>2023-04-18T13:02:11Z</time>
      </trkpt>
      <trkpt lat="45.89564" lon="4.68827">
        <ele>249.7</ele>
        <time>2023-04-18T13:02:13Z</time>
      </trkpt>
      <trkpt lat="45.89527" lon="4.6884">
        <ele>249.6</ele>
        <time>2023-04-18T13:02:25Z</time>
      </trkpt>
      <trkpt lat="45.89453" lon="4.68744">
        <ele>251.9</ele>
        <time>2023-04-18T13:02:55Z</time>
      </trkpt>
      <trkpt lat="45.8935" lon="4.68719">
        <ele>255.2</ele>
        <time>2023-04-18T13:03:45Z</time>
      </trkpt>
      <trkpt lat="45.89286" lon="4.6882">
        <ele>240.1</ele>
        <time>2023-04-18T13:04:06Z</time>
      </trkpt>
      <trkpt lat="45.89282" lon="4.68827">
        <ele>240.2</ele>
        <time>2023-04-18T13:04:08Z</time>
      </trkpt>
      <trkpt lat="45.89277" lon="4.68834">
        <ele>240.4</ele>
        <time>2023-04-18T13:04:10Z</time>
      </trkpt>
      <trkpt lat="45.89257" lon="4.68839">
        <ele>245.3</ele>
        <time>2023-04-18T13:04:16Z</time>
      </trkpt>
      <trkpt lat="45.89251" lon="4.68838">
        <ele>250</ele>
        <time>2023-04-18T13:04:18Z</time>
      </trkpt>
      <trkpt lat="45.89245" lon="4.68836">
        <ele>248.9</ele>
        <time>2023-04-18T13:04:20Z</time>
      </trkpt>
      <trkpt lat="45.89142" lon="4.68777">
        <ele>249.9</ele>
        <time>2023-04-18T13:04:56Z</time>
      </trkpt>
      <trkpt lat="45.89137" lon="4.68771">
        <ele>250.3</ele>
        <time>2023-04-18T13:05:01Z</time>
      </trkpt>
      <trkpt lat="45.89129" lon="4.68764">
        <ele>249.9</ele>
        <time>2023-04-18T13:05:06Z</time>
      </trkpt>
      <trkpt lat="45.89126" lon="4.68758">
        <ele>250.5</ele>
        <time>2023-04-18T13:05:11Z</time>
      </trkpt>
      <trkpt lat="45.89126" lon="4.68733">
        <ele>248.9</ele>
        <time>2023-04-18T13:05:16Z</time>
      </trkpt>
      <trkpt lat="45.89099" lon="4.68727">
        <ele>253.8</ele>
        <time>2023-04-18T13:05:26Z</time>
      </trkpt>
      <trkpt lat="45.8904" lon="4.68758">
        <ele>256.5</ele>
        <time>2023-04-18T13:05:51Z</time>
      </trkpt>
      <trkpt lat="45.88923" lon="4.68692">
        <ele>255.9</ele>
        <time>2023-04-18T13:06:46Z</time>
      </trkpt>
      <trkpt lat="45.88619" lon="4.68768">
        <ele>277.6</ele>
        <time>2023-04-18T13:10:13Z</time>
      </trkpt>
      <trkpt lat="45.88577" lon="4.68781">
        <ele>256.1</ele>
        <time>2023-04-18T13:10:28Z</time>
      </trkpt>
      <trkpt lat="45.88531" lon="4.68791">
        <ele>260</ele>
        <time>2023-04-18T13:10:44Z</time>
      </trkpt>
      <trkpt lat="45.88527" lon="4.68793">
        <ele>262.4</ele>
        <time>2023-04-18T13:10:46Z</time>
      </trkpt>
      <trkpt lat="45.88522" lon="4.68795">
        <ele>263.2</ele>
        <time>2023-04-18T13:10:48Z</time>
      </trkpt>
      <trkpt lat="45.88516" lon="4.68798">
        <ele>264.4</ele>
        <time>2023-04-18T13:10:51Z</time>
      </trkpt>
      <trkpt lat="45.88511" lon="4.688">
        <ele>266.8</ele>
        <time>2023-04-18T13:10:54Z</time>
      </trkpt>
      <trkpt lat="45.88506" lon="4.68802">
        <ele>273.1</ele>
        <time>2023-04-18T13:10:57Z</time>
      </trkpt>
      <trkpt lat="45.885" lon="4.68802">
        <ele>282.5</ele>
        <time>2023-04-18T13:11:16Z</time>
      </trkpt>
      <trkpt lat="45.88495" lon="4.68804">
        <ele>283.8</ele>
        <time>2023-04-18T13:11:18Z</time>
      </trkpt>
      <trkpt lat="45.88489" lon="4.68806">
        <ele>284.2</ele>
        <time>2023-04-18T13:11:20Z</time>
      </trkpt>
      <trkpt lat="45.88483" lon="4.68807">
        <ele>284.5</ele>
        <time>2023-04-18T13:11:22Z</time>
      </trkpt>
      <trkpt lat="45.88477" lon="4.68808">
        <ele>284.4</ele>
        <time>2023-04-18T13:11:24Z</time>
      </trkpt>
      <trkpt lat="45.88471" lon="4.68811">
        <ele>283.2</ele>
        <time>2023-04-18T13:11:26Z</time>
      </trkpt>
      <trkpt lat="45.88465" lon="4.68812">
        <ele>281.4</ele>
        <time>2023-04-18T13:11:28Z</time>
      </trkpt>
      <trkpt lat="45.88461" lon="4.68806">
        <ele>280.5</ele>
        <time>2023-04-18T13:11:30Z</time>
      </trkpt>
      <trkpt lat="45.8846" lon="4.68796">
        <ele>281.7</ele>
        <time>2023-04-18T13:11:32Z</time>
      </trkpt>
      <trkpt lat="45.88459" lon="4.68787">
        <ele>281.8</ele>
        <time>2023-04-18T13:11:34Z</time>
      </trkpt>
      <trkpt lat="45.88457" lon="4.68779">
        <ele>281.9</ele>
        <time>2023-04-18T13:11:36Z</time>
      </trkpt>
      <trkpt lat="45.88455" lon="4.6877">
        <ele>282.1</ele>
        <time>2023-04-18T13:11:38Z</time>
      </trkpt>
      <trkpt lat="45.88451" lon="4.68763">
        <ele>282.1</ele>
        <time>2023-04-18T13:11:40Z</time>
      </trkpt>
      <trkpt lat="45.88445" lon="4.68762">
        <ele>282.3</ele>
        <time>2023-04-18T13:11:42Z</time>
      </trkpt>
      <trkpt lat="45.88439" lon="4.68764">
        <ele>281.3</ele>
        <time>2023-04-18T13:11:44Z</time>
      </trkpt>
      <trkpt lat="45.88433" lon="4.68767">
        <ele>281.9</ele>
        <time>2023-04-18T13:11:46Z</time>
      </trkpt>
      <trkpt lat="45.88427" lon="4.68771">
        <ele>282.1</ele>
        <time>2023-04-18T13:11:48Z</time>
      </trkpt>
      <trkpt lat="45.88421" lon="4.68775">
        <ele>282.3</ele>
        <time>2023-04-18T13:11:50Z</time>
      </trkpt>
      <trkpt lat="45.88415" lon="4.68779">
        <ele>282.3</ele>
        <time>2023-04-18T13:11:52Z</time>
      </trkpt>
      <trkpt lat="45.88409" lon="4.68786">
        <ele>282.3</ele>
        <time>2023-04-18T13:11:54Z</time>
      </trkpt>
      <trkpt lat="45.88403" lon="4.68792">
        <ele>280.6</ele>
        <time>2023-04-18T13:11:56Z</time>
      </trkpt>
      <trkpt lat="45.88397" lon="4.68793">
        <ele>277.8</ele>
        <time>2023-04-18T13:11:58Z</time>
      </trkpt>
      <trkpt lat="45.88395" lon="4.68786">
        <ele>277.9</ele>
        <time>2023-04-18T13:12:01Z</time>
      </trkpt>
      <trkpt lat="45.88398" lon="4.68779">
        <ele>279.4</ele>
        <time>2023-04-18T13:13:02Z</time>
      </trkpt>
      <trkpt lat="45.88398" lon="4.68772">
        <ele>280</ele>
        <time>2023-04-18T13:13:04Z</time>
      </trkpt>
      <trkpt lat="45.88397" lon="4.68766">
        <ele>283</ele>
        <time>2023-04-18T13:13:06Z</time>
      </trkpt>
      <trkpt lat="45.88397" lon="4.68758">
        <ele>283</ele>
        <time>2023-04-18T13:13:08Z</time>
      </trkpt>
      <trkpt lat="45.88397" lon="4.6875">
        <ele>282.4</ele>
        <time>2023-04-18T13:13:10Z</time>
      </trkpt>
      <trkpt lat="45.88395" lon="4.68743">
        <ele>278.2</ele>
        <time>2023-04-18T13:13:12Z</time>
      </trkpt>
      <trkpt lat="45.88391" lon="4.68736">
        <ele>278.5</ele>
        <time>2023-04-18T13:13:14Z</time>
      </trkpt>
      <trkpt lat="45.88386" lon="4.68731">
        <ele>267.5</ele>
        <time>2023-04-18T13:13:16Z</time>
      </trkpt>
      <trkpt lat="45.88381" lon="4.68727">
        <ele>268.8</ele>
        <time>2023-04-18T13:13:18Z</time>
      </trkpt>
      <trkpt lat="45.88376" lon="4.68722">
        <ele>268.9</ele>
        <time>2023-04-18T13:13:20Z</time>
      </trkpt>
      <trkpt lat="45.88371" lon="4.68717">
        <ele>268.7</ele>
        <time>2023-04-18T13:13:22Z</time>
      </trkpt>
      <trkpt lat="45.88366" lon="4.68712">
        <ele>269</ele>
        <time>2023-04-18T13:13:24Z</time>
      </trkpt>
      <trkpt lat="45.88361" lon="4.68707">
        <ele>269.2</ele>
        <time>2023-04-18T13:13:26Z</time>
      </trkpt>
      <trkpt lat="45.88357" lon="4.68702">
        <ele>269.4</ele>
        <time>2023-04-18T13:13:28Z</time>
      </trkpt>
      <trkpt lat="45.88351" lon="4.68696">
        <ele>269.6</ele>
        <time>2023-04-18T13:13:30Z</time>
      </trkpt>
      <trkpt lat="45.88347" lon="4.68691">
        <ele>269.8</ele>
        <time>2023-04-18T13:13:32Z</time>
      </trkpt>
      <trkpt lat="45.88342" lon="4.68685">
        <ele>269.9</ele>
        <time>2023-04-18T13:13:34Z</time>
      </trkpt>
      <trkpt lat="45.88337" lon="4.68679">
        <ele>267.7</ele>
        <time>2023-04-18T13:13:36Z</time>
      </trkpt>
      <trkpt lat="45.88332" lon="4.68674">
        <ele>267.3</ele>
        <time>2023-04-18T13:13:38Z</time>
      </trkpt>
      <trkpt lat="45.88327" lon="4.68668">
        <ele>267.6</ele>
        <time>2023-04-18T13:13:40Z</time>
      </trkpt>
      <trkpt lat="45.88323" lon="4.68663">
        <ele>267.9</ele>
        <time>2023-04-18T13:13:42Z</time>
      </trkpt>
      <trkpt lat="45.88317" lon="4.68658">
        <ele>269.9</ele>
        <time>2023-04-18T13:13:44Z</time>
      </trkpt>
      <trkpt lat="45.88312" lon="4.68653">
        <ele>272.2</ele>
        <time>2023-04-18T13:13:46Z</time>
      </trkpt>
      <trkpt lat="45.88307" lon="4.6865">
        <ele>269.7</ele>
        <time>2023-04-18T13:13:48Z</time>
      </trkpt>
      <trkpt lat="45.88303" lon="4.68646">
        <ele>273.1</ele>
        <time>2023-04-18T13:13:50Z</time>
      </trkpt>
      <trkpt lat="45.88298" lon="4.68642">
        <ele>273.7</ele>
        <time>2023-04-18T13:13:52Z</time>
      </trkpt>
      <trkpt lat="45.88293" lon="4.68638">
        <ele>274.5</ele>
        <time>2023-04-18T13:13:54Z</time>
      </trkpt>
      <trkpt lat="45.88287" lon="4.68634">
        <ele>275.1</ele>
        <time>2023-04-18T13:13:56Z</time>
      </trkpt>
      <trkpt lat="45.88282" lon="4.6863">
        <ele>275.7</ele>
        <time>2023-04-18T13:13:58Z</time>
      </trkpt>
      <trkpt lat="45.88277" lon="4.68625">
        <ele>276.2</ele>
        <time>2023-04-18T13:14:00Z</time>
      </trkpt>
      <trkpt lat="45.88272" lon="4.68621">
        <ele>276.8</ele>
        <time>2023-04-18T13:14:02Z</time>
      </trkpt>
      <trkpt lat="45.88254" lon="4.68614">
        <ele>277.8</ele>
        <time>2023-04-18T13:14:09Z</time>
      </trkpt>
      <trkpt lat="45.88248" lon="4.68612">
        <ele>278.2</ele>
        <time>2023-04-18T13:14:11Z</time>
      </trkpt>
      <trkpt lat="45.88242" lon="4.6861">
        <ele>279</ele>
        <time>2023-04-18T13:14:13Z</time>
      </trkpt>
      <trkpt lat="45.88236" lon="4.68608">
        <ele>280.1</ele>
        <time>2023-04-18T13:14:15Z</time>
      </trkpt>
      <trkpt lat="45.8823" lon="4.68605">
        <ele>280.3</ele>
        <time>2023-04-18T13:14:17Z</time>
      </trkpt>
      <trkpt lat="45.88225" lon="4.68602">
        <ele>280.9</ele>
        <time>2023-04-18T13:14:19Z</time>
      </trkpt>
      <trkpt lat="45.88219" lon="4.68599">
        <ele>281.1</ele>
        <time>2023-04-18T13:14:21Z</time>
      </trkpt>
      <trkpt lat="45.88214" lon="4.68596">
        <ele>279.2</ele>
        <time>2023-04-18T13:14:23Z</time>
      </trkpt>
      <trkpt lat="45.88208" lon="4.68594">
        <ele>275.1</ele>
        <time>2023-04-18T13:14:25Z</time>
      </trkpt>
      <trkpt lat="45.88201" lon="4.68592">
        <ele>270.7</ele>
        <time>2023-04-18T13:14:27Z</time>
      </trkpt>
      <trkpt lat="45.88195" lon="4.68591">
        <ele>271.2</ele>
        <time>2023-04-18T13:14:29Z</time>
      </trkpt>
      <trkpt lat="45.88189" lon="4.68589">
        <ele>273.3</ele>
        <time>2023-04-18T13:14:31Z</time>
      </trkpt>
      <trkpt lat="45.88183" lon="4.68587">
        <ele>284.5</ele>
        <time>2023-04-18T13:14:33Z</time>
      </trkpt>
      <trkpt lat="45.88177" lon="4.68584">
        <ele>284.4</ele>
        <time>2023-04-18T13:14:35Z</time>
      </trkpt>
      <trkpt lat="45.88171" lon="4.68581">
        <ele>284.1</ele>
        <time>2023-04-18T13:14:37Z</time>
      </trkpt>
      <trkpt lat="45.88164" lon="4.68579">
        <ele>283.9</ele>
        <time>2023-04-18T13:14:39Z</time>
      </trkpt>
      <trkpt lat="45.88159" lon="4.68578">
        <ele>283.9</ele>
        <time>2023-04-18T13:14:41Z</time>
      </trkpt>
      <trkpt lat="45.88153" lon="4.68577">
        <ele>283.5</ele>
        <time>2023-04-18T13:14:43Z</time>
      </trkpt>
      <trkpt lat="45.88148" lon="4.68576">
        <ele>283.3</ele>
        <time>2023-04-18T13:14:45Z</time>
      </trkpt>
      <trkpt lat="45.88141" lon="4.68575">
        <ele>283.3</ele>
        <time>2023-04-18T13:14:47Z</time>
      </trkpt>
      <trkpt lat="45.88135" lon="4.68573">
        <ele>283.3</ele>
        <time>2023-04-18T13:14:49Z</time>
      </trkpt>
      <trkpt lat="45.88129" lon="4.68572">
        <ele>283.7</ele>
        <time>2023-04-18T13:14:51Z</time>
      </trkpt>
      <trkpt lat="45.88123" lon="4.68569">
        <ele>284.8</ele>
        <time>2023-04-18T13:14:53Z</time>
      </trkpt>
      <trkpt lat="45.88116" lon="4.68566">
        <ele>285</ele>
        <time>2023-04-18T13:14:55Z</time>
      </trkpt>
      <trkpt lat="45.8811" lon="4.68563">
        <ele>285.3</ele>
        <time>2023-04-18T13:14:57Z</time>
      </trkpt>
      <trkpt lat="45.88104" lon="4.68561">
        <ele>285.2</ele>
        <time>2023-04-18T13:14:59Z</time>
      </trkpt>
      <trkpt lat="45.88098" lon="4.68558">
        <ele>285.5</ele>
        <time>2023-04-18T13:15:01Z</time>
      </trkpt>
      <trkpt lat="45.88092" lon="4.68555">
        <ele>286.7</ele>
        <time>2023-04-18T13:15:03Z</time>
      </trkpt>
      <trkpt lat="45.88086" lon="4.68554">
        <ele>288.1</ele>
        <time>2023-04-18T13:15:05Z</time>
      </trkpt>
      <trkpt lat="45.8808" lon="4.68552">
        <ele>289.1</ele>
        <time>2023-04-18T13:15:07Z</time>
      </trkpt>
      <trkpt lat="45.88075" lon="4.68551">
        <ele>289.2</ele>
        <time>2023-04-18T13:15:09Z</time>
      </trkpt>
      <trkpt lat="45.88069" lon="4.68549">
        <ele>289.9</ele>
        <time>2023-04-18T13:15:11Z</time>
      </trkpt>
      <trkpt lat="45.88063" lon="4.68548">
        <ele>290.1</ele>
        <time>2023-04-18T13:15:13Z</time>
      </trkpt>
      <trkpt lat="45.88058" lon="4.68547">
        <ele>290.6</ele>
        <time>2023-04-18T13:15:15Z</time>
      </trkpt>
      <trkpt lat="45.88053" lon="4.68546">
        <ele>290.8</ele>
        <time>2023-04-18T13:15:17Z</time>
      </trkpt>
      <trkpt lat="45.88048" lon="4.68545">
        <ele>293.1</ele>
        <time>2023-04-18T13:15:19Z</time>
      </trkpt>
      <trkpt lat="45.88043" lon="4.68543">
        <ele>298.9</ele>
        <time>2023-04-18T13:15:21Z</time>
      </trkpt>
      <trkpt lat="45.88038" lon="4.6854">
        <ele>302.1</ele>
        <time>2023-04-18T13:15:23Z</time>
      </trkpt>
      <trkpt lat="45.88018" lon="4.68537">
        <ele>307.1</ele>
        <time>2023-04-18T13:15:30Z</time>
      </trkpt>
      <trkpt lat="45.88012" lon="4.68537">
        <ele>309.8</ele>
        <time>2023-04-18T13:15:32Z</time>
      </trkpt>
      <trkpt lat="45.88007" lon="4.68536">
        <ele>310</ele>
        <time>2023-04-18T13:15:34Z</time>
      </trkpt>
      <trkpt lat="45.88001" lon="4.68535">
        <ele>311.2</ele>
        <time>2023-04-18T13:15:36Z</time>
      </trkpt>
      <trkpt lat="45.87996" lon="4.68533">
        <ele>311.1</ele>
        <time>2023-04-18T13:15:38Z</time>
      </trkpt>
      <trkpt lat="45.87991" lon="4.68533">
        <ele>310.9</ele>
        <time>2023-04-18T13:15:40Z</time>
      </trkpt>
      <trkpt lat="45.87986" lon="4.68533">
        <ele>310.8</ele>
        <time>2023-04-18T13:15:42Z</time>
      </trkpt>
      <trkpt lat="45.87982" lon="4.68532">
        <ele>311</ele>
        <time>2023-04-18T13:15:44Z</time>
      </trkpt>
      <trkpt lat="45.87977" lon="4.68532">
        <ele>311</ele>
        <time>2023-04-18T13:15:46Z</time>
      </trkpt>
      <trkpt lat="45.87972" lon="4.68532">
        <ele>311.3</ele>
        <time>2023-04-18T13:15:48Z</time>
      </trkpt>
      <trkpt lat="45.87967" lon="4.68531">
        <ele>311.4</ele>
        <time>2023-04-18T13:15:50Z</time>
      </trkpt>
      <trkpt lat="45.87961" lon="4.68532">
        <ele>311.5</ele>
        <time>2023-04-18T13:15:52Z</time>
      </trkpt>
      <trkpt lat="45.87955" lon="4.68532">
        <ele>311.6</ele>
        <time>2023-04-18T13:15:54Z</time>
      </trkpt>
      <trkpt lat="45.8795" lon="4.68534">
        <ele>311.5</ele>
        <time>2023-04-18T13:15:56Z</time>
      </trkpt>
      <trkpt lat="45.87945" lon="4.68535">
        <ele>311.5</ele>
        <time>2023-04-18T13:15:58Z</time>
      </trkpt>
      <trkpt lat="45.87925" lon="4.68539">
        <ele>311.5</ele>
        <time>2023-04-18T13:16:05Z</time>
      </trkpt>
      <trkpt lat="45.87919" lon="4.68539">
        <ele>312</ele>
        <time>2023-04-18T13:16:07Z</time>
      </trkpt>
      <trkpt lat="45.87913" lon="4.68539">
        <ele>312.2</ele>
        <time>2023-04-18T13:16:09Z</time>
      </trkpt>
      <trkpt lat="45.87907" lon="4.68538">
        <ele>312.4</ele>
        <time>2023-04-18T13:16:11Z</time>
      </trkpt>
      <trkpt lat="45.87902" lon="4.68537">
        <ele>311.1</ele>
        <time>2023-04-18T13:16:13Z</time>
      </trkpt>
      <trkpt lat="45.87884" lon="4.6853">
        <ele>310.7</ele>
        <time>2023-04-18T13:16:20Z</time>
      </trkpt>
      <trkpt lat="45.87878" lon="4.68528">
        <ele>313.2</ele>
        <time>2023-04-18T13:16:22Z</time>
      </trkpt>
      <trkpt lat="45.87873" lon="4.68525">
        <ele>313.7</ele>
        <time>2023-04-18T13:16:24Z</time>
      </trkpt>
      <trkpt lat="45.87868" lon="4.68522">
        <ele>314.5</ele>
        <time>2023-04-18T13:16:26Z</time>
      </trkpt>
      <trkpt lat="45.87863" lon="4.68519">
        <ele>314.6</ele>
        <time>2023-04-18T13:16:28Z</time>
      </trkpt>
      <trkpt lat="45.87858" lon="4.68517">
        <ele>313</ele>
        <time>2023-04-18T13:16:30Z</time>
      </trkpt>
      <trkpt lat="45.87852" lon="4.68515">
        <ele>315.1</ele>
        <time>2023-04-18T13:16:32Z</time>
      </trkpt>
      <trkpt lat="45.87847" lon="4.68512">
        <ele>315.2</ele>
        <time>2023-04-18T13:16:34Z</time>
      </trkpt>
      <trkpt lat="45.87841" lon="4.6851">
        <ele>315.1</ele>
        <time>2023-04-18T13:16:36Z</time>
      </trkpt>
      <trkpt lat="45.87835" lon="4.68507">
        <ele>311.5</ele>
        <time>2023-04-18T13:16:38Z</time>
      </trkpt>
      <trkpt lat="45.87829" lon="4.68504">
        <ele>311.5</ele>
        <time>2023-04-18T13:16:40Z</time>
      </trkpt>
      <trkpt lat="45.87822" lon="4.68503">
        <ele>311</ele>
        <time>2023-04-18T13:16:42Z</time>
      </trkpt>
      <trkpt lat="45.87816" lon="4.685">
        <ele>312</ele>
        <time>2023-04-18T13:16:44Z</time>
      </trkpt>
      <trkpt lat="45.87799" lon="4.68494">
        <ele>312.3</ele>
        <time>2023-04-18T13:16:50Z</time>
      </trkpt>
      <trkpt lat="45.87794" lon="4.68491">
        <ele>316.3</ele>
        <time>2023-04-18T13:16:52Z</time>
      </trkpt>
      <trkpt lat="45.87789" lon="4.68488">
        <ele>316.1</ele>
        <time>2023-04-18T13:16:54Z</time>
      </trkpt>
      <trkpt lat="45.87774" lon="4.68477">
        <ele>316.2</ele>
        <time>2023-04-18T13:17:00Z</time>
      </trkpt>
      <trkpt lat="45.87769" lon="4.68474">
        <ele>316.9</ele>
        <time>2023-04-18T13:17:02Z</time>
      </trkpt>
      <trkpt lat="45.87765" lon="4.68471">
        <ele>317.3</ele>
        <time>2023-04-18T13:17:04Z</time>
      </trkpt>
      <trkpt lat="45.8776" lon="4.68468">
        <ele>318.2</ele>
        <time>2023-04-18T13:17:06Z</time>
      </trkpt>
      <trkpt lat="45.87754" lon="4.68464">
        <ele>318.9</ele>
        <time>2023-04-18T13:17:08Z</time>
      </trkpt>
      <trkpt lat="45.87694" lon="4.68431">
        <ele>316.2</ele>
        <time>2023-04-18T13:17:30Z</time>
      </trkpt>
      <trkpt lat="45.87589" lon="4.68384">
        <ele>342</ele>
        <time>2023-04-18T13:18:11Z</time>
      </trkpt>
      <trkpt lat="45.87548" lon="4.68403">
        <ele>353.4</ele>
        <time>2023-04-18T13:18:26Z</time>
      </trkpt>
      <trkpt lat="45.8751" lon="4.68415">
        <ele>352.9</ele>
        <time>2023-04-18T13:18:36Z</time>
      </trkpt>
      <trkpt lat="45.87499" lon="4.68423">
        <ele>353.4</ele>
        <time>2023-04-18T13:18:41Z</time>
      </trkpt>
      <trkpt lat="45.87348" lon="4.68536">
        <ele>347.5</ele>
        <time>2023-04-18T13:19:31Z</time>
      </trkpt>
      <trkpt lat="45.86987" lon="4.68712">
        <ele>316.8</ele>
        <time>2023-04-18T13:22:45Z</time>
      </trkpt>
      <trkpt lat="45.86981" lon="4.68715">
        <ele>313.4</ele>
        <time>2023-04-18T13:22:47Z</time>
      </trkpt>
      <trkpt lat="45.86958" lon="4.68733">
        <ele>313.4</ele>
        <time>2023-04-18T13:22:54Z</time>
      </trkpt>
      <trkpt lat="45.86951" lon="4.68739">
        <ele>313.1</ele>
        <time>2023-04-18T13:22:56Z</time>
      </trkpt>
      <trkpt lat="45.86943" lon="4.68748">
        <ele>311.9</ele>
        <time>2023-04-18T13:22:58Z</time>
      </trkpt>
      <trkpt lat="45.86881" lon="4.68821">
        <ele>310.1</ele>
        <time>2023-04-18T13:23:14Z</time>
      </trkpt>
      <trkpt lat="45.86877" lon="4.68826">
        <ele>310</ele>
        <time>2023-04-18T13:23:15Z</time>
      </trkpt>
      <trkpt lat="45.86874" lon="4.68832">
        <ele>309.1</ele>
        <time>2023-04-18T13:23:16Z</time>
      </trkpt>
      <trkpt lat="45.8687" lon="4.68837">
        <ele>307.5</ele>
        <time>2023-04-18T13:23:17Z</time>
      </trkpt>
      <trkpt lat="45.86795" lon="4.68923">
        <ele>296.2</ele>
        <time>2023-04-18T13:23:34Z</time>
      </trkpt>
      <trkpt lat="45.8679" lon="4.68928">
        <ele>291.3</ele>
        <time>2023-04-18T13:23:35Z</time>
      </trkpt>
      <trkpt lat="45.86785" lon="4.68933">
        <ele>291.1</ele>
        <time>2023-04-18T13:23:36Z</time>
      </trkpt>
      <trkpt lat="45.86781" lon="4.68938">
        <ele>286.5</ele>
        <time>2023-04-18T13:23:37Z</time>
      </trkpt>
      <trkpt lat="45.86776" lon="4.68943">
        <ele>284.1</ele>
        <time>2023-04-18T13:23:38Z</time>
      </trkpt>
      <trkpt lat="45.8677" lon="4.68947">
        <ele>281.5</ele>
        <time>2023-04-18T13:23:39Z</time>
      </trkpt>
      <trkpt lat="45.86765" lon="4.6895">
        <ele>276.6</ele>
        <time>2023-04-18T13:23:40Z</time>
      </trkpt>
      <trkpt lat="45.8676" lon="4.68954">
        <ele>276.1</ele>
        <time>2023-04-18T13:23:41Z</time>
      </trkpt>
      <trkpt lat="45.86756" lon="4.6896">
        <ele>274.1</ele>
        <time>2023-04-18T13:23:42Z</time>
      </trkpt>
      <trkpt lat="45.86753" lon="4.68968">
        <ele>272.9</ele>
        <time>2023-04-18T13:23:43Z</time>
      </trkpt>
      <trkpt lat="45.8675" lon="4.68975">
        <ele>272.6</ele>
        <time>2023-04-18T13:23:44Z</time>
      </trkpt>
      <trkpt lat="45.86746" lon="4.68982">
        <ele>271.9</ele>
        <time>2023-04-18T13:23:45Z</time>
      </trkpt>
      <trkpt lat="45.86743" lon="4.6899">
        <ele>271.4</ele>
        <time>2023-04-18T13:23:46Z</time>
      </trkpt>
      <trkpt lat="45.86738" lon="4.68997">
        <ele>269.9</ele>
        <time>2023-04-18T13:23:47Z</time>
      </trkpt>
      <trkpt lat="45.86734" lon="4.69004">
        <ele>269.9</ele>
        <time>2023-04-18T13:23:48Z</time>
      </trkpt>
      <trkpt lat="45.8671" lon="4.69039">
        <ele>268.4</ele>
        <time>2023-04-18T13:23:54Z</time>
      </trkpt>
      <trkpt lat="45.86704" lon="4.69042">
        <ele>267.6</ele>
        <time>2023-04-18T13:23:55Z</time>
      </trkpt>
      <trkpt lat="45.86697" lon="4.69046">
        <ele>267</ele>
        <time>2023-04-18T13:23:56Z</time>
      </trkpt>
      <trkpt lat="45.86691" lon="4.69048">
        <ele>267</ele>
        <time>2023-04-18T13:23:57Z</time>
      </trkpt>
      <trkpt lat="45.86686" lon="4.6905">
        <ele>266.7</ele>
        <time>2023-04-18T13:23:58Z</time>
      </trkpt>
      <trkpt lat="45.8667" lon="4.69051">
        <ele>265.6</ele>
        <time>2023-04-18T13:24:04Z</time>
      </trkpt>
      <trkpt lat="45.86669" lon="4.69045">
        <ele>263.6</ele>
        <time>2023-04-18T13:24:07Z</time>
      </trkpt>
      <trkpt lat="45.86515" lon="4.69058">
        <ele>259.4</ele>
        <time>2023-04-18T13:24:59Z</time>
      </trkpt>
      <trkpt lat="45.8651" lon="4.69062">
        <ele>258.9</ele>
        <time>2023-04-18T13:25:00Z</time>
      </trkpt>
      <trkpt lat="45.86504" lon="4.69064">
        <ele>257</ele>
        <time>2023-04-18T13:25:01Z</time>
      </trkpt>
      <trkpt lat="45.86499" lon="4.69067">
        <ele>256</ele>
        <time>2023-04-18T13:25:02Z</time>
      </trkpt>
      <trkpt lat="45.86494" lon="4.69069">
        <ele>256.7</ele>
        <time>2023-04-18T13:25:03Z</time>
      </trkpt>
      <trkpt lat="45.8637" lon="4.69138">
        <ele>251.9</ele>
        <time>2023-04-18T13:25:34Z</time>
      </trkpt>
      <trkpt lat="45.86361" lon="4.69116">
        <ele>251.8</ele>
        <time>2023-04-18T13:25:59Z</time>
      </trkpt>
      <trkpt lat="45.86359" lon="4.69106">
        <ele>249.8</ele>
        <time>2023-04-18T13:26:01Z</time>
      </trkpt>
      <trkpt lat="45.86356" lon="4.69096">
        <ele>249.5</ele>
        <time>2023-04-18T13:26:03Z</time>
      </trkpt>
      <trkpt lat="45.8635" lon="4.69087">
        <ele>252.9</ele>
        <time>2023-04-18T13:26:05Z</time>
      </trkpt>
      <trkpt lat="45.86345" lon="4.69078">
        <ele>253.3</ele>
        <time>2023-04-18T13:26:07Z</time>
      </trkpt>
      <trkpt lat="45.8634" lon="4.69075">
        <ele>248.6</ele>
        <time>2023-04-18T13:26:08Z</time>
      </trkpt>
      <trkpt lat="45.86334" lon="4.69073">
        <ele>249.3</ele>
        <time>2023-04-18T13:26:10Z</time>
      </trkpt>
      <trkpt lat="45.86332" lon="4.69065">
        <ele>248.5</ele>
        <time>2023-04-18T13:26:12Z</time>
      </trkpt>
      <trkpt lat="45.8633" lon="4.69057">
        <ele>247.9</ele>
        <time>2023-04-18T13:26:14Z</time>
      </trkpt>
      <trkpt lat="45.86327" lon="4.6905">
        <ele>246.7</ele>
        <time>2023-04-18T13:26:16Z</time>
      </trkpt>
      <trkpt lat="45.86324" lon="4.69043">
        <ele>246.4</ele>
        <time>2023-04-18T13:26:18Z</time>
      </trkpt>
      <trkpt lat="45.86321" lon="4.69035">
        <ele>248.2</ele>
        <time>2023-04-18T13:26:20Z</time>
      </trkpt>
      <trkpt lat="45.86317" lon="4.69025">
        <ele>251.7</ele>
        <time>2023-04-18T13:26:22Z</time>
      </trkpt>
      <trkpt lat="45.86313" lon="4.69015">
        <ele>253</ele>
        <time>2023-04-18T13:26:24Z</time>
      </trkpt>
      <trkpt lat="45.86309" lon="4.69005">
        <ele>255.4</ele>
        <time>2023-04-18T13:26:26Z</time>
      </trkpt>
      <trkpt lat="45.86305" lon="4.68994">
        <ele>256.8</ele>
        <time>2023-04-18T13:26:28Z</time>
      </trkpt>
      <trkpt lat="45.86301" lon="4.68984">
        <ele>259</ele>
        <time>2023-04-18T13:26:30Z</time>
      </trkpt>
      <trkpt lat="45.86297" lon="4.68974">
        <ele>260.5</ele>
        <time>2023-04-18T13:26:32Z</time>
      </trkpt>
      <trkpt lat="45.86292" lon="4.68965">
        <ele>258.4</ele>
        <time>2023-04-18T13:26:34Z</time>
      </trkpt>
      <trkpt lat="45.86287" lon="4.68957">
        <ele>264.2</ele>
        <time>2023-04-18T13:26:36Z</time>
      </trkpt>
      <trkpt lat="45.86282" lon="4.68948">
        <ele>262.6</ele>
        <time>2023-04-18T13:26:38Z</time>
      </trkpt>
      <trkpt lat="45.86276" lon="4.6894">
        <ele>262.9</ele>
        <time>2023-04-18T13:26:40Z</time>
      </trkpt>
      <trkpt lat="45.86271" lon="4.68932">
        <ele>263.6</ele>
        <time>2023-04-18T13:26:42Z</time>
      </trkpt>
      <trkpt lat="45.86266" lon="4.68923">
        <ele>262</ele>
        <time>2023-04-18T13:26:44Z</time>
      </trkpt>
      <trkpt lat="45.86262" lon="4.68914">
        <ele>262.7</ele>
        <time>2023-04-18T13:26:46Z</time>
      </trkpt>
      <trkpt lat="45.86257" lon="4.68904">
        <ele>262.8</ele>
        <time>2023-04-18T13:26:48Z</time>
      </trkpt>
      <trkpt lat="45.86253" lon="4.68894">
        <ele>252.4</ele>
        <time>2023-04-18T13:26:50Z</time>
      </trkpt>
      <trkpt lat="45.86248" lon="4.68885">
        <ele>252.5</ele>
        <time>2023-04-18T13:26:52Z</time>
      </trkpt>
      <trkpt lat="45.86244" lon="4.68875">
        <ele>253.2</ele>
        <time>2023-04-18T13:26:54Z</time>
      </trkpt>
      <trkpt lat="45.86232" lon="4.68844">
        <ele>253</ele>
        <time>2023-04-18T13:27:00Z</time>
      </trkpt>
      <trkpt lat="45.86229" lon="4.68833">
        <ele>252.7</ele>
        <time>2023-04-18T13:27:02Z</time>
      </trkpt>
      <trkpt lat="45.86225" lon="4.68823">
        <ele>252.6</ele>
        <time>2023-04-18T13:27:04Z</time>
      </trkpt>
      <trkpt lat="45.86166" lon="4.68687">
        <ele>252.6</ele>
        <time>2023-04-18T13:27:30Z</time>
      </trkpt>
      <trkpt lat="45.86153" lon="4.6867">
        <ele>252.9</ele>
        <time>2023-04-18T13:27:35Z</time>
      </trkpt>
      <trkpt lat="45.86133" lon="4.68643">
        <ele>255</ele>
        <time>2023-04-18T13:27:40Z</time>
      </trkpt>
      <trkpt lat="45.861" lon="4.68587">
        <ele>258.5</ele>
        <time>2023-04-18T13:27:55Z</time>
      </trkpt>
      <trkpt lat="45.86095" lon="4.68584">
        <ele>260.4</ele>
        <time>2023-04-18T13:28:00Z</time>
      </trkpt>
      <trkpt lat="45.86092" lon="4.68579">
        <ele>260.5</ele>
        <time>2023-04-18T13:28:05Z</time>
      </trkpt>
      <trkpt lat="45.86016" lon="4.68606">
        <ele>260.6</ele>
        <time>2023-04-18T13:28:20Z</time>
      </trkpt>
      <trkpt lat="45.86012" lon="4.68612">
        <ele>258</ele>
        <time>2023-04-18T13:28:25Z</time>
      </trkpt>
      <trkpt lat="45.85789" lon="4.69063">
        <ele>243.8</ele>
        <time>2023-04-18T13:30:56Z</time>
      </trkpt>
      <trkpt lat="45.85788" lon="4.69075">
        <ele>243.3</ele>
        <time>2023-04-18T13:30:58Z</time>
      </trkpt>
      <trkpt lat="45.85787" lon="4.69085">
        <ele>244.9</ele>
        <time>2023-04-18T13:31:00Z</time>
      </trkpt>
      <trkpt lat="45.85759" lon="4.69403">
        <ele>194.7</ele>
        <time>2023-04-18T13:32:06Z</time>
      </trkpt>
      <trkpt lat="45.8576" lon="4.69414">
        <ele>192.6</ele>
        <time>2023-04-18T13:32:08Z</time>
      </trkpt>
      <trkpt lat="45.85762" lon="4.69426">
        <ele>192.9</ele>
        <time>2023-04-18T13:32:10Z</time>
      </trkpt>
      <trkpt lat="45.85819" lon="4.69726">
        <ele>193</ele>
        <time>2023-04-18T13:33:06Z</time>
      </trkpt>
      <trkpt lat="45.85822" lon="4.6972">
        <ele>193.2</ele>
        <time>2023-04-18T13:33:10Z</time>
      </trkpt>
      <trkpt lat="45.85833" lon="4.69721">
        <ele>193</ele>
        <time>2023-04-18T13:33:21Z</time>
      </trkpt>
      <trkpt lat="45.85834" lon="4.69729">
        <ele>192.9</ele>
        <time>2023-04-18T13:33:23Z</time>
      </trkpt>
      <trkpt lat="45.85838" lon="4.69736">
        <ele>193</ele>
        <time>2023-04-18T13:33:25Z</time>
      </trkpt>
      <trkpt lat="45.85844" lon="4.69739">
        <ele>193</ele>
        <time>2023-04-18T13:33:27Z</time>
      </trkpt>
      <trkpt lat="45.85848" lon="4.69743">
        <ele>193</ele>
        <time>2023-04-18T13:33:29Z</time>
      </trkpt>
      <trkpt lat="45.85851" lon="4.6975">
        <ele>193.1</ele>
        <time>2023-04-18T13:33:31Z</time>
      </trkpt>
      <trkpt lat="45.85855" lon="4.69759">
        <ele>193.1</ele>
        <time>2023-04-18T13:33:33Z</time>
      </trkpt>
      <trkpt lat="45.85859" lon="4.69766">
        <ele>193.2</ele>
        <time>2023-04-18T13:33:35Z</time>
      </trkpt>
      <trkpt lat="45.85864" lon="4.69775">
        <ele>193.3</ele>
        <time>2023-04-18T13:33:37Z</time>
      </trkpt>
      <trkpt lat="45.85866" lon="4.6978">
        <ele>193.3</ele>
        <time>2023-04-18T13:33:38Z</time>
      </trkpt>
      <trkpt lat="45.85869" lon="4.69786">
        <ele>193.3</ele>
        <time>2023-04-18T13:33:39Z</time>
      </trkpt>
      <trkpt lat="45.8587" lon="4.69795">
        <ele>193.3</ele>
        <time>2023-04-18T13:33:40Z</time>
      </trkpt>
      <trkpt lat="45.85921" lon="4.69862">
        <ele>200.2</ele>
        <time>2023-04-18T13:33:56Z</time>
      </trkpt>
      <trkpt lat="45.85942" lon="4.69889">
        <ele>206.3</ele>
        <time>2023-04-18T13:34:02Z</time>
      </trkpt>
      <trkpt lat="45.85946" lon="4.69893">
        <ele>221.7</ele>
        <time>2023-04-18T13:34:03Z</time>
      </trkpt>
      <trkpt lat="45.85951" lon="4.69903">
        <ele>256.3</ele>
        <time>2023-04-18T13:34:05Z</time>
      </trkpt>
      <trkpt lat="45.85959" lon="4.69911">
        <ele>254.4</ele>
        <time>2023-04-18T13:34:07Z</time>
      </trkpt>
      <trkpt lat="45.85966" lon="4.69919">
        <ele>250.4</ele>
        <time>2023-04-18T13:34:09Z</time>
      </trkpt>
      <trkpt lat="45.85973" lon="4.69925">
        <ele>249.1</ele>
        <time>2023-04-18T13:34:11Z</time>
      </trkpt>
      <trkpt lat="45.86016" lon="4.69943">
        <ele>244.8</ele>
        <time>2023-04-18T13:34:22Z</time>
      </trkpt>
      <trkpt lat="45.86024" lon="4.69944">
        <ele>236.3</ele>
        <time>2023-04-18T13:34:24Z</time>
      </trkpt>
      <trkpt lat="45.86032" lon="4.69945">
        <ele>235.8</ele>
        <time>2023-04-18T13:34:26Z</time>
      </trkpt>
      <trkpt lat="45.86057" lon="4.69947">
        <ele>234.2</ele>
        <time>2023-04-18T13:34:32Z</time>
      </trkpt>
      <trkpt lat="45.86064" lon="4.69948">
        <ele>235.3</ele>
        <time>2023-04-18T13:34:34Z</time>
      </trkpt>
      <trkpt lat="45.86073" lon="4.69948">
        <ele>238.1</ele>
        <time>2023-04-18T13:34:36Z</time>
      </trkpt>
      <trkpt lat="45.86097" lon="4.6994">
        <ele>240.4</ele>
        <time>2023-04-18T13:34:42Z</time>
      </trkpt>
      <trkpt lat="45.86105" lon="4.69937">
        <ele>247.9</ele>
        <time>2023-04-18T13:34:44Z</time>
      </trkpt>
      <trkpt lat="45.86112" lon="4.69935">
        <ele>250.3</ele>
        <time>2023-04-18T13:34:46Z</time>
      </trkpt>
      <trkpt lat="45.8612" lon="4.69931">
        <ele>256.6</ele>
        <time>2023-04-18T13:34:48Z</time>
      </trkpt>
      <trkpt lat="45.86127" lon="4.69928">
        <ele>261.5</ele>
        <time>2023-04-18T13:34:50Z</time>
      </trkpt>
      <trkpt lat="45.86135" lon="4.69925">
        <ele>269.5</ele>
        <time>2023-04-18T13:34:52Z</time>
      </trkpt>
      <trkpt lat="45.8614" lon="4.69922">
        <ele>270.2</ele>
        <time>2023-04-18T13:34:53Z</time>
      </trkpt>
      <trkpt lat="45.86145" lon="4.69921">
        <ele>271.3</ele>
        <time>2023-04-18T13:34:54Z</time>
      </trkpt>
      <trkpt lat="45.86153" lon="4.69914">
        <ele>272.5</ele>
        <time>2023-04-18T13:34:56Z</time>
      </trkpt>
      <trkpt lat="45.86157" lon="4.69912">
        <ele>270.7</ele>
        <time>2023-04-18T13:34:57Z</time>
      </trkpt>
      <trkpt lat="45.86161" lon="4.69909">
        <ele>270.9</ele>
        <time>2023-04-18T13:34:58Z</time>
      </trkpt>
      <trkpt lat="45.86169" lon="4.69903">
        <ele>258.6</ele>
        <time>2023-04-18T13:35:00Z</time>
      </trkpt>
      <trkpt lat="45.86173" lon="4.699">
        <ele>251.7</ele>
        <time>2023-04-18T13:35:01Z</time>
      </trkpt>
      <trkpt lat="45.86178" lon="4.69896">
        <ele>243.2</ele>
        <time>2023-04-18T13:35:02Z</time>
      </trkpt>
      <trkpt lat="45.86182" lon="4.69893">
        <ele>242.1</ele>
        <time>2023-04-18T13:35:03Z</time>
      </trkpt>
      <trkpt lat="45.86186" lon="4.69889">
        <ele>241.5</ele>
        <time>2023-04-18T13:35:04Z</time>
      </trkpt>
      <trkpt lat="45.8619" lon="4.69885">
        <ele>240.4</ele>
        <time>2023-04-18T13:35:05Z</time>
      </trkpt>
      <trkpt lat="45.86198" lon="4.69879">
        <ele>242.7</ele>
        <time>2023-04-18T13:35:07Z</time>
      </trkpt>
      <trkpt lat="45.86203" lon="4.69876">
        <ele>238.7</ele>
        <time>2023-04-18T13:35:08Z</time>
      </trkpt>
      <trkpt lat="45.86207" lon="4.69872">
        <ele>238.8</ele>
        <time>2023-04-18T13:35:09Z</time>
      </trkpt>
      <trkpt lat="45.86212" lon="4.69866">
        <ele>245.3</ele>
        <time>2023-04-18T13:35:11Z</time>
      </trkpt>
      <trkpt lat="45.8622" lon="4.69858">
        <ele>257.7</ele>
        <time>2023-04-18T13:35:13Z</time>
      </trkpt>
      <trkpt lat="45.86228" lon="4.6985">
        <ele>258.5</ele>
        <time>2023-04-18T13:35:15Z</time>
      </trkpt>
      <trkpt lat="45.86236" lon="4.69844">
        <ele>255.6</ele>
        <time>2023-04-18T13:35:17Z</time>
      </trkpt>
      <trkpt lat="45.86242" lon="4.69841">
        <ele>254.5</ele>
        <time>2023-04-18T13:35:18Z</time>
      </trkpt>
      <trkpt lat="45.86247" lon="4.6984">
        <ele>253.6</ele>
        <time>2023-04-18T13:35:19Z</time>
      </trkpt>
      <trkpt lat="45.86252" lon="4.69837">
        <ele>252.2</ele>
        <time>2023-04-18T13:35:20Z</time>
      </trkpt>
      <trkpt lat="45.86258" lon="4.69836">
        <ele>248.7</ele>
        <time>2023-04-18T13:35:21Z</time>
      </trkpt>
      <trkpt lat="45.86263" lon="4.69834">
        <ele>243</ele>
        <time>2023-04-18T13:35:22Z</time>
      </trkpt>
      <trkpt lat="45.86268" lon="4.69833">
        <ele>242.8</ele>
        <time>2023-04-18T13:35:23Z</time>
      </trkpt>
      <trkpt lat="45.86273" lon="4.69831">
        <ele>243.6</ele>
        <time>2023-04-18T13:35:24Z</time>
      </trkpt>
      <trkpt lat="45.86279" lon="4.69829">
        <ele>244.8</ele>
        <time>2023-04-18T13:35:25Z</time>
      </trkpt>
      <trkpt lat="45.86283" lon="4.69827">
        <ele>243.6</ele>
        <time>2023-04-18T13:35:26Z</time>
      </trkpt>
      <trkpt lat="45.86292" lon="4.69826">
        <ele>248.1</ele>
        <time>2023-04-18T13:35:28Z</time>
      </trkpt>
      <trkpt lat="45.86297" lon="4.69825">
        <ele>248.9</ele>
        <time>2023-04-18T13:35:29Z</time>
      </trkpt>
      <trkpt lat="45.86302" lon="4.69825">
        <ele>249</ele>
        <time>2023-04-18T13:35:30Z</time>
      </trkpt>
      <trkpt lat="45.86308" lon="4.69824">
        <ele>249.2</ele>
        <time>2023-04-18T13:35:31Z</time>
      </trkpt>
      <trkpt lat="45.86315" lon="4.69827">
        <ele>247.6</ele>
        <time>2023-04-18T13:35:33Z</time>
      </trkpt>
      <trkpt lat="45.86323" lon="4.69833">
        <ele>240.8</ele>
        <time>2023-04-18T13:35:35Z</time>
      </trkpt>
      <trkpt lat="45.86329" lon="4.69842">
        <ele>236.2</ele>
        <time>2023-04-18T13:35:37Z</time>
      </trkpt>
      <trkpt lat="45.86334" lon="4.69852">
        <ele>232.9</ele>
        <time>2023-04-18T13:35:39Z</time>
      </trkpt>
      <trkpt lat="45.86336" lon="4.69859">
        <ele>231.9</ele>
        <time>2023-04-18T13:35:40Z</time>
      </trkpt>
      <trkpt lat="45.86339" lon="4.69871">
        <ele>232</ele>
        <time>2023-04-18T13:35:42Z</time>
      </trkpt>
      <trkpt lat="45.86342" lon="4.69884">
        <ele>233.5</ele>
        <time>2023-04-18T13:35:44Z</time>
      </trkpt>
      <trkpt lat="45.86343" lon="4.69891">
        <ele>234.9</ele>
        <time>2023-04-18T13:35:45Z</time>
      </trkpt>
      <trkpt lat="45.86346" lon="4.69902">
        <ele>238.5</ele>
        <time>2023-04-18T13:35:47Z</time>
      </trkpt>
      <trkpt lat="45.86348" lon="4.6991">
        <ele>242.3</ele>
        <time>2023-04-18T13:35:48Z</time>
      </trkpt>
      <trkpt lat="45.86349" lon="4.69922">
        <ele>243.8</ele>
        <time>2023-04-18T13:35:50Z</time>
      </trkpt>
      <trkpt lat="45.86351" lon="4.69927">
        <ele>243.5</ele>
        <time>2023-04-18T13:35:51Z</time>
      </trkpt>
      <trkpt lat="45.86353" lon="4.69934">
        <ele>243.8</ele>
        <time>2023-04-18T13:35:52Z</time>
      </trkpt>
      <trkpt lat="45.86355" lon="4.69948">
        <ele>245.8</ele>
        <time>2023-04-18T13:35:54Z</time>
      </trkpt>
      <trkpt lat="45.86356" lon="4.69954">
        <ele>245.7</ele>
        <time>2023-04-18T13:35:55Z</time>
      </trkpt>
      <trkpt lat="45.86356" lon="4.69962">
        <ele>246.6</ele>
        <time>2023-04-18T13:35:56Z</time>
      </trkpt>
      <trkpt lat="45.86356" lon="4.70004">
        <ele>240.7</ele>
        <time>2023-04-18T13:36:02Z</time>
      </trkpt>
      <trkpt lat="45.86356" lon="4.70011">
        <ele>238</ele>
        <time>2023-04-18T13:36:03Z</time>
      </trkpt>
      <trkpt lat="45.86355" lon="4.70018">
        <ele>237.2</ele>
        <time>2023-04-18T13:36:04Z</time>
      </trkpt>
      <trkpt lat="45.86354" lon="4.70026">
        <ele>234.2</ele>
        <time>2023-04-18T13:36:05Z</time>
      </trkpt>
      <trkpt lat="45.86353" lon="4.70034">
        <ele>237</ele>
        <time>2023-04-18T13:36:06Z</time>
      </trkpt>
      <trkpt lat="45.86351" lon="4.70042">
        <ele>235</ele>
        <time>2023-04-18T13:36:07Z</time>
      </trkpt>
      <trkpt lat="45.8635" lon="4.7005">
        <ele>234.9</ele>
        <time>2023-04-18T13:36:08Z</time>
      </trkpt>
      <trkpt lat="45.86348" lon="4.70057">
        <ele>237</ele>
        <time>2023-04-18T13:36:09Z</time>
      </trkpt>
      <trkpt lat="45.86346" lon="4.70065">
        <ele>238.3</ele>
        <time>2023-04-18T13:36:10Z</time>
      </trkpt>
      <trkpt lat="45.86344" lon="4.70071">
        <ele>243.8</ele>
        <time>2023-04-18T13:36:11Z</time>
      </trkpt>
      <trkpt lat="45.86341" lon="4.70079">
        <ele>244.1</ele>
        <time>2023-04-18T13:36:12Z</time>
      </trkpt>
      <trkpt lat="45.86339" lon="4.70086">
        <ele>246.4</ele>
        <time>2023-04-18T13:36:13Z</time>
      </trkpt>
      <trkpt lat="45.86337" lon="4.70093">
        <ele>246.4</ele>
        <time>2023-04-18T13:36:14Z</time>
      </trkpt>
      <trkpt lat="45.86334" lon="4.70101">
        <ele>246.3</ele>
        <time>2023-04-18T13:36:15Z</time>
      </trkpt>
      <trkpt lat="45.86331" lon="4.70107">
        <ele>246.1</ele>
        <time>2023-04-18T13:36:16Z</time>
      </trkpt>
      <trkpt lat="45.86327" lon="4.70113">
        <ele>246</ele>
        <time>2023-04-18T13:36:17Z</time>
      </trkpt>
      <trkpt lat="45.86323" lon="4.70119">
        <ele>246</ele>
        <time>2023-04-18T13:36:18Z</time>
      </trkpt>
      <trkpt lat="45.8632" lon="4.70125">
        <ele>246</ele>
        <time>2023-04-18T13:36:19Z</time>
      </trkpt>
      <trkpt lat="45.86317" lon="4.70132">
        <ele>245.9</ele>
        <time>2023-04-18T13:36:20Z</time>
      </trkpt>
      <trkpt lat="45.86314" lon="4.70139">
        <ele>245.9</ele>
        <time>2023-04-18T13:36:21Z</time>
      </trkpt>
      <trkpt lat="45.86311" lon="4.70146">
        <ele>243.4</ele>
        <time>2023-04-18T13:36:22Z</time>
      </trkpt>
      <trkpt lat="45.86303" lon="4.70155">
        <ele>242.5</ele>
        <time>2023-04-18T13:36:24Z</time>
      </trkpt>
      <trkpt lat="45.86299" lon="4.70159">
        <ele>242.4</ele>
        <time>2023-04-18T13:36:25Z</time>
      </trkpt>
      <trkpt lat="45.86294" lon="4.70163">
        <ele>242.4</ele>
        <time>2023-04-18T13:36:26Z</time>
      </trkpt>
      <trkpt lat="45.8629" lon="4.70167">
        <ele>242.3</ele>
        <time>2023-04-18T13:36:27Z</time>
      </trkpt>
      <trkpt lat="45.86285" lon="4.70171">
        <ele>239.3</ele>
        <time>2023-04-18T13:36:28Z</time>
      </trkpt>
      <trkpt lat="45.86281" lon="4.70175">
        <ele>237.9</ele>
        <time>2023-04-18T13:36:29Z</time>
      </trkpt>
      <trkpt lat="45.86278" lon="4.70182">
        <ele>228.3</ele>
        <time>2023-04-18T13:36:30Z</time>
      </trkpt>
      <trkpt lat="45.86274" lon="4.70187">
        <ele>231.3</ele>
        <time>2023-04-18T13:36:31Z</time>
      </trkpt>
      <trkpt lat="45.86238" lon="4.70246">
        <ele>242.2</ele>
        <time>2023-04-18T13:36:42Z</time>
      </trkpt>
      <trkpt lat="45.86236" lon="4.70252">
        <ele>242.3</ele>
        <time>2023-04-18T13:36:43Z</time>
      </trkpt>
      <trkpt lat="45.86234" lon="4.70259">
        <ele>245.6</ele>
        <time>2023-04-18T13:36:44Z</time>
      </trkpt>
      <trkpt lat="45.86229" lon="4.7027">
        <ele>243.8</ele>
        <time>2023-04-18T13:36:46Z</time>
      </trkpt>
      <trkpt lat="45.86226" lon="4.70281">
        <ele>253.2</ele>
        <time>2023-04-18T13:36:48Z</time>
      </trkpt>
      <trkpt lat="45.86224" lon="4.70289">
        <ele>255.9</ele>
        <time>2023-04-18T13:36:49Z</time>
      </trkpt>
      <trkpt lat="45.8622" lon="4.70301">
        <ele>254.1</ele>
        <time>2023-04-18T13:36:51Z</time>
      </trkpt>
      <trkpt lat="45.86218" lon="4.70308">
        <ele>251.3</ele>
        <time>2023-04-18T13:36:52Z</time>
      </trkpt>
      <trkpt lat="45.86215" lon="4.70314">
        <ele>250.5</ele>
        <time>2023-04-18T13:36:53Z</time>
      </trkpt>
      <trkpt lat="45.86213" lon="4.7032">
        <ele>249.5</ele>
        <time>2023-04-18T13:36:54Z</time>
      </trkpt>
      <trkpt lat="45.86211" lon="4.70328">
        <ele>248</ele>
        <time>2023-04-18T13:36:55Z</time>
      </trkpt>
      <trkpt lat="45.8621" lon="4.70334">
        <ele>246.2</ele>
        <time>2023-04-18T13:36:56Z</time>
      </trkpt>
      <trkpt lat="45.86208" lon="4.70341">
        <ele>247.7</ele>
        <time>2023-04-18T13:36:57Z</time>
      </trkpt>
      <trkpt lat="45.86207" lon="4.70348">
        <ele>248.1</ele>
        <time>2023-04-18T13:36:58Z</time>
      </trkpt>
      <trkpt lat="45.86206" lon="4.70355">
        <ele>242.3</ele>
        <time>2023-04-18T13:36:59Z</time>
      </trkpt>
      <trkpt lat="45.86205" lon="4.70363">
        <ele>239.8</ele>
        <time>2023-04-18T13:37:00Z</time>
      </trkpt>
      <trkpt lat="45.86202" lon="4.70373">
        <ele>238</ele>
        <time>2023-04-18T13:37:02Z</time>
      </trkpt>
      <trkpt lat="45.86199" lon="4.70384">
        <ele>234.7</ele>
        <time>2023-04-18T13:37:04Z</time>
      </trkpt>
      <trkpt lat="45.862" lon="4.70394">
        <ele>234.2</ele>
        <time>2023-04-18T13:37:06Z</time>
      </trkpt>
      <trkpt lat="45.86201" lon="4.70403">
        <ele>236.8</ele>
        <time>2023-04-18T13:37:08Z</time>
      </trkpt>
      <trkpt lat="45.862" lon="4.70413">
        <ele>234.2</ele>
        <time>2023-04-18T13:37:10Z</time>
      </trkpt>
      <trkpt lat="45.862" lon="4.70423">
        <ele>233.7</ele>
        <time>2023-04-18T13:37:12Z</time>
      </trkpt>
      <trkpt lat="45.862" lon="4.70435">
        <ele>232.9</ele>
        <time>2023-04-18T13:37:14Z</time>
      </trkpt>
      <trkpt lat="45.86201" lon="4.70447">
        <ele>231.4</ele>
        <time>2023-04-18T13:37:16Z</time>
      </trkpt>
      <trkpt lat="45.86202" lon="4.70454">
        <ele>231.5</ele>
        <time>2023-04-18T13:37:17Z</time>
      </trkpt>
      <trkpt lat="45.86203" lon="4.70461">
        <ele>232</ele>
        <time>2023-04-18T13:37:18Z</time>
      </trkpt>
      <trkpt lat="45.86204" lon="4.70467">
        <ele>232.1</ele>
        <time>2023-04-18T13:37:19Z</time>
      </trkpt>
      <trkpt lat="45.86206" lon="4.70474">
        <ele>232.1</ele>
        <time>2023-04-18T13:37:20Z</time>
      </trkpt>
      <trkpt lat="45.86208" lon="4.70481">
        <ele>232</ele>
        <time>2023-04-18T13:37:21Z</time>
      </trkpt>
      <trkpt lat="45.86211" lon="4.70488">
        <ele>232</ele>
        <time>2023-04-18T13:37:22Z</time>
      </trkpt>
      <trkpt lat="45.8623" lon="4.70551">
        <ele>234</ele>
        <time>2023-04-18T13:37:33Z</time>
      </trkpt>
      <trkpt lat="45.86235" lon="4.70561">
        <ele>236.2</ele>
        <time>2023-04-18T13:37:35Z</time>
      </trkpt>
      <trkpt lat="45.8624" lon="4.7057">
        <ele>240.8</ele>
        <time>2023-04-18T13:37:37Z</time>
      </trkpt>
      <trkpt lat="45.86247" lon="4.70579">
        <ele>240.9</ele>
        <time>2023-04-18T13:37:39Z</time>
      </trkpt>
      <trkpt lat="45.86249" lon="4.70586">
        <ele>241.1</ele>
        <time>2023-04-18T13:37:40Z</time>
      </trkpt>
      <trkpt lat="45.86253" lon="4.70592">
        <ele>242.1</ele>
        <time>2023-04-18T13:37:41Z</time>
      </trkpt>
      <trkpt lat="45.86257" lon="4.70597">
        <ele>241.8</ele>
        <time>2023-04-18T13:37:42Z</time>
      </trkpt>
      <trkpt lat="45.8626" lon="4.70601">
        <ele>243.7</ele>
        <time>2023-04-18T13:37:43Z</time>
      </trkpt>
      <trkpt lat="45.86263" lon="4.70606">
        <ele>246.1</ele>
        <time>2023-04-18T13:37:44Z</time>
      </trkpt>
      <trkpt lat="45.86266" lon="4.70612">
        <ele>248.9</ele>
        <time>2023-04-18T13:37:45Z</time>
      </trkpt>
      <trkpt lat="45.8627" lon="4.70621">
        <ele>246.3</ele>
        <time>2023-04-18T13:37:47Z</time>
      </trkpt>
      <trkpt lat="45.86273" lon="4.70627">
        <ele>246.9</ele>
        <time>2023-04-18T13:37:48Z</time>
      </trkpt>
      <trkpt lat="45.86279" lon="4.70636">
        <ele>247</ele>
        <time>2023-04-18T13:37:50Z</time>
      </trkpt>
      <trkpt lat="45.86286" lon="4.70645">
        <ele>245.7</ele>
        <time>2023-04-18T13:37:52Z</time>
      </trkpt>
      <trkpt lat="45.86307" lon="4.70673">
        <ele>244.3</ele>
        <time>2023-04-18T13:37:58Z</time>
      </trkpt>
      <trkpt lat="45.86311" lon="4.70679">
        <ele>245.9</ele>
        <time>2023-04-18T13:37:59Z</time>
      </trkpt>
      <trkpt lat="45.86315" lon="4.70684">
        <ele>246.2</ele>
        <time>2023-04-18T13:38:00Z</time>
      </trkpt>
      <trkpt lat="45.86321" lon="4.70692">
        <ele>248.3</ele>
        <time>2023-04-18T13:38:02Z</time>
      </trkpt>
      <trkpt lat="45.86509" lon="4.70902">
        <ele>236.8</ele>
        <time>2023-04-18T13:38:58Z</time>
      </trkpt>
      <trkpt lat="45.86504" lon="4.70907">
        <ele>230.7</ele>
        <time>2023-04-18T13:39:00Z</time>
      </trkpt>
      <trkpt lat="45.865" lon="4.70913">
        <ele>223</ele>
        <time>2023-04-18T13:39:02Z</time>
      </trkpt>
      <trkpt lat="45.86495" lon="4.70918">
        <ele>221.4</ele>
        <time>2023-04-18T13:39:04Z</time>
      </trkpt>
      <trkpt lat="45.86489" lon="4.70926">
        <ele>219.7</ele>
        <time>2023-04-18T13:39:06Z</time>
      </trkpt>
      <trkpt lat="45.86189" lon="4.71028">
        <ele>196.6</ele>
        <time>2023-04-18T13:40:33Z</time>
      </trkpt>
      <trkpt lat="45.86176" lon="4.71039">
        <ele>196.4</ele>
        <time>2023-04-18T13:40:38Z</time>
      </trkpt>
      <trkpt lat="45.86114" lon="4.71112">
        <ele>200.4</ele>
        <time>2023-04-18T13:40:53Z</time>
      </trkpt>
      <trkpt lat="45.86101" lon="4.71141">
        <ele>205.4</ele>
        <time>2023-04-18T13:40:58Z</time>
      </trkpt>
      <trkpt lat="45.86091" lon="4.71153">
        <ele>211.2</ele>
        <time>2023-04-18T13:41:03Z</time>
      </trkpt>
      <trkpt lat="45.86072" lon="4.71222">
        <ele>214.2</ele>
        <time>2023-04-18T13:41:13Z</time>
      </trkpt>
      <trkpt lat="45.86079" lon="4.71241">
        <ele>216.1</ele>
        <time>2023-04-18T13:41:18Z</time>
      </trkpt>
      <trkpt lat="45.86009" lon="4.71249">
        <ele>217.5</ele>
        <time>2023-04-18T13:41:39Z</time>
      </trkpt>
      <trkpt lat="45.85957" lon="4.71229">
        <ele>214.6</ele>
        <time>2023-04-18T13:41:49Z</time>
      </trkpt>
      <trkpt lat="45.85946" lon="4.71224">
        <ele>213</ele>
        <time>2023-04-18T13:41:54Z</time>
      </trkpt>
      <trkpt lat="45.85941" lon="4.71219">
        <ele>209.5</ele>
        <time>2023-04-18T13:42:04Z</time>
      </trkpt>
      <trkpt lat="45.85887" lon="4.71213">
        <ele>207.9</ele>
        <time>2023-04-18T13:42:09Z</time>
      </trkpt>
      <trkpt lat="45.85871" lon="4.7121">
        <ele>203.1</ele>
        <time>2023-04-18T13:42:14Z</time>
      </trkpt>
      <trkpt lat="45.85865" lon="4.71206">
        <ele>201.3</ele>
        <time>2023-04-18T13:42:19Z</time>
      </trkpt>
      <trkpt lat="45.8578" lon="4.71182">
        <ele>200.4</ele>
        <time>2023-04-18T13:42:39Z</time>
      </trkpt>
      <trkpt lat="45.85769" lon="4.71178">
        <ele>201.1</ele>
        <time>2023-04-18T13:42:44Z</time>
      </trkpt>
      <trkpt lat="45.85736" lon="4.71113">
        <ele>201.8</ele>
        <time>2023-04-18T13:42:59Z</time>
      </trkpt>
      <trkpt lat="45.8573" lon="4.71108">
        <ele>203.5</ele>
        <time>2023-04-18T13:43:01Z</time>
      </trkpt>
      <trkpt lat="45.85738" lon="4.71107">
        <ele>204.1</ele>
        <time>2023-04-18T13:43:02Z</time>
      </trkpt>
      <trkpt lat="45.85745" lon="4.71101">
        <ele>204.5</ele>
        <time>2023-04-18T13:43:06Z</time>
      </trkpt>
      <trkpt lat="45.85649" lon="4.71049">
        <ele>209.3</ele>
        <time>2023-04-18T13:43:27Z</time>
      </trkpt>
      <trkpt lat="45.85647" lon="4.71042">
        <ele>209.1</ele>
        <time>2023-04-18T13:43:32Z</time>
      </trkpt>
      <trkpt lat="45.8558" lon="4.70964">
        <ele>233.8</ele>
        <time>2023-04-18T13:43:52Z</time>
      </trkpt>
      <trkpt lat="45.85498" lon="4.70934">
        <ele>232.8</ele>
        <time>2023-04-18T13:44:17Z</time>
      </trkpt>
      <trkpt lat="45.85497" lon="4.70941">
        <ele>233.1</ele>
        <time>2023-04-18T13:44:19Z</time>
      </trkpt>
      <trkpt lat="45.85507" lon="4.70931">
        <ele>233.1</ele>
        <time>2023-04-18T13:44:20Z</time>
      </trkpt>
      <trkpt lat="45.85499" lon="4.70943">
        <ele>232.8</ele>
        <time>2023-04-18T13:44:25Z</time>
      </trkpt>
      <trkpt lat="45.85518" lon="4.70984">
        <ele>232.2</ele>
        <time>2023-04-18T13:44:35Z</time>
      </trkpt>
      <trkpt lat="45.85522" lon="4.70989">
        <ele>232.4</ele>
        <time>2023-04-18T13:44:40Z</time>
      </trkpt>
      <trkpt lat="45.85534" lon="4.7107">
        <ele>233.5</ele>
        <time>2023-04-18T13:44:55Z</time>
      </trkpt>
      <trkpt lat="45.85491" lon="4.71254">
        <ele>243.9</ele>
        <time>2023-04-18T13:45:55Z</time>
      </trkpt>
      <trkpt lat="45.8557" lon="4.71311">
        <ele>232.8</ele>
        <time>2023-04-18T13:46:56Z</time>
      </trkpt>
      <trkpt lat="45.85562" lon="4.71319">
        <ele>232.6</ele>
        <time>2023-04-18T13:47:01Z</time>
      </trkpt>
      <trkpt lat="45.85552" lon="4.71324">
        <ele>233.6</ele>
        <time>2023-04-18T13:47:06Z</time>
      </trkpt>
      <trkpt lat="45.8541" lon="4.71415">
        <ele>243.1</ele>
        <time>2023-04-18T13:47:51Z</time>
      </trkpt>
      <trkpt lat="45.85405" lon="4.71418">
        <ele>244.3</ele>
        <time>2023-04-18T13:47:53Z</time>
      </trkpt>
      <trkpt lat="45.854" lon="4.71422">
        <ele>244.6</ele>
        <time>2023-04-18T13:47:55Z</time>
      </trkpt>
      <trkpt lat="45.85235" lon="4.71553">
        <ele>245.7</ele>
        <time>2023-04-18T13:48:56Z</time>
      </trkpt>
      <trkpt lat="45.85231" lon="4.71555">
        <ele>245.9</ele>
        <time>2023-04-18T13:48:57Z</time>
      </trkpt>
      <trkpt lat="45.85226" lon="4.71558">
        <ele>246.8</ele>
        <time>2023-04-18T13:48:58Z</time>
      </trkpt>
      <trkpt lat="45.85221" lon="4.7156">
        <ele>246.5</ele>
        <time>2023-04-18T13:48:59Z</time>
      </trkpt>
      <trkpt lat="45.85216" lon="4.71563">
        <ele>246.4</ele>
        <time>2023-04-18T13:49:00Z</time>
      </trkpt>
      <trkpt lat="45.8521" lon="4.71565">
        <ele>246.4</ele>
        <time>2023-04-18T13:49:01Z</time>
      </trkpt>
      <trkpt lat="45.85205" lon="4.71569">
        <ele>245.3</ele>
        <time>2023-04-18T13:49:02Z</time>
      </trkpt>
      <trkpt lat="45.85199" lon="4.71572">
        <ele>245.7</ele>
        <time>2023-04-18T13:49:03Z</time>
      </trkpt>
      <trkpt lat="45.85193" lon="4.71574">
        <ele>244.5</ele>
        <time>2023-04-18T13:49:04Z</time>
      </trkpt>
      <trkpt lat="45.85188" lon="4.71577">
        <ele>242</ele>
        <time>2023-04-18T13:49:05Z</time>
      </trkpt>
      <trkpt lat="45.85153" lon="4.7159">
        <ele>235.7</ele>
        <time>2023-04-18T13:49:11Z</time>
      </trkpt>
      <trkpt lat="45.85148" lon="4.71593">
        <ele>235.5</ele>
        <time>2023-04-18T13:49:12Z</time>
      </trkpt>
      <trkpt lat="45.85143" lon="4.71593">
        <ele>235.4</ele>
        <time>2023-04-18T13:49:13Z</time>
      </trkpt>
      <trkpt lat="45.85137" lon="4.71593">
        <ele>234.3</ele>
        <time>2023-04-18T13:49:14Z</time>
      </trkpt>
      <trkpt lat="45.85103" lon="4.71606">
        <ele>234.2</ele>
        <time>2023-04-18T13:49:21Z</time>
      </trkpt>
      <trkpt lat="45.85098" lon="4.71608">
        <ele>238</ele>
        <time>2023-04-18T13:49:22Z</time>
      </trkpt>
      <trkpt lat="45.85092" lon="4.71612">
        <ele>238.4</ele>
        <time>2023-04-18T13:49:23Z</time>
      </trkpt>
      <trkpt lat="45.85087" lon="4.71616">
        <ele>238.2</ele>
        <time>2023-04-18T13:49:24Z</time>
      </trkpt>
      <trkpt lat="45.84975" lon="4.71668">
        <ele>236.3</ele>
        <time>2023-04-18T13:49:46Z</time>
      </trkpt>
      <trkpt lat="45.8497" lon="4.7167">
        <ele>236.9</ele>
        <time>2023-04-18T13:49:47Z</time>
      </trkpt>
      <trkpt lat="45.84965" lon="4.71669">
        <ele>237.4</ele>
        <time>2023-04-18T13:49:48Z</time>
      </trkpt>
      <trkpt lat="45.8496" lon="4.71667">
        <ele>238.9</ele>
        <time>2023-04-18T13:49:49Z</time>
      </trkpt>
      <trkpt lat="45.84955" lon="4.71667">
        <ele>239.8</ele>
        <time>2023-04-18T13:49:50Z</time>
      </trkpt>
      <trkpt lat="45.84951" lon="4.71666">
        <ele>240.6</ele>
        <time>2023-04-18T13:49:51Z</time>
      </trkpt>
      <trkpt lat="45.84946" lon="4.71665">
        <ele>241.1</ele>
        <time>2023-04-18T13:49:52Z</time>
      </trkpt>
      <trkpt lat="45.84941" lon="4.71664">
        <ele>241.2</ele>
        <time>2023-04-18T13:49:53Z</time>
      </trkpt>
      <trkpt lat="45.84937" lon="4.71663">
        <ele>241.4</ele>
        <time>2023-04-18T13:49:54Z</time>
      </trkpt>
      <trkpt lat="45.84932" lon="4.71662">
        <ele>241.5</ele>
        <time>2023-04-18T13:49:55Z</time>
      </trkpt>
      <trkpt lat="45.84923" lon="4.71661">
        <ele>241.7</ele>
        <time>2023-04-18T13:49:57Z</time>
      </trkpt>
      <trkpt lat="45.84918" lon="4.7166">
        <ele>241.8</ele>
        <time>2023-04-18T13:49:58Z</time>
      </trkpt>
      <trkpt lat="45.84913" lon="4.71661">
        <ele>242.1</ele>
        <time>2023-04-18T13:49:59Z</time>
      </trkpt>
      <trkpt lat="45.84908" lon="4.71665">
        <ele>242</ele>
        <time>2023-04-18T13:50:00Z</time>
      </trkpt>
      <trkpt lat="45.84903" lon="4.71666">
        <ele>242</ele>
        <time>2023-04-18T13:50:01Z</time>
      </trkpt>
      <trkpt lat="45.84897" lon="4.71667">
        <ele>242.1</ele>
        <time>2023-04-18T13:50:02Z</time>
      </trkpt>
      <trkpt lat="45.84892" lon="4.71669">
        <ele>242.1</ele>
        <time>2023-04-18T13:50:03Z</time>
      </trkpt>
      <trkpt lat="45.84886" lon="4.71671">
        <ele>242.1</ele>
        <time>2023-04-18T13:50:04Z</time>
      </trkpt>
      <trkpt lat="45.84876" lon="4.71674">
        <ele>244.7</ele>
        <time>2023-04-18T13:50:06Z</time>
      </trkpt>
      <trkpt lat="45.84841" lon="4.71691">
        <ele>246.2</ele>
        <time>2023-04-18T13:50:12Z</time>
      </trkpt>
      <trkpt lat="45.84835" lon="4.71693">
        <ele>250.5</ele>
        <time>2023-04-18T13:50:13Z</time>
      </trkpt>
      <trkpt lat="45.8483" lon="4.71696">
        <ele>254.8</ele>
        <time>2023-04-18T13:50:14Z</time>
      </trkpt>
      <trkpt lat="45.84824" lon="4.71699">
        <ele>254.9</ele>
        <time>2023-04-18T13:50:15Z</time>
      </trkpt>
      <trkpt lat="45.84819" lon="4.71703">
        <ele>254.8</ele>
        <time>2023-04-18T13:50:16Z</time>
      </trkpt>
      <trkpt lat="45.84814" lon="4.71706">
        <ele>254.9</ele>
        <time>2023-04-18T13:50:17Z</time>
      </trkpt>
      <trkpt lat="45.84809" lon="4.71711">
        <ele>255.4</ele>
        <time>2023-04-18T13:50:18Z</time>
      </trkpt>
      <trkpt lat="45.84804" lon="4.71713">
        <ele>255.4</ele>
        <time>2023-04-18T13:50:19Z</time>
      </trkpt>
      <trkpt lat="45.84799" lon="4.71716">
        <ele>255.4</ele>
        <time>2023-04-18T13:50:20Z</time>
      </trkpt>
      <trkpt lat="45.84795" lon="4.7172">
        <ele>255.4</ele>
        <time>2023-04-18T13:50:21Z</time>
      </trkpt>
      <trkpt lat="45.8479" lon="4.71724">
        <ele>255.8</ele>
        <time>2023-04-18T13:50:22Z</time>
      </trkpt>
      <trkpt lat="45.84784" lon="4.7173">
        <ele>255.9</ele>
        <time>2023-04-18T13:50:23Z</time>
      </trkpt>
      <trkpt lat="45.84778" lon="4.71734">
        <ele>256</ele>
        <time>2023-04-18T13:50:24Z</time>
      </trkpt>
      <trkpt lat="45.84772" lon="4.71739">
        <ele>256.6</ele>
        <time>2023-04-18T13:50:25Z</time>
      </trkpt>
      <trkpt lat="45.84766" lon="4.71744">
        <ele>256.7</ele>
        <time>2023-04-18T13:50:26Z</time>
      </trkpt>
      <trkpt lat="45.8476" lon="4.71748">
        <ele>256.9</ele>
        <time>2023-04-18T13:50:27Z</time>
      </trkpt>
      <trkpt lat="45.84755" lon="4.71751">
        <ele>257.3</ele>
        <time>2023-04-18T13:50:28Z</time>
      </trkpt>
      <trkpt lat="45.84749" lon="4.71754">
        <ele>258.2</ele>
        <time>2023-04-18T13:50:29Z</time>
      </trkpt>
      <trkpt lat="45.84743" lon="4.71758">
        <ele>259.1</ele>
        <time>2023-04-18T13:50:30Z</time>
      </trkpt>
      <trkpt lat="45.84737" lon="4.71762">
        <ele>260</ele>
        <time>2023-04-18T13:50:31Z</time>
      </trkpt>
      <trkpt lat="45.84677" lon="4.7179">
        <ele>262</ele>
        <time>2023-04-18T13:50:42Z</time>
      </trkpt>
      <trkpt lat="45.84671" lon="4.71793">
        <ele>262.3</ele>
        <time>2023-04-18T13:50:43Z</time>
      </trkpt>
      <trkpt lat="45.84667" lon="4.71796">
        <ele>261.7</ele>
        <time>2023-04-18T13:50:44Z</time>
      </trkpt>
      <trkpt lat="45.84662" lon="4.71798">
        <ele>262</ele>
        <time>2023-04-18T13:50:45Z</time>
      </trkpt>
      <trkpt lat="45.84657" lon="4.718">
        <ele>262</ele>
        <time>2023-04-18T13:50:46Z</time>
      </trkpt>
      <trkpt lat="45.8449" lon="4.71917">
        <ele>267.3</ele>
        <time>2023-04-18T13:51:27Z</time>
      </trkpt>
      <trkpt lat="45.84482" lon="4.71924">
        <ele>268</ele>
        <time>2023-04-18T13:51:29Z</time>
      </trkpt>
      <trkpt lat="45.84477" lon="4.71926">
        <ele>264.9</ele>
        <time>2023-04-18T13:51:30Z</time>
      </trkpt>
      <trkpt lat="45.84473" lon="4.71931">
        <ele>263.6</ele>
        <time>2023-04-18T13:51:31Z</time>
      </trkpt>
      <trkpt lat="45.84446" lon="4.71937">
        <ele>260.3</ele>
        <time>2023-04-18T13:51:37Z</time>
      </trkpt>
      <trkpt lat="45.84439" lon="4.71938">
        <ele>258.4</ele>
        <time>2023-04-18T13:51:39Z</time>
      </trkpt>
      <trkpt lat="45.84432" lon="4.71941">
        <ele>257.1</ele>
        <time>2023-04-18T13:51:41Z</time>
      </trkpt>
      <trkpt lat="45.84425" lon="4.71942">
        <ele>256.7</ele>
        <time>2023-04-18T13:51:43Z</time>
      </trkpt>
      <trkpt lat="45.84417" lon="4.71945">
        <ele>257.2</ele>
        <time>2023-04-18T13:51:45Z</time>
      </trkpt>
      <trkpt lat="45.8441" lon="4.71947">
        <ele>257.3</ele>
        <time>2023-04-18T13:51:47Z</time>
      </trkpt>
      <trkpt lat="45.84403" lon="4.7195">
        <ele>257.6</ele>
        <time>2023-04-18T13:51:49Z</time>
      </trkpt>
      <trkpt lat="45.84395" lon="4.71953">
        <ele>257.9</ele>
        <time>2023-04-18T13:51:51Z</time>
      </trkpt>
      <trkpt lat="45.84388" lon="4.71955">
        <ele>258.1</ele>
        <time>2023-04-18T13:51:53Z</time>
      </trkpt>
      <trkpt lat="45.84381" lon="4.71957">
        <ele>257.5</ele>
        <time>2023-04-18T13:51:55Z</time>
      </trkpt>
      <trkpt lat="45.84374" lon="4.71959">
        <ele>255.8</ele>
        <time>2023-04-18T13:51:57Z</time>
      </trkpt>
      <trkpt lat="45.84368" lon="4.71961">
        <ele>253.2</ele>
        <time>2023-04-18T13:51:59Z</time>
      </trkpt>
      <trkpt lat="45.84363" lon="4.71962">
        <ele>250.9</ele>
        <time>2023-04-18T13:52:01Z</time>
      </trkpt>
      <trkpt lat="45.84356" lon="4.71964">
        <ele>251</ele>
        <time>2023-04-18T13:52:03Z</time>
      </trkpt>
      <trkpt lat="45.84351" lon="4.71965">
        <ele>251.2</ele>
        <time>2023-04-18T13:52:05Z</time>
      </trkpt>
      <trkpt lat="45.84344" lon="4.71967">
        <ele>251.9</ele>
        <time>2023-04-18T13:52:07Z</time>
      </trkpt>
      <trkpt lat="45.84338" lon="4.71969">
        <ele>252</ele>
        <time>2023-04-18T13:52:09Z</time>
      </trkpt>
      <trkpt lat="45.84331" lon="4.71971">
        <ele>251.9</ele>
        <time>2023-04-18T13:52:11Z</time>
      </trkpt>
      <trkpt lat="45.84324" lon="4.71974">
        <ele>251.9</ele>
        <time>2023-04-18T13:52:13Z</time>
      </trkpt>
      <trkpt lat="45.84317" lon="4.71977">
        <ele>252</ele>
        <time>2023-04-18T13:52:15Z</time>
      </trkpt>
      <trkpt lat="45.8431" lon="4.7198">
        <ele>252.1</ele>
        <time>2023-04-18T13:52:17Z</time>
      </trkpt>
      <trkpt lat="45.84304" lon="4.71984">
        <ele>252.2</ele>
        <time>2023-04-18T13:52:19Z</time>
      </trkpt>
      <trkpt lat="45.84297" lon="4.71988">
        <ele>252.2</ele>
        <time>2023-04-18T13:52:21Z</time>
      </trkpt>
      <trkpt lat="45.84291" lon="4.71992">
        <ele>252</ele>
        <time>2023-04-18T13:52:23Z</time>
      </trkpt>
      <trkpt lat="45.84285" lon="4.71996">
        <ele>251.6</ele>
        <time>2023-04-18T13:52:25Z</time>
      </trkpt>
      <trkpt lat="45.84259" lon="4.72012">
        <ele>251.6</ele>
        <time>2023-04-18T13:52:32Z</time>
      </trkpt>
      <trkpt lat="45.84255" lon="4.72014">
        <ele>251.5</ele>
        <time>2023-04-18T13:52:33Z</time>
      </trkpt>
      <trkpt lat="45.84247" lon="4.72018">
        <ele>252</ele>
        <time>2023-04-18T13:52:35Z</time>
      </trkpt>
      <trkpt lat="45.8424" lon="4.72023">
        <ele>253</ele>
        <time>2023-04-18T13:52:37Z</time>
      </trkpt>
      <trkpt lat="45.84232" lon="4.72026">
        <ele>253.9</ele>
        <time>2023-04-18T13:52:39Z</time>
      </trkpt>
      <trkpt lat="45.84228" lon="4.72029">
        <ele>254.1</ele>
        <time>2023-04-18T13:52:40Z</time>
      </trkpt>
      <trkpt lat="45.84201" lon="4.72047">
        <ele>254.6</ele>
        <time>2023-04-18T13:52:47Z</time>
      </trkpt>
      <trkpt lat="45.84175" lon="4.72073">
        <ele>257.9</ele>
        <time>2023-04-18T13:52:53Z</time>
      </trkpt>
      <trkpt lat="45.84167" lon="4.72081">
        <ele>267.1</ele>
        <time>2023-04-18T13:52:55Z</time>
      </trkpt>
      <trkpt lat="45.84163" lon="4.72084">
        <ele>269.4</ele>
        <time>2023-04-18T13:52:56Z</time>
      </trkpt>
      <trkpt lat="45.84084" lon="4.72142">
        <ele>280.1</ele>
        <time>2023-04-18T13:53:12Z</time>
      </trkpt>
      <trkpt lat="45.84079" lon="4.72145">
        <ele>280.8</ele>
        <time>2023-04-18T13:53:13Z</time>
      </trkpt>
      <trkpt lat="45.84074" lon="4.72149">
        <ele>280.1</ele>
        <time>2023-04-18T13:53:14Z</time>
      </trkpt>
      <trkpt lat="45.84069" lon="4.72153">
        <ele>280.3</ele>
        <time>2023-04-18T13:53:15Z</time>
      </trkpt>
      <trkpt lat="45.84065" lon="4.72155">
        <ele>280.6</ele>
        <time>2023-04-18T13:53:16Z</time>
      </trkpt>
      <trkpt lat="45.8402" lon="4.72154">
        <ele>282.5</ele>
        <time>2023-04-18T13:53:27Z</time>
      </trkpt>
      <trkpt lat="45.83967" lon="4.71828">
        <ele>285.9</ele>
        <time>2023-04-18T13:54:18Z</time>
      </trkpt>
      <trkpt lat="45.83963" lon="4.71821">
        <ele>285.3</ele>
        <time>2023-04-18T13:54:20Z</time>
      </trkpt>
      <trkpt lat="45.83958" lon="4.71813">
        <ele>287.9</ele>
        <time>2023-04-18T13:54:22Z</time>
      </trkpt>
      <trkpt lat="45.83954" lon="4.71805">
        <ele>289.7</ele>
        <time>2023-04-18T13:54:24Z</time>
      </trkpt>
      <trkpt lat="45.83953" lon="4.71799">
        <ele>289.8</ele>
        <time>2023-04-18T13:54:26Z</time>
      </trkpt>
      <trkpt lat="45.83951" lon="4.71792">
        <ele>290.8</ele>
        <time>2023-04-18T13:54:28Z</time>
      </trkpt>
      <trkpt lat="45.83949" lon="4.71783">
        <ele>290.6</ele>
        <time>2023-04-18T13:54:30Z</time>
      </trkpt>
      <trkpt lat="45.83946" lon="4.71773">
        <ele>290</ele>
        <time>2023-04-18T13:54:32Z</time>
      </trkpt>
      <trkpt lat="45.83942" lon="4.71764">
        <ele>289.3</ele>
        <time>2023-04-18T13:54:34Z</time>
      </trkpt>
      <trkpt lat="45.83936" lon="4.71758">
        <ele>287.5</ele>
        <time>2023-04-18T13:54:36Z</time>
      </trkpt>
      <trkpt lat="45.83928" lon="4.71754">
        <ele>285.9</ele>
        <time>2023-04-18T13:54:38Z</time>
      </trkpt>
      <trkpt lat="45.83922" lon="4.71752">
        <ele>285.5</ele>
        <time>2023-04-18T13:54:40Z</time>
      </trkpt>
      <trkpt lat="45.83916" lon="4.7175">
        <ele>284.8</ele>
        <time>2023-04-18T13:54:42Z</time>
      </trkpt>
      <trkpt lat="45.83909" lon="4.71747">
        <ele>284.5</ele>
        <time>2023-04-18T13:54:44Z</time>
      </trkpt>
      <trkpt lat="45.83902" lon="4.71744">
        <ele>283.6</ele>
        <time>2023-04-18T13:54:46Z</time>
      </trkpt>
      <trkpt lat="45.83894" lon="4.7174">
        <ele>283.3</ele>
        <time>2023-04-18T13:54:48Z</time>
      </trkpt>
      <trkpt lat="45.83889" lon="4.71737">
        <ele>283.1</ele>
        <time>2023-04-18T13:54:49Z</time>
      </trkpt>
      <trkpt lat="45.83884" lon="4.71733">
        <ele>283.1</ele>
        <time>2023-04-18T13:54:50Z</time>
      </trkpt>
      <trkpt lat="45.83879" lon="4.71731">
        <ele>283</ele>
        <time>2023-04-18T13:54:51Z</time>
      </trkpt>
      <trkpt lat="45.83873" lon="4.71729">
        <ele>283</ele>
        <time>2023-04-18T13:54:52Z</time>
      </trkpt>
      <trkpt lat="45.83867" lon="4.71728">
        <ele>283.4</ele>
        <time>2023-04-18T13:54:53Z</time>
      </trkpt>
      <trkpt lat="45.83863" lon="4.71726">
        <ele>283.7</ele>
        <time>2023-04-18T13:54:54Z</time>
      </trkpt>
      <trkpt lat="45.83858" lon="4.71725">
        <ele>282.9</ele>
        <time>2023-04-18T13:54:55Z</time>
      </trkpt>
      <trkpt lat="45.83851" lon="4.71723">
        <ele>283.2</ele>
        <time>2023-04-18T13:54:56Z</time>
      </trkpt>
      <trkpt lat="45.83847" lon="4.71719">
        <ele>285.2</ele>
        <time>2023-04-18T13:54:57Z</time>
      </trkpt>
      <trkpt lat="45.83842" lon="4.71719">
        <ele>285.6</ele>
        <time>2023-04-18T13:54:58Z</time>
      </trkpt>
      <trkpt lat="45.83836" lon="4.71718">
        <ele>286.9</ele>
        <time>2023-04-18T13:54:59Z</time>
      </trkpt>
      <trkpt lat="45.83826" lon="4.71716">
        <ele>289</ele>
        <time>2023-04-18T13:55:01Z</time>
      </trkpt>
      <trkpt lat="45.83822" lon="4.71715">
        <ele>290</ele>
        <time>2023-04-18T13:55:02Z</time>
      </trkpt>
      <trkpt lat="45.83816" lon="4.71713">
        <ele>290.8</ele>
        <time>2023-04-18T13:55:03Z</time>
      </trkpt>
      <trkpt lat="45.83807" lon="4.71707">
        <ele>291.5</ele>
        <time>2023-04-18T13:55:05Z</time>
      </trkpt>
      <trkpt lat="45.83799" lon="4.71704">
        <ele>290.7</ele>
        <time>2023-04-18T13:55:07Z</time>
      </trkpt>
      <trkpt lat="45.83794" lon="4.71703">
        <ele>290.2</ele>
        <time>2023-04-18T13:55:08Z</time>
      </trkpt>
      <trkpt lat="45.83789" lon="4.71703">
        <ele>288.7</ele>
        <time>2023-04-18T13:55:09Z</time>
      </trkpt>
      <trkpt lat="45.83784" lon="4.71702">
        <ele>287.8</ele>
        <time>2023-04-18T13:55:10Z</time>
      </trkpt>
      <trkpt lat="45.83779" lon="4.71701">
        <ele>284.6</ele>
        <time>2023-04-18T13:55:11Z</time>
      </trkpt>
      <trkpt lat="45.83772" lon="4.71701">
        <ele>284.9</ele>
        <time>2023-04-18T13:55:12Z</time>
      </trkpt>
      <trkpt lat="45.83766" lon="4.71702">
        <ele>285.5</ele>
        <time>2023-04-18T13:55:13Z</time>
      </trkpt>
      <trkpt lat="45.8376" lon="4.71703">
        <ele>284.4</ele>
        <time>2023-04-18T13:55:14Z</time>
      </trkpt>
      <trkpt lat="45.83754" lon="4.71702">
        <ele>283.7</ele>
        <time>2023-04-18T13:55:15Z</time>
      </trkpt>
      <trkpt lat="45.83748" lon="4.71701">
        <ele>283.7</ele>
        <time>2023-04-18T13:55:16Z</time>
      </trkpt>
      <trkpt lat="45.83743" lon="4.717">
        <ele>282.6</ele>
        <time>2023-04-18T13:55:17Z</time>
      </trkpt>
      <trkpt lat="45.8372" lon="4.71685">
        <ele>281.2</ele>
        <time>2023-04-18T13:55:23Z</time>
      </trkpt>
      <trkpt lat="45.83716" lon="4.71676">
        <ele>278.5</ele>
        <time>2023-04-18T13:55:25Z</time>
      </trkpt>
      <trkpt lat="45.83712" lon="4.71669">
        <ele>277.3</ele>
        <time>2023-04-18T13:55:27Z</time>
      </trkpt>
      <trkpt lat="45.83709" lon="4.71661">
        <ele>276.6</ele>
        <time>2023-04-18T13:55:29Z</time>
      </trkpt>
      <trkpt lat="45.83706" lon="4.71653">
        <ele>276.7</ele>
        <time>2023-04-18T13:55:31Z</time>
      </trkpt>
      <trkpt lat="45.83702" lon="4.71647">
        <ele>277.3</ele>
        <time>2023-04-18T13:55:33Z</time>
      </trkpt>
      <trkpt lat="45.83697" lon="4.71646">
        <ele>279.4</ele>
        <time>2023-04-18T13:55:35Z</time>
      </trkpt>
      <trkpt lat="45.83691" lon="4.71647">
        <ele>283.3</ele>
        <time>2023-04-18T13:55:38Z</time>
      </trkpt>
      <trkpt lat="45.83686" lon="4.7165">
        <ele>284.1</ele>
        <time>2023-04-18T13:55:40Z</time>
      </trkpt>
      <trkpt lat="45.83682" lon="4.71652">
        <ele>284.5</ele>
        <time>2023-04-18T13:55:42Z</time>
      </trkpt>
      <trkpt lat="45.83676" lon="4.71653">
        <ele>284.4</ele>
        <time>2023-04-18T13:55:44Z</time>
      </trkpt>
      <trkpt lat="45.83671" lon="4.71654">
        <ele>284.6</ele>
        <time>2023-04-18T13:55:46Z</time>
      </trkpt>
      <trkpt lat="45.83666" lon="4.71654">
        <ele>284.3</ele>
        <time>2023-04-18T13:55:48Z</time>
      </trkpt>
      <trkpt lat="45.8366" lon="4.71654">
        <ele>283.2</ele>
        <time>2023-04-18T13:55:50Z</time>
      </trkpt>
      <trkpt lat="45.83655" lon="4.71653">
        <ele>283.1</ele>
        <time>2023-04-18T13:55:52Z</time>
      </trkpt>
      <trkpt lat="45.83642" lon="4.71647">
        <ele>283.7</ele>
        <time>2023-04-18T13:55:58Z</time>
      </trkpt>
      <trkpt lat="45.83636" lon="4.71642">
        <ele>286</ele>
        <time>2023-04-18T13:56:01Z</time>
      </trkpt>
      <trkpt lat="45.83601" lon="4.7148">
        <ele>290.2</ele>
        <time>2023-04-18T13:56:38Z</time>
      </trkpt>
      <trkpt lat="45.83619" lon="4.7147">
        <ele>290</ele>
        <time>2023-04-18T13:56:53Z</time>
      </trkpt>
      <trkpt lat="45.83622" lon="4.71463">
        <ele>292.8</ele>
        <time>2023-04-18T13:56:58Z</time>
      </trkpt>
      <trkpt lat="45.83636" lon="4.71451">
        <ele>292.4</ele>
        <time>2023-04-18T13:57:03Z</time>
      </trkpt>
      <trkpt lat="45.83641" lon="4.71447">
        <ele>292.6</ele>
        <time>2023-04-18T13:57:08Z</time>
      </trkpt>
      <trkpt lat="45.8365" lon="4.71381">
        <ele>296.3</ele>
        <time>2023-04-18T13:57:18Z</time>
      </trkpt>
      <trkpt lat="45.83627" lon="4.71436">
        <ele>297.2</ele>
        <time>2023-04-18T13:57:18Z</time>
      </trkpt>
      <trkpt lat="45.83581" lon="4.71168">
        <ele>295.3</ele>
        <time>2023-04-18T13:58:34Z</time>
      </trkpt>
      <trkpt lat="45.83576" lon="4.71161">
        <ele>296.5</ele>
        <time>2023-04-18T13:58:39Z</time>
      </trkpt>
      <trkpt lat="45.83573" lon="4.7109">
        <ele>298</ele>
        <time>2023-04-18T13:59:04Z</time>
      </trkpt>
      <trkpt lat="45.83495" lon="4.70998">
        <ele>299.8</ele>
        <time>2023-04-18T13:59:29Z</time>
      </trkpt>
      <trkpt lat="45.83315" lon="4.70992">
        <ele>304.8</ele>
        <time>2023-04-18T14:00:39Z</time>
      </trkpt>
      <trkpt lat="45.83304" lon="4.7099">
        <ele>305.2</ele>
        <time>2023-04-18T14:00:44Z</time>
      </trkpt>
    </trkseg>
  </trk>
</gpx>